<?xml version="1.0" encoding="UTF-8" standalone="no" ?>
<gpx xmlns="http://www.topografix.com/GPX/1/1" xmlns:xsi="http://www.w3.org/2001/XMLSchema-instance" xsi:schemaLocation="http://www.topografix.com/GPX/1/1 http://www.topografix.com/GPX/1/1/gpx.xsd" version="1.1" creator="VisuGPX - https://www.visugpx.com">
  <metadata>
    <name>Les Mondédiaires depuis Clergoux</name>
    <desc><![CDATA[Dur dur le retour pas le courage de grimper au Puy de Sarran]]></desc>
  </metadata>
  <trk>
    <name><![CDATA[Les Mondédiaires depuis Clergoux_1]]></name>
    <trkseg>
      <trkpt lat="45.283" lon="1.96941">
        <ele>614</ele>
        <time>2011-07-15T12:59:21.000Z</time>
      </trkpt>
      <trkpt lat="45.2834" lon="1.96978">
        <ele>617</ele>
        <time>2011-07-15T12:59:34.000Z</time>
      </trkpt>
      <trkpt lat="45.2839" lon="1.96973">
        <ele>618</ele>
        <time>2011-07-15T12:59:47.000Z</time>
      </trkpt>
      <trkpt lat="45.2844" lon="1.96969">
        <ele>614</ele>
        <time>2011-07-15T12:59:54.000Z</time>
      </trkpt>
      <trkpt lat="45.2848" lon="1.96954">
        <ele>618</ele>
        <time>2011-07-15T13:00:04.000Z</time>
      </trkpt>
      <trkpt lat="45.2853" lon="1.96941">
        <ele>619</ele>
        <time>2011-07-15T13:00:14.000Z</time>
      </trkpt>
      <trkpt lat="45.2854" lon="1.96874">
        <ele>639</ele>
        <time>2011-07-15T13:00:19.000Z</time>
      </trkpt>
      <trkpt lat="45.2858" lon="1.96836">
        <ele>655</ele>
        <time>2011-07-15T13:00:30.000Z</time>
      </trkpt>
      <trkpt lat="45.2852" lon="1.96829">
        <ele>762</ele>
        <time>2011-07-15T13:00:34.000Z</time>
      </trkpt>
      <trkpt lat="45.2856" lon="1.96805">
        <ele>859</ele>
        <time>2011-07-15T13:00:55.000Z</time>
      </trkpt>
      <trkpt lat="45.286" lon="1.96758">
        <ele>897</ele>
        <time>2011-07-15T13:01:07.000Z</time>
      </trkpt>
      <trkpt lat="45.2864" lon="1.96715">
        <ele>906</ele>
        <time>2011-07-15T13:01:15.000Z</time>
      </trkpt>
      <trkpt lat="45.2868" lon="1.96686">
        <ele>917</ele>
        <time>2011-07-15T13:01:23.000Z</time>
      </trkpt>
      <trkpt lat="45.2872" lon="1.96658">
        <ele>916</ele>
        <time>2011-07-15T13:01:30.000Z</time>
      </trkpt>
      <trkpt lat="45.2876" lon="1.96614">
        <ele>916</ele>
        <time>2011-07-15T13:01:38.000Z</time>
      </trkpt>
      <trkpt lat="45.288" lon="1.96571">
        <ele>916</ele>
        <time>2011-07-15T13:01:45.000Z</time>
      </trkpt>
      <trkpt lat="45.2886" lon="1.96575">
        <ele>883</ele>
        <time>2011-07-15T13:01:51.000Z</time>
      </trkpt>
      <trkpt lat="45.2891" lon="1.96583">
        <ele>854</ele>
        <time>2011-07-15T13:01:55.000Z</time>
      </trkpt>
      <trkpt lat="45.2895" lon="1.96594">
        <ele>858</ele>
        <time>2011-07-15T13:02:06.000Z</time>
      </trkpt>
      <trkpt lat="45.2902" lon="1.9658">
        <ele>804</ele>
        <time>2011-07-15T13:02:09.000Z</time>
      </trkpt>
      <trkpt lat="45.2903" lon="1.96484">
        <ele>732</ele>
        <time>2011-07-15T13:02:11.000Z</time>
      </trkpt>
      <trkpt lat="45.2912" lon="1.96463">
        <ele>689</ele>
        <time>2011-07-15T13:02:17.000Z</time>
      </trkpt>
      <trkpt lat="45.2916" lon="1.9643">
        <ele>666</ele>
        <time>2011-07-15T13:02:25.000Z</time>
      </trkpt>
      <trkpt lat="45.292" lon="1.96397">
        <ele>667</ele>
        <time>2011-07-15T13:02:37.000Z</time>
      </trkpt>
      <trkpt lat="45.2923" lon="1.96348">
        <ele>647</ele>
        <time>2011-07-15T13:02:45.000Z</time>
      </trkpt>
      <trkpt lat="45.2928" lon="1.96326">
        <ele>644</ele>
        <time>2011-07-15T13:02:57.000Z</time>
      </trkpt>
      <trkpt lat="45.2933" lon="1.96324">
        <ele>646</ele>
        <time>2011-07-15T13:03:10.000Z</time>
      </trkpt>
      <trkpt lat="45.2937" lon="1.96284">
        <ele>647</ele>
        <time>2011-07-15T13:03:22.000Z</time>
      </trkpt>
      <trkpt lat="45.2941" lon="1.96259">
        <ele>645</ele>
        <time>2011-07-15T13:03:30.000Z</time>
      </trkpt>
      <trkpt lat="45.2946" lon="1.96255">
        <ele>647</ele>
        <time>2011-07-15T13:03:41.000Z</time>
      </trkpt>
      <trkpt lat="45.2952" lon="1.96258">
        <ele>655</ele>
        <time>2011-07-15T13:03:53.000Z</time>
      </trkpt>
      <trkpt lat="45.2956" lon="1.96252">
        <ele>640</ele>
        <time>2011-07-15T13:04:01.000Z</time>
      </trkpt>
      <trkpt lat="45.2961" lon="1.96256">
        <ele>630</ele>
        <time>2011-07-15T13:04:08.000Z</time>
      </trkpt>
      <trkpt lat="45.2966" lon="1.96251">
        <ele>622</ele>
        <time>2011-07-15T13:04:14.000Z</time>
      </trkpt>
      <trkpt lat="45.2971" lon="1.96244">
        <ele>622</ele>
        <time>2011-07-15T13:04:22.000Z</time>
      </trkpt>
      <trkpt lat="45.2976" lon="1.96236">
        <ele>624</ele>
        <time>2011-07-15T13:04:31.000Z</time>
      </trkpt>
      <trkpt lat="45.298" lon="1.96218">
        <ele>626</ele>
        <time>2011-07-15T13:04:38.000Z</time>
      </trkpt>
      <trkpt lat="45.2987" lon="1.96217">
        <ele>631</ele>
        <time>2011-07-15T13:04:45.000Z</time>
      </trkpt>
      <trkpt lat="45.2991" lon="1.96232">
        <ele>633</ele>
        <time>2011-07-15T13:04:51.000Z</time>
      </trkpt>
      <trkpt lat="45.2996" lon="1.96195">
        <ele>633</ele>
        <time>2011-07-15T13:04:57.000Z</time>
      </trkpt>
      <trkpt lat="45.3001" lon="1.96211">
        <ele>638</ele>
        <time>2011-07-15T13:05:06.000Z</time>
      </trkpt>
      <trkpt lat="45.3006" lon="1.9622">
        <ele>643</ele>
        <time>2011-07-15T13:05:11.000Z</time>
      </trkpt>
      <trkpt lat="45.3011" lon="1.9624">
        <ele>645</ele>
        <time>2011-07-15T13:05:17.000Z</time>
      </trkpt>
      <trkpt lat="45.3015" lon="1.96189">
        <ele>641</ele>
        <time>2011-07-15T13:05:28.000Z</time>
      </trkpt>
      <trkpt lat="45.302" lon="1.96181">
        <ele>652</ele>
        <time>2011-07-15T13:05:32.000Z</time>
      </trkpt>
      <trkpt lat="45.3026" lon="1.96131">
        <ele>639</ele>
        <time>2011-07-15T13:05:40.000Z</time>
      </trkpt>
      <trkpt lat="45.303" lon="1.96155">
        <ele>637</ele>
        <time>2011-07-15T13:05:48.000Z</time>
      </trkpt>
      <trkpt lat="45.3035" lon="1.96135">
        <ele>648</ele>
        <time>2011-07-15T13:05:58.000Z</time>
      </trkpt>
      <trkpt lat="45.3037" lon="1.96073">
        <ele>647</ele>
        <time>2011-07-15T13:06:05.000Z</time>
      </trkpt>
      <trkpt lat="45.3041" lon="1.96014">
        <ele>645</ele>
        <time>2011-07-15T13:06:09.000Z</time>
      </trkpt>
      <trkpt lat="45.3044" lon="1.95956">
        <ele>639</ele>
        <time>2011-07-15T13:06:14.000Z</time>
      </trkpt>
      <trkpt lat="45.3048" lon="1.959">
        <ele>628</ele>
        <time>2011-07-15T13:06:21.000Z</time>
      </trkpt>
      <trkpt lat="45.3052" lon="1.95876">
        <ele>614</ele>
        <time>2011-07-15T13:06:31.000Z</time>
      </trkpt>
      <trkpt lat="45.3057" lon="1.95867">
        <ele>619</ele>
        <time>2011-07-15T13:06:45.000Z</time>
      </trkpt>
      <trkpt lat="45.3062" lon="1.95873">
        <ele>624</ele>
        <time>2011-07-15T13:06:55.000Z</time>
      </trkpt>
      <trkpt lat="45.3067" lon="1.9585">
        <ele>614</ele>
        <time>2011-07-15T13:07:05.000Z</time>
      </trkpt>
      <trkpt lat="45.307" lon="1.95802">
        <ele>612</ele>
        <time>2011-07-15T13:07:20.000Z</time>
      </trkpt>
      <trkpt lat="45.3071" lon="1.95719">
        <ele>614</ele>
        <time>2011-07-15T13:07:30.000Z</time>
      </trkpt>
      <trkpt lat="45.3072" lon="1.95626">
        <ele>612</ele>
        <time>2011-07-15T13:07:42.000Z</time>
      </trkpt>
      <trkpt lat="45.3075" lon="1.95584">
        <ele>615</ele>
        <time>2011-07-15T13:07:54.000Z</time>
      </trkpt>
      <trkpt lat="45.308" lon="1.95571">
        <ele>599</ele>
        <time>2011-07-15T13:08:02.000Z</time>
      </trkpt>
      <trkpt lat="45.3085" lon="1.95543">
        <ele>595</ele>
        <time>2011-07-15T13:08:12.000Z</time>
      </trkpt>
      <trkpt lat="45.3089" lon="1.95548">
        <ele>606</ele>
        <time>2011-07-15T13:08:22.000Z</time>
      </trkpt>
      <trkpt lat="45.3107" lon="1.95455">
        <ele>601</ele>
        <time>2011-07-15T13:08:54.000Z</time>
      </trkpt>
      <trkpt lat="45.3112" lon="1.95351">
        <ele>614</ele>
        <time>2011-07-15T13:09:03.000Z</time>
      </trkpt>
      <trkpt lat="45.3115" lon="1.953">
        <ele>577</ele>
        <time>2011-07-15T13:09:10.000Z</time>
      </trkpt>
      <trkpt lat="45.3119" lon="1.9528">
        <ele>579</ele>
        <time>2011-07-15T13:09:18.000Z</time>
      </trkpt>
      <trkpt lat="45.3124" lon="1.95272">
        <ele>579</ele>
        <time>2011-07-15T13:09:26.000Z</time>
      </trkpt>
      <trkpt lat="45.3129" lon="1.95267">
        <ele>575</ele>
        <time>2011-07-15T13:09:33.000Z</time>
      </trkpt>
      <trkpt lat="45.3134" lon="1.95247">
        <ele>587</ele>
        <time>2011-07-15T13:09:44.000Z</time>
      </trkpt>
      <trkpt lat="45.3139" lon="1.9522">
        <ele>597</ele>
        <time>2011-07-15T13:09:56.000Z</time>
      </trkpt>
      <trkpt lat="45.3144" lon="1.9521">
        <ele>621</ele>
        <time>2011-07-15T13:10:06.000Z</time>
      </trkpt>
      <trkpt lat="45.3148" lon="1.95179">
        <ele>620</ele>
        <time>2011-07-15T13:10:12.000Z</time>
      </trkpt>
      <trkpt lat="45.3152" lon="1.95199">
        <ele>627</ele>
        <time>2011-07-15T13:10:22.000Z</time>
      </trkpt>
      <trkpt lat="45.3155" lon="1.9525">
        <ele>633</ele>
        <time>2011-07-15T13:10:33.000Z</time>
      </trkpt>
      <trkpt lat="45.3159" lon="1.95281">
        <ele>647</ele>
        <time>2011-07-15T13:10:47.000Z</time>
      </trkpt>
      <trkpt lat="45.3164" lon="1.9528">
        <ele>644</ele>
        <time>2011-07-15T13:10:57.000Z</time>
      </trkpt>
      <trkpt lat="45.3169" lon="1.95273">
        <ele>638</ele>
        <time>2011-07-15T13:11:09.000Z</time>
      </trkpt>
      <trkpt lat="45.3173" lon="1.95317">
        <ele>646</ele>
        <time>2011-07-15T13:11:21.000Z</time>
      </trkpt>
      <trkpt lat="45.3175" lon="1.95374">
        <ele>651</ele>
        <time>2011-07-15T13:11:31.000Z</time>
      </trkpt>
      <trkpt lat="45.318" lon="1.95391">
        <ele>651</ele>
        <time>2011-07-15T13:11:42.000Z</time>
      </trkpt>
      <trkpt lat="45.3185" lon="1.95403">
        <ele>658</ele>
        <time>2011-07-15T13:11:55.000Z</time>
      </trkpt>
      <trkpt lat="45.3189" lon="1.95427">
        <ele>667</ele>
        <time>2011-07-15T13:12:07.000Z</time>
      </trkpt>
      <trkpt lat="45.3195" lon="1.95445">
        <ele>676</ele>
        <time>2011-07-15T13:12:18.000Z</time>
      </trkpt>
      <trkpt lat="45.32" lon="1.95455">
        <ele>692</ele>
        <time>2011-07-15T13:12:30.000Z</time>
      </trkpt>
      <trkpt lat="45.3205" lon="1.95463">
        <ele>695</ele>
        <time>2011-07-15T13:12:39.000Z</time>
      </trkpt>
      <trkpt lat="45.3211" lon="1.95465">
        <ele>694</ele>
        <time>2011-07-15T13:12:50.000Z</time>
      </trkpt>
      <trkpt lat="45.3215" lon="1.95455">
        <ele>694</ele>
        <time>2011-07-15T13:12:56.000Z</time>
      </trkpt>
      <trkpt lat="45.322" lon="1.95445">
        <ele>692</ele>
        <time>2011-07-15T13:13:04.000Z</time>
      </trkpt>
      <trkpt lat="45.3224" lon="1.95472">
        <ele>693</ele>
        <time>2011-07-15T13:13:14.000Z</time>
      </trkpt>
      <trkpt lat="45.3229" lon="1.95457">
        <ele>693</ele>
        <time>2011-07-15T13:13:22.000Z</time>
      </trkpt>
      <trkpt lat="45.3234" lon="1.95449">
        <ele>685</ele>
        <time>2011-07-15T13:13:28.000Z</time>
      </trkpt>
      <trkpt lat="45.3239" lon="1.95468">
        <ele>681</ele>
        <time>2011-07-15T13:13:34.000Z</time>
      </trkpt>
      <trkpt lat="45.3243" lon="1.9546">
        <ele>682</ele>
        <time>2011-07-15T13:13:42.000Z</time>
      </trkpt>
      <trkpt lat="45.3248" lon="1.95458">
        <ele>690</ele>
        <time>2011-07-15T13:13:52.000Z</time>
      </trkpt>
      <trkpt lat="45.3253" lon="1.95473">
        <ele>689</ele>
        <time>2011-07-15T13:14:02.000Z</time>
      </trkpt>
      <trkpt lat="45.3259" lon="1.95477">
        <ele>688</ele>
        <time>2011-07-15T13:14:11.000Z</time>
      </trkpt>
      <trkpt lat="45.3264" lon="1.95468">
        <ele>698</ele>
        <time>2011-07-15T13:14:19.000Z</time>
      </trkpt>
      <trkpt lat="45.3268" lon="1.95459">
        <ele>702</ele>
        <time>2011-07-15T13:14:28.000Z</time>
      </trkpt>
      <trkpt lat="45.3273" lon="1.95416">
        <ele>697</ele>
        <time>2011-07-15T13:14:34.000Z</time>
      </trkpt>
      <trkpt lat="45.3278" lon="1.95417">
        <ele>694</ele>
        <time>2011-07-15T13:14:44.000Z</time>
      </trkpt>
      <trkpt lat="45.3283" lon="1.95396">
        <ele>691</ele>
        <time>2011-07-15T13:14:52.000Z</time>
      </trkpt>
      <trkpt lat="45.3288" lon="1.95386">
        <ele>693</ele>
        <time>2011-07-15T13:14:57.000Z</time>
      </trkpt>
      <trkpt lat="45.3291" lon="1.95327">
        <ele>690</ele>
        <time>2011-07-15T13:15:08.000Z</time>
      </trkpt>
      <trkpt lat="45.3297" lon="1.95323">
        <ele>691</ele>
        <time>2011-07-15T13:15:16.000Z</time>
      </trkpt>
      <trkpt lat="45.3302" lon="1.95342">
        <ele>687</ele>
        <time>2011-07-15T13:15:24.000Z</time>
      </trkpt>
      <trkpt lat="45.3307" lon="1.95346">
        <ele>692</ele>
        <time>2011-07-15T13:15:30.000Z</time>
      </trkpt>
      <trkpt lat="45.3312" lon="1.95336">
        <ele>695</ele>
        <time>2011-07-15T13:15:35.000Z</time>
      </trkpt>
      <trkpt lat="45.3316" lon="1.95298">
        <ele>695</ele>
        <time>2011-07-15T13:15:39.000Z</time>
      </trkpt>
      <trkpt lat="45.3321" lon="1.95258">
        <ele>695</ele>
        <time>2011-07-15T13:15:43.000Z</time>
      </trkpt>
      <trkpt lat="45.332" lon="1.9518">
        <ele>688</ele>
        <time>2011-07-15T13:15:49.000Z</time>
      </trkpt>
      <trkpt lat="45.3324" lon="1.95144">
        <ele>684</ele>
        <time>2011-07-15T13:15:54.000Z</time>
      </trkpt>
      <trkpt lat="45.3328" lon="1.95117">
        <ele>685</ele>
        <time>2011-07-15T13:15:59.000Z</time>
      </trkpt>
      <trkpt lat="45.3334" lon="1.95075">
        <ele>686</ele>
        <time>2011-07-15T13:16:05.000Z</time>
      </trkpt>
      <trkpt lat="45.3338" lon="1.95036">
        <ele>686</ele>
        <time>2011-07-15T13:16:10.000Z</time>
      </trkpt>
      <trkpt lat="45.3343" lon="1.94985">
        <ele>686</ele>
        <time>2011-07-15T13:16:17.000Z</time>
      </trkpt>
      <trkpt lat="45.3342" lon="1.94909">
        <ele>685</ele>
        <time>2011-07-15T13:16:18.000Z</time>
      </trkpt>
      <trkpt lat="45.3346" lon="1.94863">
        <ele>677</ele>
        <time>2011-07-15T13:16:23.000Z</time>
      </trkpt>
      <trkpt lat="45.335" lon="1.94816">
        <ele>663</ele>
        <time>2011-07-15T13:16:29.000Z</time>
      </trkpt>
      <trkpt lat="45.335" lon="1.94752">
        <ele>648</ele>
        <time>2011-07-15T13:16:45.000Z</time>
      </trkpt>
      <trkpt lat="45.3345" lon="1.94695">
        <ele>636</ele>
        <time>2011-07-15T13:16:50.000Z</time>
      </trkpt>
      <trkpt lat="45.3347" lon="1.94636">
        <ele>627</ele>
        <time>2011-07-15T13:16:54.000Z</time>
      </trkpt>
      <trkpt lat="45.3349" lon="1.94579">
        <ele>620</ele>
        <time>2011-07-15T13:17:02.000Z</time>
      </trkpt>
      <trkpt lat="45.335" lon="1.94504">
        <ele>618</ele>
        <time>2011-07-15T13:17:13.000Z</time>
      </trkpt>
      <trkpt lat="45.3352" lon="1.94437">
        <ele>613</ele>
        <time>2011-07-15T13:17:21.000Z</time>
      </trkpt>
      <trkpt lat="45.3354" lon="1.94375">
        <ele>612</ele>
        <time>2011-07-15T13:17:27.000Z</time>
      </trkpt>
      <trkpt lat="45.3356" lon="1.94312">
        <ele>611</ele>
        <time>2011-07-15T13:17:33.000Z</time>
      </trkpt>
      <trkpt lat="45.3358" lon="1.94247">
        <ele>611</ele>
        <time>2011-07-15T13:17:39.000Z</time>
      </trkpt>
      <trkpt lat="45.336" lon="1.94187">
        <ele>611</ele>
        <time>2011-07-15T13:17:45.000Z</time>
      </trkpt>
      <trkpt lat="45.3352" lon="1.9413">
        <ele>610</ele>
        <time>2011-07-15T13:17:49.000Z</time>
      </trkpt>
      <trkpt lat="45.3352" lon="1.94048">
        <ele>606</ele>
        <time>2011-07-15T13:17:57.000Z</time>
      </trkpt>
      <trkpt lat="45.3354" lon="1.93981">
        <ele>605</ele>
        <time>2011-07-15T13:18:05.000Z</time>
      </trkpt>
      <trkpt lat="45.3357" lon="1.93919">
        <ele>607</ele>
        <time>2011-07-15T13:18:13.000Z</time>
      </trkpt>
      <trkpt lat="45.3361" lon="1.93855">
        <ele>607</ele>
        <time>2011-07-15T13:18:21.000Z</time>
      </trkpt>
      <trkpt lat="45.3361" lon="1.93785">
        <ele>603</ele>
        <time>2011-07-15T13:18:27.000Z</time>
      </trkpt>
      <trkpt lat="45.3362" lon="1.93701">
        <ele>601</ele>
        <time>2011-07-15T13:18:33.000Z</time>
      </trkpt>
      <trkpt lat="45.3366" lon="1.93655">
        <ele>600</ele>
        <time>2011-07-15T13:18:38.000Z</time>
      </trkpt>
      <trkpt lat="45.3371" lon="1.93624">
        <ele>601</ele>
        <time>2011-07-15T13:18:43.000Z</time>
      </trkpt>
      <trkpt lat="45.3376" lon="1.93568">
        <ele>600</ele>
        <time>2011-07-15T13:18:49.000Z</time>
      </trkpt>
      <trkpt lat="45.338" lon="1.93518">
        <ele>594</ele>
        <time>2011-07-15T13:18:54.000Z</time>
      </trkpt>
      <trkpt lat="45.3384" lon="1.93458">
        <ele>591</ele>
        <time>2011-07-15T13:19:01.000Z</time>
      </trkpt>
      <trkpt lat="45.3387" lon="1.93409">
        <ele>592</ele>
        <time>2011-07-15T13:19:09.000Z</time>
      </trkpt>
      <trkpt lat="45.3388" lon="1.93344">
        <ele>596</ele>
        <time>2011-07-15T13:19:21.000Z</time>
      </trkpt>
      <trkpt lat="45.339" lon="1.93275">
        <ele>598</ele>
        <time>2011-07-15T13:19:30.000Z</time>
      </trkpt>
      <trkpt lat="45.3393" lon="1.9322">
        <ele>599</ele>
        <time>2011-07-15T13:19:37.000Z</time>
      </trkpt>
      <trkpt lat="45.3397" lon="1.93193">
        <ele>605</ele>
        <time>2011-07-15T13:19:51.000Z</time>
      </trkpt>
      <trkpt lat="45.3401" lon="1.93153">
        <ele>600</ele>
        <time>2011-07-15T13:20:01.000Z</time>
      </trkpt>
      <trkpt lat="45.3405" lon="1.93117">
        <ele>601</ele>
        <time>2011-07-15T13:20:09.000Z</time>
      </trkpt>
      <trkpt lat="45.3409" lon="1.93078">
        <ele>600</ele>
        <time>2011-07-15T13:20:17.000Z</time>
      </trkpt>
      <trkpt lat="45.3413" lon="1.93045">
        <ele>606</ele>
        <time>2011-07-15T13:20:30.000Z</time>
      </trkpt>
      <trkpt lat="45.3416" lon="1.93003">
        <ele>596</ele>
        <time>2011-07-15T13:20:46.000Z</time>
      </trkpt>
      <trkpt lat="45.342" lon="1.92966">
        <ele>594</ele>
        <time>2011-07-15T13:20:55.000Z</time>
      </trkpt>
      <trkpt lat="45.3424" lon="1.92926">
        <ele>595</ele>
        <time>2011-07-15T13:21:05.000Z</time>
      </trkpt>
      <trkpt lat="45.343" lon="1.92917">
        <ele>596</ele>
        <time>2011-07-15T13:21:17.000Z</time>
      </trkpt>
      <trkpt lat="45.3434" lon="1.92911">
        <ele>596</ele>
        <time>2011-07-15T13:21:26.000Z</time>
      </trkpt>
      <trkpt lat="45.3439" lon="1.92901">
        <ele>599</ele>
        <time>2011-07-15T13:21:37.000Z</time>
      </trkpt>
      <trkpt lat="45.3444" lon="1.92896">
        <ele>603</ele>
        <time>2011-07-15T13:21:47.000Z</time>
      </trkpt>
      <trkpt lat="45.3448" lon="1.9286">
        <ele>607</ele>
        <time>2011-07-15T13:21:57.000Z</time>
      </trkpt>
      <trkpt lat="45.3452" lon="1.92841">
        <ele>615</ele>
        <time>2011-07-15T13:22:09.000Z</time>
      </trkpt>
      <trkpt lat="45.3457" lon="1.92862">
        <ele>623</ele>
        <time>2011-07-15T13:22:21.000Z</time>
      </trkpt>
      <trkpt lat="45.3462" lon="1.92847">
        <ele>620</ele>
        <time>2011-07-15T13:22:29.000Z</time>
      </trkpt>
      <trkpt lat="45.3467" lon="1.92823">
        <ele>619</ele>
        <time>2011-07-15T13:22:37.000Z</time>
      </trkpt>
      <trkpt lat="45.3471" lon="1.92805">
        <ele>618</ele>
        <time>2011-07-15T13:22:45.000Z</time>
      </trkpt>
      <trkpt lat="45.3476" lon="1.92841">
        <ele>632</ele>
        <time>2011-07-15T13:22:57.000Z</time>
      </trkpt>
      <trkpt lat="45.348" lon="1.92859">
        <ele>632</ele>
        <time>2011-07-15T13:23:05.000Z</time>
      </trkpt>
      <trkpt lat="45.3485" lon="1.92886">
        <ele>634</ele>
        <time>2011-07-15T13:23:17.000Z</time>
      </trkpt>
      <trkpt lat="45.3489" lon="1.92928">
        <ele>639</ele>
        <time>2011-07-15T13:23:29.000Z</time>
      </trkpt>
      <trkpt lat="45.3493" lon="1.92969">
        <ele>641</ele>
        <time>2011-07-15T13:23:39.000Z</time>
      </trkpt>
      <trkpt lat="45.3496" lon="1.93011">
        <ele>641</ele>
        <time>2011-07-15T13:23:49.000Z</time>
      </trkpt>
      <trkpt lat="45.3501" lon="1.93007">
        <ele>640</ele>
        <time>2011-07-15T13:24:01.000Z</time>
      </trkpt>
      <trkpt lat="45.3505" lon="1.93014">
        <ele>638</ele>
        <time>2011-07-15T13:24:17.000Z</time>
      </trkpt>
      <trkpt lat="45.3509" lon="1.93043">
        <ele>638</ele>
        <time>2011-07-15T13:24:29.000Z</time>
      </trkpt>
      <trkpt lat="45.3514" lon="1.93065">
        <ele>632</ele>
        <time>2011-07-15T13:24:39.000Z</time>
      </trkpt>
      <trkpt lat="45.3518" lon="1.93054">
        <ele>637</ele>
        <time>2011-07-15T13:24:49.000Z</time>
      </trkpt>
      <trkpt lat="45.3523" lon="1.93048">
        <ele>637</ele>
        <time>2011-07-15T13:24:57.000Z</time>
      </trkpt>
      <trkpt lat="45.3528" lon="1.9304">
        <ele>631</ele>
        <time>2011-07-15T13:25:05.000Z</time>
      </trkpt>
      <trkpt lat="45.3532" lon="1.93004">
        <ele>632</ele>
        <time>2011-07-15T13:25:14.000Z</time>
      </trkpt>
      <trkpt lat="45.3535" lon="1.92954">
        <ele>631</ele>
        <time>2011-07-15T13:25:22.000Z</time>
      </trkpt>
      <trkpt lat="45.3539" lon="1.92901">
        <ele>630</ele>
        <time>2011-07-15T13:25:29.000Z</time>
      </trkpt>
      <trkpt lat="45.3542" lon="1.92857">
        <ele>631</ele>
        <time>2011-07-15T13:25:34.000Z</time>
      </trkpt>
      <trkpt lat="45.3545" lon="1.92809">
        <ele>630</ele>
        <time>2011-07-15T13:25:39.000Z</time>
      </trkpt>
      <trkpt lat="45.3548" lon="1.92741">
        <ele>626</ele>
        <time>2011-07-15T13:25:45.000Z</time>
      </trkpt>
      <trkpt lat="45.3551" lon="1.92692">
        <ele>622</ele>
        <time>2011-07-15T13:25:50.000Z</time>
      </trkpt>
      <trkpt lat="45.3555" lon="1.92655">
        <ele>619</ele>
        <time>2011-07-15T13:25:57.000Z</time>
      </trkpt>
      <trkpt lat="45.356" lon="1.92646">
        <ele>619</ele>
        <time>2011-07-15T13:26:09.000Z</time>
      </trkpt>
      <trkpt lat="45.3565" lon="1.92656">
        <ele>625</ele>
        <time>2011-07-15T13:26:22.000Z</time>
      </trkpt>
      <trkpt lat="45.3569" lon="1.92683">
        <ele>626</ele>
        <time>2011-07-15T13:26:34.000Z</time>
      </trkpt>
      <trkpt lat="45.3572" lon="1.92743">
        <ele>626</ele>
        <time>2011-07-15T13:26:45.000Z</time>
      </trkpt>
      <trkpt lat="45.3576" lon="1.92728">
        <ele>626</ele>
        <time>2011-07-15T13:26:55.000Z</time>
      </trkpt>
      <trkpt lat="45.3581" lon="1.92695">
        <ele>623</ele>
        <time>2011-07-15T13:27:05.000Z</time>
      </trkpt>
      <trkpt lat="45.3586" lon="1.92686">
        <ele>628</ele>
        <time>2011-07-15T13:27:17.000Z</time>
      </trkpt>
      <trkpt lat="45.3591" lon="1.92674">
        <ele>632</ele>
        <time>2011-07-15T13:27:29.000Z</time>
      </trkpt>
      <trkpt lat="45.3595" lon="1.9267">
        <ele>633</ele>
        <time>2011-07-15T13:27:41.000Z</time>
      </trkpt>
      <trkpt lat="45.36" lon="1.92687">
        <ele>644</ele>
        <time>2011-07-15T13:27:55.000Z</time>
      </trkpt>
      <trkpt lat="45.3605" lon="1.92701">
        <ele>647</ele>
        <time>2011-07-15T13:28:05.000Z</time>
      </trkpt>
      <trkpt lat="45.3609" lon="1.92713">
        <ele>652</ele>
        <time>2011-07-15T13:28:17.000Z</time>
      </trkpt>
      <trkpt lat="45.3614" lon="1.92724">
        <ele>652</ele>
        <time>2011-07-15T13:28:27.000Z</time>
      </trkpt>
      <trkpt lat="45.3618" lon="1.92737">
        <ele>659</ele>
        <time>2011-07-15T13:28:38.000Z</time>
      </trkpt>
      <trkpt lat="45.3623" lon="1.92768">
        <ele>662</ele>
        <time>2011-07-15T13:28:47.000Z</time>
      </trkpt>
      <trkpt lat="45.3627" lon="1.92761">
        <ele>658</ele>
        <time>2011-07-15T13:28:54.000Z</time>
      </trkpt>
      <trkpt lat="45.3632" lon="1.92741">
        <ele>654</ele>
        <time>2011-07-15T13:28:59.000Z</time>
      </trkpt>
      <trkpt lat="45.3637" lon="1.92748">
        <ele>655</ele>
        <time>2011-07-15T13:29:05.000Z</time>
      </trkpt>
      <trkpt lat="45.3641" lon="1.92808">
        <ele>654</ele>
        <time>2011-07-15T13:29:13.000Z</time>
      </trkpt>
      <trkpt lat="45.3644" lon="1.9287">
        <ele>656</ele>
        <time>2011-07-15T13:29:23.000Z</time>
      </trkpt>
      <trkpt lat="45.3647" lon="1.92923">
        <ele>654</ele>
        <time>2011-07-15T13:29:33.000Z</time>
      </trkpt>
      <trkpt lat="45.3652" lon="1.92953">
        <ele>666</ele>
        <time>2011-07-15T13:29:46.000Z</time>
      </trkpt>
      <trkpt lat="45.3656" lon="1.92984">
        <ele>668</ele>
        <time>2011-07-15T13:29:53.000Z</time>
      </trkpt>
      <trkpt lat="45.3661" lon="1.92992">
        <ele>670</ele>
        <time>2011-07-15T13:29:59.000Z</time>
      </trkpt>
      <trkpt lat="45.3667" lon="1.93005">
        <ele>665</ele>
        <time>2011-07-15T13:30:05.000Z</time>
      </trkpt>
      <trkpt lat="45.3671" lon="1.93039">
        <ele>665</ele>
        <time>2011-07-15T13:30:10.000Z</time>
      </trkpt>
      <trkpt lat="45.3675" lon="1.93078">
        <ele>659</ele>
        <time>2011-07-15T13:30:15.000Z</time>
      </trkpt>
      <trkpt lat="45.3682" lon="1.9305">
        <ele>657</ele>
        <time>2011-07-15T13:30:21.000Z</time>
      </trkpt>
      <trkpt lat="45.3686" lon="1.93062">
        <ele>658</ele>
        <time>2011-07-15T13:30:27.000Z</time>
      </trkpt>
      <trkpt lat="45.3691" lon="1.93109">
        <ele>659</ele>
        <time>2011-07-15T13:30:33.000Z</time>
      </trkpt>
      <trkpt lat="45.3696" lon="1.9313">
        <ele>663</ele>
        <time>2011-07-15T13:30:41.000Z</time>
      </trkpt>
      <trkpt lat="45.3701" lon="1.93156">
        <ele>666</ele>
        <time>2011-07-15T13:30:49.000Z</time>
      </trkpt>
      <trkpt lat="45.3705" lon="1.93195">
        <ele>665</ele>
        <time>2011-07-15T13:30:57.000Z</time>
      </trkpt>
      <trkpt lat="45.3709" lon="1.93241">
        <ele>662</ele>
        <time>2011-07-15T13:31:05.000Z</time>
      </trkpt>
      <trkpt lat="45.3712" lon="1.93291">
        <ele>664</ele>
        <time>2011-07-15T13:31:15.000Z</time>
      </trkpt>
      <trkpt lat="45.3715" lon="1.93338">
        <ele>663</ele>
        <time>2011-07-15T13:31:25.000Z</time>
      </trkpt>
      <trkpt lat="45.3718" lon="1.93388">
        <ele>660</ele>
        <time>2011-07-15T13:31:35.000Z</time>
      </trkpt>
      <trkpt lat="45.3722" lon="1.93446">
        <ele>663</ele>
        <time>2011-07-15T13:31:49.000Z</time>
      </trkpt>
      <trkpt lat="45.3725" lon="1.93495">
        <ele>670</ele>
        <time>2011-07-15T13:32:05.000Z</time>
      </trkpt>
      <trkpt lat="45.3729" lon="1.93532">
        <ele>675</ele>
        <time>2011-07-15T13:32:18.000Z</time>
      </trkpt>
      <trkpt lat="45.3735" lon="1.93536">
        <ele>677</ele>
        <time>2011-07-15T13:32:30.000Z</time>
      </trkpt>
      <trkpt lat="45.3739" lon="1.93565">
        <ele>680</ele>
        <time>2011-07-15T13:32:36.000Z</time>
      </trkpt>
      <trkpt lat="45.3744" lon="1.9356">
        <ele>685</ele>
        <time>2011-07-15T13:32:42.000Z</time>
      </trkpt>
      <trkpt lat="45.3748" lon="1.93594">
        <ele>688</ele>
        <time>2011-07-15T13:32:48.000Z</time>
      </trkpt>
      <trkpt lat="45.3752" lon="1.93642">
        <ele>680</ele>
        <time>2011-07-15T13:32:53.000Z</time>
      </trkpt>
      <trkpt lat="45.3757" lon="1.93634">
        <ele>659</ele>
        <time>2011-07-15T13:32:58.000Z</time>
      </trkpt>
      <trkpt lat="45.3761" lon="1.93595">
        <ele>652</ele>
        <time>2011-07-15T13:33:04.000Z</time>
      </trkpt>
      <trkpt lat="45.3765" lon="1.93595">
        <ele>647</ele>
        <time>2011-07-15T13:33:14.000Z</time>
      </trkpt>
      <trkpt lat="45.377" lon="1.93577">
        <ele>641</ele>
        <time>2011-07-15T13:33:22.000Z</time>
      </trkpt>
      <trkpt lat="45.3774" lon="1.93529">
        <ele>633</ele>
        <time>2011-07-15T13:33:28.000Z</time>
      </trkpt>
      <trkpt lat="45.3778" lon="1.93482">
        <ele>632</ele>
        <time>2011-07-15T13:33:33.000Z</time>
      </trkpt>
      <trkpt lat="45.3783" lon="1.93461">
        <ele>627</ele>
        <time>2011-07-15T13:33:40.000Z</time>
      </trkpt>
      <trkpt lat="45.3788" lon="1.93444">
        <ele>625</ele>
        <time>2011-07-15T13:33:46.000Z</time>
      </trkpt>
      <trkpt lat="45.3792" lon="1.93413">
        <ele>624</ele>
        <time>2011-07-15T13:33:56.000Z</time>
      </trkpt>
      <trkpt lat="45.3795" lon="1.93357">
        <ele>623</ele>
        <time>2011-07-15T13:34:08.000Z</time>
      </trkpt>
      <trkpt lat="45.3796" lon="1.93291">
        <ele>625</ele>
        <time>2011-07-15T13:34:20.000Z</time>
      </trkpt>
      <trkpt lat="45.3796" lon="1.93227">
        <ele>628</ele>
        <time>2011-07-15T13:34:30.000Z</time>
      </trkpt>
      <trkpt lat="45.3797" lon="1.93158">
        <ele>629</ele>
        <time>2011-07-15T13:34:40.000Z</time>
      </trkpt>
      <trkpt lat="45.3798" lon="1.93091">
        <ele>631</ele>
        <time>2011-07-15T13:34:54.000Z</time>
      </trkpt>
      <trkpt lat="45.38" lon="1.93025">
        <ele>639</ele>
        <time>2011-07-15T13:35:08.000Z</time>
      </trkpt>
      <trkpt lat="45.3803" lon="1.9297">
        <ele>643</ele>
        <time>2011-07-15T13:35:16.000Z</time>
      </trkpt>
      <trkpt lat="45.3805" lon="1.92911">
        <ele>640</ele>
        <time>2011-07-15T13:35:26.000Z</time>
      </trkpt>
      <trkpt lat="45.3809" lon="1.92886">
        <ele>648</ele>
        <time>2011-07-15T13:35:41.000Z</time>
      </trkpt>
      <trkpt lat="45.3814" lon="1.92844">
        <ele>653</ele>
        <time>2011-07-15T13:35:52.000Z</time>
      </trkpt>
      <trkpt lat="45.3817" lon="1.92795">
        <ele>653</ele>
        <time>2011-07-15T13:36:00.000Z</time>
      </trkpt>
      <trkpt lat="45.3819" lon="1.92731">
        <ele>647</ele>
        <time>2011-07-15T13:36:05.000Z</time>
      </trkpt>
      <trkpt lat="45.3823" lon="1.92692">
        <ele>651</ele>
        <time>2011-07-15T13:36:20.000Z</time>
      </trkpt>
      <trkpt lat="45.3828" lon="1.92658">
        <ele>647</ele>
        <time>2011-07-15T13:36:32.000Z</time>
      </trkpt>
      <trkpt lat="45.3831" lon="1.92607">
        <ele>647</ele>
        <time>2011-07-15T13:36:38.000Z</time>
      </trkpt>
      <trkpt lat="45.3836" lon="1.92582">
        <ele>650</ele>
        <time>2011-07-15T13:36:48.000Z</time>
      </trkpt>
      <trkpt lat="45.3841" lon="1.92586">
        <ele>651</ele>
        <time>2011-07-15T13:37:00.000Z</time>
      </trkpt>
      <trkpt lat="45.3846" lon="1.92562">
        <ele>636</ele>
        <time>2011-07-15T13:37:10.000Z</time>
      </trkpt>
      <trkpt lat="45.385" lon="1.92525">
        <ele>638</ele>
        <time>2011-07-15T13:37:20.000Z</time>
      </trkpt>
      <trkpt lat="45.3853" lon="1.92489">
        <ele>637</ele>
        <time>2011-07-15T13:37:28.000Z</time>
      </trkpt>
      <trkpt lat="45.3858" lon="1.92474">
        <ele>656</ele>
        <time>2011-07-15T13:37:41.000Z</time>
      </trkpt>
      <trkpt lat="45.3862" lon="1.92497">
        <ele>672</ele>
        <time>2011-07-15T13:37:49.000Z</time>
      </trkpt>
      <trkpt lat="45.3866" lon="1.9255">
        <ele>677</ele>
        <time>2011-07-15T13:37:56.000Z</time>
      </trkpt>
      <trkpt lat="45.387" lon="1.92593">
        <ele>679</ele>
        <time>2011-07-15T13:38:03.000Z</time>
      </trkpt>
      <trkpt lat="45.3874" lon="1.9262">
        <ele>680</ele>
        <time>2011-07-15T13:38:10.000Z</time>
      </trkpt>
      <trkpt lat="45.388" lon="1.92636">
        <ele>679</ele>
        <time>2011-07-15T13:38:16.000Z</time>
      </trkpt>
      <trkpt lat="45.3884" lon="1.92675">
        <ele>678</ele>
        <time>2011-07-15T13:38:22.000Z</time>
      </trkpt>
      <trkpt lat="45.3888" lon="1.92724">
        <ele>672</ele>
        <time>2011-07-15T13:38:29.000Z</time>
      </trkpt>
      <trkpt lat="45.3891" lon="1.92773">
        <ele>673</ele>
        <time>2011-07-15T13:38:36.000Z</time>
      </trkpt>
      <trkpt lat="45.3895" lon="1.92814">
        <ele>668</ele>
        <time>2011-07-15T13:38:42.000Z</time>
      </trkpt>
      <trkpt lat="45.3899" lon="1.92855">
        <ele>664</ele>
        <time>2011-07-15T13:38:48.000Z</time>
      </trkpt>
      <trkpt lat="45.3902" lon="1.92901">
        <ele>660</ele>
        <time>2011-07-15T13:38:54.000Z</time>
      </trkpt>
      <trkpt lat="45.3905" lon="1.92956">
        <ele>659</ele>
        <time>2011-07-15T13:39:00.000Z</time>
      </trkpt>
      <trkpt lat="45.3909" lon="1.93002">
        <ele>658</ele>
        <time>2011-07-15T13:39:06.000Z</time>
      </trkpt>
      <trkpt lat="45.3914" lon="1.93022">
        <ele>653</ele>
        <time>2011-07-15T13:39:12.000Z</time>
      </trkpt>
      <trkpt lat="45.3919" lon="1.93029">
        <ele>650</ele>
        <time>2011-07-15T13:39:18.000Z</time>
      </trkpt>
      <trkpt lat="45.3923" lon="1.93038">
        <ele>648</ele>
        <time>2011-07-15T13:39:24.000Z</time>
      </trkpt>
      <trkpt lat="45.3928" lon="1.93064">
        <ele>649</ele>
        <time>2011-07-15T13:39:32.000Z</time>
      </trkpt>
      <trkpt lat="45.3934" lon="1.93081">
        <ele>651</ele>
        <time>2011-07-15T13:39:40.000Z</time>
      </trkpt>
      <trkpt lat="45.3938" lon="1.93097">
        <ele>651</ele>
        <time>2011-07-15T13:39:46.000Z</time>
      </trkpt>
      <trkpt lat="45.3943" lon="1.93136">
        <ele>650</ele>
        <time>2011-07-15T13:39:53.000Z</time>
      </trkpt>
      <trkpt lat="45.3944" lon="1.93219">
        <ele>652</ele>
        <time>2011-07-15T13:40:00.000Z</time>
      </trkpt>
      <trkpt lat="45.3947" lon="1.93281">
        <ele>656</ele>
        <time>2011-07-15T13:40:06.000Z</time>
      </trkpt>
      <trkpt lat="45.3953" lon="1.93291">
        <ele>649</ele>
        <time>2011-07-15T13:40:12.000Z</time>
      </trkpt>
      <trkpt lat="45.3958" lon="1.93278">
        <ele>641</ele>
        <time>2011-07-15T13:40:16.000Z</time>
      </trkpt>
      <trkpt lat="45.3963" lon="1.93285">
        <ele>641</ele>
        <time>2011-07-15T13:40:21.000Z</time>
      </trkpt>
      <trkpt lat="45.3968" lon="1.93303">
        <ele>639</ele>
        <time>2011-07-15T13:40:26.000Z</time>
      </trkpt>
      <trkpt lat="45.3972" lon="1.93276">
        <ele>639</ele>
        <time>2011-07-15T13:40:33.000Z</time>
      </trkpt>
      <trkpt lat="45.3974" lon="1.93216">
        <ele>644</ele>
        <time>2011-07-15T13:40:48.000Z</time>
      </trkpt>
      <trkpt lat="45.3978" lon="1.93177">
        <ele>650</ele>
        <time>2011-07-15T13:40:56.000Z</time>
      </trkpt>
      <trkpt lat="45.3984" lon="1.93181">
        <ele>660</ele>
        <time>2011-07-15T13:41:09.000Z</time>
      </trkpt>
      <trkpt lat="45.3988" lon="1.93203">
        <ele>668</ele>
        <time>2011-07-15T13:41:17.000Z</time>
      </trkpt>
      <trkpt lat="45.3991" lon="1.93271">
        <ele>677</ele>
        <time>2011-07-15T13:41:29.000Z</time>
      </trkpt>
      <trkpt lat="45.3994" lon="1.93327">
        <ele>682</ele>
        <time>2011-07-15T13:41:34.000Z</time>
      </trkpt>
      <trkpt lat="45.3999" lon="1.93305">
        <ele>685</ele>
        <time>2011-07-15T13:41:41.000Z</time>
      </trkpt>
      <trkpt lat="45.4003" lon="1.93271">
        <ele>669</ele>
        <time>2011-07-15T13:41:50.000Z</time>
      </trkpt>
      <trkpt lat="45.4005" lon="1.93209">
        <ele>652</ele>
        <time>2011-07-15T13:41:59.000Z</time>
      </trkpt>
      <trkpt lat="45.4009" lon="1.93164">
        <ele>646</ele>
        <time>2011-07-15T13:42:06.000Z</time>
      </trkpt>
      <trkpt lat="45.4011" lon="1.93106">
        <ele>643</ele>
        <time>2011-07-15T13:42:13.000Z</time>
      </trkpt>
      <trkpt lat="45.4013" lon="1.93038">
        <ele>641</ele>
        <time>2011-07-15T13:42:21.000Z</time>
      </trkpt>
      <trkpt lat="45.4014" lon="1.92955">
        <ele>640</ele>
        <time>2011-07-15T13:42:29.000Z</time>
      </trkpt>
      <trkpt lat="45.4013" lon="1.9289">
        <ele>639</ele>
        <time>2011-07-15T13:42:35.000Z</time>
      </trkpt>
      <trkpt lat="45.4012" lon="1.92823">
        <ele>638</ele>
        <time>2011-07-15T13:42:42.000Z</time>
      </trkpt>
      <trkpt lat="45.4007" lon="1.92772">
        <ele>636</ele>
        <time>2011-07-15T13:42:49.000Z</time>
      </trkpt>
      <trkpt lat="45.4006" lon="1.92705">
        <ele>633</ele>
        <time>2011-07-15T13:42:55.000Z</time>
      </trkpt>
      <trkpt lat="45.4007" lon="1.92635">
        <ele>632</ele>
        <time>2011-07-15T13:43:01.000Z</time>
      </trkpt>
      <trkpt lat="45.4009" lon="1.92573">
        <ele>631</ele>
        <time>2011-07-15T13:43:06.000Z</time>
      </trkpt>
      <trkpt lat="45.4012" lon="1.92512">
        <ele>624</ele>
        <time>2011-07-15T13:43:11.000Z</time>
      </trkpt>
      <trkpt lat="45.4015" lon="1.92442">
        <ele>618</ele>
        <time>2011-07-15T13:43:17.000Z</time>
      </trkpt>
      <trkpt lat="45.4018" lon="1.92386">
        <ele>615</ele>
        <time>2011-07-15T13:43:22.000Z</time>
      </trkpt>
      <trkpt lat="45.4021" lon="1.92332">
        <ele>613</ele>
        <time>2011-07-15T13:43:27.000Z</time>
      </trkpt>
      <trkpt lat="45.4025" lon="1.92266">
        <ele>612</ele>
        <time>2011-07-15T13:43:33.000Z</time>
      </trkpt>
      <trkpt lat="45.4028" lon="1.92219">
        <ele>609</ele>
        <time>2011-07-15T13:43:39.000Z</time>
      </trkpt>
      <trkpt lat="45.4032" lon="1.9218">
        <ele>608</ele>
        <time>2011-07-15T13:43:45.000Z</time>
      </trkpt>
      <trkpt lat="45.4036" lon="1.92137">
        <ele>609</ele>
        <time>2011-07-15T13:43:51.000Z</time>
      </trkpt>
      <trkpt lat="45.4041" lon="1.92106">
        <ele>609</ele>
        <time>2011-07-15T13:43:57.000Z</time>
      </trkpt>
      <trkpt lat="45.4045" lon="1.92073">
        <ele>607</ele>
        <time>2011-07-15T13:44:02.000Z</time>
      </trkpt>
      <trkpt lat="45.4048" lon="1.92015">
        <ele>604</ele>
        <time>2011-07-15T13:44:07.000Z</time>
      </trkpt>
      <trkpt lat="45.4052" lon="1.91994">
        <ele>602</ele>
        <time>2011-07-15T13:44:13.000Z</time>
      </trkpt>
      <trkpt lat="45.4058" lon="1.91975">
        <ele>602</ele>
        <time>2011-07-15T13:44:19.000Z</time>
      </trkpt>
      <trkpt lat="45.4062" lon="1.91926">
        <ele>596</ele>
        <time>2011-07-15T13:44:25.000Z</time>
      </trkpt>
      <trkpt lat="45.4067" lon="1.91885">
        <ele>595</ele>
        <time>2011-07-15T13:44:30.000Z</time>
      </trkpt>
      <trkpt lat="45.407" lon="1.91811">
        <ele>594</ele>
        <time>2011-07-15T13:44:37.000Z</time>
      </trkpt>
      <trkpt lat="45.4073" lon="1.91751">
        <ele>593</ele>
        <time>2011-07-15T13:44:43.000Z</time>
      </trkpt>
      <trkpt lat="45.4078" lon="1.91747">
        <ele>598</ele>
        <time>2011-07-15T13:44:49.000Z</time>
      </trkpt>
      <trkpt lat="45.4083" lon="1.91747">
        <ele>597</ele>
        <time>2011-07-15T13:44:54.000Z</time>
      </trkpt>
      <trkpt lat="45.4088" lon="1.91756">
        <ele>595</ele>
        <time>2011-07-15T13:44:58.000Z</time>
      </trkpt>
      <trkpt lat="45.4092" lon="1.91736">
        <ele>594</ele>
        <time>2011-07-15T13:45:01.000Z</time>
      </trkpt>
      <trkpt lat="45.4097" lon="1.91724">
        <ele>586</ele>
        <time>2011-07-15T13:45:05.000Z</time>
      </trkpt>
      <trkpt lat="45.4102" lon="1.91721">
        <ele>587</ele>
        <time>2011-07-15T13:45:10.000Z</time>
      </trkpt>
      <trkpt lat="45.4108" lon="1.91748">
        <ele>589</ele>
        <time>2011-07-15T13:45:17.000Z</time>
      </trkpt>
      <trkpt lat="45.4113" lon="1.91728">
        <ele>587</ele>
        <time>2011-07-15T13:45:23.000Z</time>
      </trkpt>
      <trkpt lat="45.4117" lon="1.91698">
        <ele>578</ele>
        <time>2011-07-15T13:45:30.000Z</time>
      </trkpt>
      <trkpt lat="45.4118" lon="1.91631">
        <ele>583</ele>
        <time>2011-07-15T13:45:53.000Z</time>
      </trkpt>
      <trkpt lat="45.4118" lon="1.91566">
        <ele>583</ele>
        <time>2011-07-15T13:46:03.000Z</time>
      </trkpt>
      <trkpt lat="45.412" lon="1.91503">
        <ele>583</ele>
        <time>2011-07-15T13:46:17.000Z</time>
      </trkpt>
      <trkpt lat="45.4123" lon="1.91452">
        <ele>588</ele>
        <time>2011-07-15T13:46:33.000Z</time>
      </trkpt>
      <trkpt lat="45.4126" lon="1.91401">
        <ele>589</ele>
        <time>2011-07-15T13:46:49.000Z</time>
      </trkpt>
      <trkpt lat="45.413" lon="1.91363">
        <ele>585</ele>
        <time>2011-07-15T13:47:02.000Z</time>
      </trkpt>
      <trkpt lat="45.4134" lon="1.91325">
        <ele>584</ele>
        <time>2011-07-15T13:47:14.000Z</time>
      </trkpt>
      <trkpt lat="45.4137" lon="1.91277">
        <ele>586</ele>
        <time>2011-07-15T13:47:33.000Z</time>
      </trkpt>
      <trkpt lat="45.4142" lon="1.91245">
        <ele>586</ele>
        <time>2011-07-15T13:47:45.000Z</time>
      </trkpt>
      <trkpt lat="45.4144" lon="1.91299">
        <ele>593</ele>
        <time>2011-07-15T13:47:55.000Z</time>
      </trkpt>
      <trkpt lat="45.4149" lon="1.91314">
        <ele>598</ele>
        <time>2011-07-15T13:48:09.000Z</time>
      </trkpt>
      <trkpt lat="45.4154" lon="1.91293">
        <ele>598</ele>
        <time>2011-07-15T13:48:17.000Z</time>
      </trkpt>
      <trkpt lat="45.4159" lon="1.91262">
        <ele>603</ele>
        <time>2011-07-15T13:48:25.000Z</time>
      </trkpt>
      <trkpt lat="45.4163" lon="1.91236">
        <ele>600</ele>
        <time>2011-07-15T13:48:30.000Z</time>
      </trkpt>
      <trkpt lat="45.4168" lon="1.91203">
        <ele>596</ele>
        <time>2011-07-15T13:48:37.000Z</time>
      </trkpt>
      <trkpt lat="45.4172" lon="1.91164">
        <ele>595</ele>
        <time>2011-07-15T13:48:45.000Z</time>
      </trkpt>
      <trkpt lat="45.4176" lon="1.91129">
        <ele>592</ele>
        <time>2011-07-15T13:48:54.000Z</time>
      </trkpt>
      <trkpt lat="45.4181" lon="1.911">
        <ele>596</ele>
        <time>2011-07-15T13:49:03.000Z</time>
      </trkpt>
      <trkpt lat="45.4185" lon="1.91059">
        <ele>599</ele>
        <time>2011-07-15T13:49:14.000Z</time>
      </trkpt>
      <trkpt lat="45.4189" lon="1.91057">
        <ele>615</ele>
        <time>2011-07-15T13:49:27.000Z</time>
      </trkpt>
      <trkpt lat="45.4194" lon="1.91079">
        <ele>619</ele>
        <time>2011-07-15T13:49:33.000Z</time>
      </trkpt>
      <trkpt lat="45.4199" lon="1.91079">
        <ele>618</ele>
        <time>2011-07-15T13:49:38.000Z</time>
      </trkpt>
      <trkpt lat="45.4204" lon="1.91067">
        <ele>624</ele>
        <time>2011-07-15T13:49:45.000Z</time>
      </trkpt>
      <trkpt lat="45.4209" lon="1.91045">
        <ele>626</ele>
        <time>2011-07-15T13:49:57.000Z</time>
      </trkpt>
      <trkpt lat="45.4213" lon="1.91042">
        <ele>629</ele>
        <time>2011-07-15T13:50:09.000Z</time>
      </trkpt>
      <trkpt lat="45.4218" lon="1.91045">
        <ele>623</ele>
        <time>2011-07-15T13:50:19.000Z</time>
      </trkpt>
      <trkpt lat="45.4223" lon="1.91032">
        <ele>609</ele>
        <time>2011-07-15T13:50:29.000Z</time>
      </trkpt>
      <trkpt lat="45.4228" lon="1.91024">
        <ele>612</ele>
        <time>2011-07-15T13:50:39.000Z</time>
      </trkpt>
      <trkpt lat="45.4233" lon="1.91019">
        <ele>610</ele>
        <time>2011-07-15T13:50:49.000Z</time>
      </trkpt>
      <trkpt lat="45.4237" lon="1.90988">
        <ele>612</ele>
        <time>2011-07-15T13:50:57.000Z</time>
      </trkpt>
      <trkpt lat="45.4241" lon="1.90953">
        <ele>609</ele>
        <time>2011-07-15T13:51:06.000Z</time>
      </trkpt>
      <trkpt lat="45.4247" lon="1.90924">
        <ele>607</ele>
        <time>2011-07-15T13:51:13.000Z</time>
      </trkpt>
      <trkpt lat="45.4252" lon="1.90892">
        <ele>598</ele>
        <time>2011-07-15T13:51:21.000Z</time>
      </trkpt>
      <trkpt lat="45.4256" lon="1.90855">
        <ele>596</ele>
        <time>2011-07-15T13:51:33.000Z</time>
      </trkpt>
      <trkpt lat="45.4261" lon="1.9085">
        <ele>610</ele>
        <time>2011-07-15T13:51:42.000Z</time>
      </trkpt>
      <trkpt lat="45.4267" lon="1.90841">
        <ele>611</ele>
        <time>2011-07-15T13:51:49.000Z</time>
      </trkpt>
      <trkpt lat="45.4272" lon="1.90822">
        <ele>607</ele>
        <time>2011-07-15T13:51:57.000Z</time>
      </trkpt>
      <trkpt lat="45.4276" lon="1.90804">
        <ele>605</ele>
        <time>2011-07-15T13:52:05.000Z</time>
      </trkpt>
      <trkpt lat="45.4281" lon="1.90789">
        <ele>604</ele>
        <time>2011-07-15T13:52:14.000Z</time>
      </trkpt>
      <trkpt lat="45.4285" lon="1.9077">
        <ele>607</ele>
        <time>2011-07-15T13:52:23.000Z</time>
      </trkpt>
      <trkpt lat="45.429" lon="1.90746">
        <ele>604</ele>
        <time>2011-07-15T13:52:33.000Z</time>
      </trkpt>
      <trkpt lat="45.4293" lon="1.907">
        <ele>603</ele>
        <time>2011-07-15T13:52:41.000Z</time>
      </trkpt>
      <trkpt lat="45.4298" lon="1.90673">
        <ele>608</ele>
        <time>2011-07-15T13:52:50.000Z</time>
      </trkpt>
      <trkpt lat="45.4302" lon="1.90632">
        <ele>613</ele>
        <time>2011-07-15T13:52:55.000Z</time>
      </trkpt>
      <trkpt lat="45.4307" lon="1.90616">
        <ele>617</ele>
        <time>2011-07-15T13:53:01.000Z</time>
      </trkpt>
      <trkpt lat="45.4311" lon="1.90648">
        <ele>619</ele>
        <time>2011-07-15T13:53:09.000Z</time>
      </trkpt>
      <trkpt lat="45.4315" lon="1.9069">
        <ele>620</ele>
        <time>2011-07-15T13:53:23.000Z</time>
      </trkpt>
      <trkpt lat="45.4319" lon="1.90671">
        <ele>616</ele>
        <time>2011-07-15T13:53:34.000Z</time>
      </trkpt>
      <trkpt lat="45.4323" lon="1.90627">
        <ele>603</ele>
        <time>2011-07-15T13:53:49.000Z</time>
      </trkpt>
      <trkpt lat="45.4328" lon="1.90606">
        <ele>603</ele>
        <time>2011-07-15T13:54:03.000Z</time>
      </trkpt>
      <trkpt lat="45.4332" lon="1.90585">
        <ele>604</ele>
        <time>2011-07-15T13:54:18.000Z</time>
      </trkpt>
      <trkpt lat="45.4336" lon="1.90554">
        <ele>608</ele>
        <time>2011-07-15T13:54:37.000Z</time>
      </trkpt>
      <trkpt lat="45.434" lon="1.90515">
        <ele>620</ele>
        <time>2011-07-15T13:55:01.000Z</time>
      </trkpt>
      <trkpt lat="45.4344" lon="1.90483">
        <ele>630</ele>
        <time>2011-07-15T13:55:27.000Z</time>
      </trkpt>
      <trkpt lat="45.4348" lon="1.90448">
        <ele>629</ele>
        <time>2011-07-15T13:55:43.000Z</time>
      </trkpt>
      <trkpt lat="45.435" lon="1.90393">
        <ele>639</ele>
        <time>2011-07-15T13:56:00.000Z</time>
      </trkpt>
      <trkpt lat="45.4353" lon="1.90337">
        <ele>643</ele>
        <time>2011-07-15T13:56:16.000Z</time>
      </trkpt>
      <trkpt lat="45.4357" lon="1.90303">
        <ele>654</ele>
        <time>2011-07-15T13:56:32.000Z</time>
      </trkpt>
      <trkpt lat="45.4362" lon="1.90295">
        <ele>655</ele>
        <time>2011-07-15T13:56:45.000Z</time>
      </trkpt>
      <trkpt lat="45.4366" lon="1.90301">
        <ele>656</ele>
        <time>2011-07-15T13:56:56.000Z</time>
      </trkpt>
      <trkpt lat="45.4372" lon="1.90289">
        <ele>650</ele>
        <time>2011-07-15T13:57:09.000Z</time>
      </trkpt>
      <trkpt lat="45.4375" lon="1.90246">
        <ele>644</ele>
        <time>2011-07-15T13:57:19.000Z</time>
      </trkpt>
      <trkpt lat="45.4378" lon="1.90199">
        <ele>641</ele>
        <time>2011-07-15T13:57:31.000Z</time>
      </trkpt>
      <trkpt lat="45.4383" lon="1.90173">
        <ele>640</ele>
        <time>2011-07-15T13:57:43.000Z</time>
      </trkpt>
      <trkpt lat="45.4388" lon="1.90171">
        <ele>645</ele>
        <time>2011-07-15T13:57:54.000Z</time>
      </trkpt>
      <trkpt lat="45.4392" lon="1.90162">
        <ele>650</ele>
        <time>2011-07-15T13:58:06.000Z</time>
      </trkpt>
      <trkpt lat="45.4396" lon="1.90125">
        <ele>655</ele>
        <time>2011-07-15T13:58:15.000Z</time>
      </trkpt>
      <trkpt lat="45.4401" lon="1.90096">
        <ele>652</ele>
        <time>2011-07-15T13:58:22.000Z</time>
      </trkpt>
      <trkpt lat="45.4405" lon="1.90065">
        <ele>652</ele>
        <time>2011-07-15T13:58:31.000Z</time>
      </trkpt>
      <trkpt lat="45.4409" lon="1.9003">
        <ele>661</ele>
        <time>2011-07-15T13:58:45.000Z</time>
      </trkpt>
      <trkpt lat="45.4413" lon="1.89988">
        <ele>660</ele>
        <time>2011-07-15T13:58:55.000Z</time>
      </trkpt>
      <trkpt lat="45.4413" lon="1.89924">
        <ele>658</ele>
        <time>2011-07-15T13:59:11.000Z</time>
      </trkpt>
      <trkpt lat="45.4414" lon="1.89859">
        <ele>661</ele>
        <time>2011-07-15T13:59:22.000Z</time>
      </trkpt>
      <trkpt lat="45.4414" lon="1.89791">
        <ele>654</ele>
        <time>2011-07-15T13:59:35.000Z</time>
      </trkpt>
      <trkpt lat="45.4414" lon="1.89722">
        <ele>656</ele>
        <time>2011-07-15T13:59:46.000Z</time>
      </trkpt>
      <trkpt lat="45.4415" lon="1.89658">
        <ele>656</ele>
        <time>2011-07-15T13:59:59.000Z</time>
      </trkpt>
      <trkpt lat="45.4418" lon="1.89609">
        <ele>655</ele>
        <time>2011-07-15T14:00:10.000Z</time>
      </trkpt>
      <trkpt lat="45.4423" lon="1.89587">
        <ele>656</ele>
        <time>2011-07-15T14:00:22.000Z</time>
      </trkpt>
      <trkpt lat="45.4428" lon="1.89595">
        <ele>660</ele>
        <time>2011-07-15T14:00:34.000Z</time>
      </trkpt>
      <trkpt lat="45.4432" lon="1.89597">
        <ele>665</ele>
        <time>2011-07-15T14:00:46.000Z</time>
      </trkpt>
      <trkpt lat="45.4437" lon="1.89577">
        <ele>665</ele>
        <time>2011-07-15T14:00:57.000Z</time>
      </trkpt>
      <trkpt lat="45.4442" lon="1.89562">
        <ele>675</ele>
        <time>2011-07-15T14:01:09.000Z</time>
      </trkpt>
      <trkpt lat="45.4446" lon="1.89539">
        <ele>679</ele>
        <time>2011-07-15T14:01:19.000Z</time>
      </trkpt>
      <trkpt lat="45.445" lon="1.89504">
        <ele>676</ele>
        <time>2011-07-15T14:01:30.000Z</time>
      </trkpt>
      <trkpt lat="45.4452" lon="1.89443">
        <ele>675</ele>
        <time>2011-07-15T14:01:43.000Z</time>
      </trkpt>
      <trkpt lat="45.4455" lon="1.89385">
        <ele>675</ele>
        <time>2011-07-15T14:01:57.000Z</time>
      </trkpt>
      <trkpt lat="45.4459" lon="1.89353">
        <ele>675</ele>
        <time>2011-07-15T14:02:10.000Z</time>
      </trkpt>
      <trkpt lat="45.4463" lon="1.89319">
        <ele>675</ele>
        <time>2011-07-15T14:02:24.000Z</time>
      </trkpt>
      <trkpt lat="45.4466" lon="1.89269">
        <ele>677</ele>
        <time>2011-07-15T14:02:36.000Z</time>
      </trkpt>
      <trkpt lat="45.4468" lon="1.89211">
        <ele>676</ele>
        <time>2011-07-15T14:02:49.000Z</time>
      </trkpt>
      <trkpt lat="45.4471" lon="1.89157">
        <ele>676</ele>
        <time>2011-07-15T14:03:02.000Z</time>
      </trkpt>
      <trkpt lat="45.4473" lon="1.89099">
        <ele>683</ele>
        <time>2011-07-15T14:03:15.000Z</time>
      </trkpt>
      <trkpt lat="45.4475" lon="1.89034">
        <ele>684</ele>
        <time>2011-07-15T14:03:29.000Z</time>
      </trkpt>
      <trkpt lat="45.4473" lon="1.88972">
        <ele>683</ele>
        <time>2011-07-15T14:03:39.000Z</time>
      </trkpt>
      <trkpt lat="45.4475" lon="1.88908">
        <ele>683</ele>
        <time>2011-07-15T14:03:53.000Z</time>
      </trkpt>
      <trkpt lat="45.448" lon="1.88884">
        <ele>689</ele>
        <time>2011-07-15T14:04:06.000Z</time>
      </trkpt>
      <trkpt lat="45.4484" lon="1.88857">
        <ele>690</ele>
        <time>2011-07-15T14:04:21.000Z</time>
      </trkpt>
      <trkpt lat="45.4487" lon="1.88803">
        <ele>695</ele>
        <time>2011-07-15T14:04:35.000Z</time>
      </trkpt>
      <trkpt lat="45.4489" lon="1.88743">
        <ele>699</ele>
        <time>2011-07-15T14:04:49.000Z</time>
      </trkpt>
      <trkpt lat="45.4488" lon="1.88677">
        <ele>711</ele>
        <time>2011-07-15T14:05:10.000Z</time>
      </trkpt>
      <trkpt lat="45.4484" lon="1.88632">
        <ele>710</ele>
        <time>2011-07-15T14:05:17.000Z</time>
      </trkpt>
      <trkpt lat="45.4487" lon="1.88576">
        <ele>711</ele>
        <time>2011-07-15T14:05:33.000Z</time>
      </trkpt>
      <trkpt lat="45.4492" lon="1.8856">
        <ele>726</ele>
        <time>2011-07-15T14:05:47.000Z</time>
      </trkpt>
      <trkpt lat="45.4496" lon="1.88538">
        <ele>729</ele>
        <time>2011-07-15T14:05:57.000Z</time>
      </trkpt>
      <trkpt lat="45.4501" lon="1.88511">
        <ele>728</ele>
        <time>2011-07-15T14:06:10.000Z</time>
      </trkpt>
      <trkpt lat="45.4505" lon="1.88468">
        <ele>733</ele>
        <time>2011-07-15T14:06:21.000Z</time>
      </trkpt>
      <trkpt lat="45.4508" lon="1.88432">
        <ele>727</ele>
        <time>2011-07-15T14:06:32.000Z</time>
      </trkpt>
      <trkpt lat="45.4513" lon="1.88399">
        <ele>732</ele>
        <time>2011-07-15T14:06:45.000Z</time>
      </trkpt>
      <trkpt lat="45.4518" lon="1.88379">
        <ele>738</ele>
        <time>2011-07-15T14:06:55.000Z</time>
      </trkpt>
      <trkpt lat="45.4523" lon="1.88357">
        <ele>739</ele>
        <time>2011-07-15T14:07:02.000Z</time>
      </trkpt>
      <trkpt lat="45.4528" lon="1.88314">
        <ele>741</ele>
        <time>2011-07-15T14:07:09.000Z</time>
      </trkpt>
      <trkpt lat="45.4531" lon="1.88256">
        <ele>735</ele>
        <time>2011-07-15T14:07:15.000Z</time>
      </trkpt>
      <trkpt lat="45.4532" lon="1.88184">
        <ele>724</ele>
        <time>2011-07-15T14:07:22.000Z</time>
      </trkpt>
      <trkpt lat="45.4536" lon="1.88134">
        <ele>719</ele>
        <time>2011-07-15T14:07:30.000Z</time>
      </trkpt>
      <trkpt lat="45.4541" lon="1.88131">
        <ele>715</ele>
        <time>2011-07-15T14:07:37.000Z</time>
      </trkpt>
      <trkpt lat="45.4545" lon="1.88162">
        <ele>714</ele>
        <time>2011-07-15T14:07:42.000Z</time>
      </trkpt>
      <trkpt lat="45.455" lon="1.88162">
        <ele>710</ele>
        <time>2011-07-15T14:07:47.000Z</time>
      </trkpt>
      <trkpt lat="45.4554" lon="1.88145">
        <ele>709</ele>
        <time>2011-07-15T14:07:53.000Z</time>
      </trkpt>
      <trkpt lat="45.4559" lon="1.88151">
        <ele>704</ele>
        <time>2011-07-15T14:08:03.000Z</time>
      </trkpt>
      <trkpt lat="45.4564" lon="1.88151">
        <ele>698</ele>
        <time>2011-07-15T14:08:17.000Z</time>
      </trkpt>
      <trkpt lat="45.4567" lon="1.88194">
        <ele>698</ele>
        <time>2011-07-15T14:08:26.000Z</time>
      </trkpt>
      <trkpt lat="45.4571" lon="1.88226">
        <ele>700</ele>
        <time>2011-07-15T14:08:39.000Z</time>
      </trkpt>
      <trkpt lat="45.4576" lon="1.88259">
        <ele>708</ele>
        <time>2011-07-15T14:08:53.000Z</time>
      </trkpt>
      <trkpt lat="45.4581" lon="1.88274">
        <ele>712</ele>
        <time>2011-07-15T14:09:01.000Z</time>
      </trkpt>
      <trkpt lat="45.4585" lon="1.88265">
        <ele>712</ele>
        <time>2011-07-15T14:09:06.000Z</time>
      </trkpt>
      <trkpt lat="45.459" lon="1.88225">
        <ele>702</ele>
        <time>2011-07-15T14:09:13.000Z</time>
      </trkpt>
      <trkpt lat="45.4591" lon="1.88151">
        <ele>697</ele>
        <time>2011-07-15T14:09:21.000Z</time>
      </trkpt>
      <trkpt lat="45.4592" lon="1.88082">
        <ele>694</ele>
        <time>2011-07-15T14:09:27.000Z</time>
      </trkpt>
      <trkpt lat="45.4597" lon="1.88032">
        <ele>692</ele>
        <time>2011-07-15T14:09:39.000Z</time>
      </trkpt>
      <trkpt lat="45.4601" lon="1.88029">
        <ele>690</ele>
        <time>2011-07-15T14:09:42.000Z</time>
      </trkpt>
      <trkpt lat="45.4606" lon="1.88023">
        <ele>691</ele>
        <time>2011-07-15T14:09:47.000Z</time>
      </trkpt>
      <trkpt lat="45.4611" lon="1.88027">
        <ele>688</ele>
        <time>2011-07-15T14:09:53.000Z</time>
      </trkpt>
      <trkpt lat="45.4616" lon="1.88017">
        <ele>688</ele>
        <time>2011-07-15T14:09:59.000Z</time>
      </trkpt>
      <trkpt lat="45.462" lon="1.88006">
        <ele>682</ele>
        <time>2011-07-15T14:10:10.000Z</time>
      </trkpt>
      <trkpt lat="45.4624" lon="1.87967">
        <ele>684</ele>
        <time>2011-07-15T14:10:33.000Z</time>
      </trkpt>
      <trkpt lat="45.4629" lon="1.87978">
        <ele>684</ele>
        <time>2011-07-15T14:10:53.000Z</time>
      </trkpt>
      <trkpt lat="45.4633" lon="1.87938">
        <ele>677</ele>
        <time>2011-07-15T14:11:13.000Z</time>
      </trkpt>
      <trkpt lat="45.4634" lon="1.87872">
        <ele>673</ele>
        <time>2011-07-15T14:11:29.000Z</time>
      </trkpt>
      <trkpt lat="45.4633" lon="1.87802">
        <ele>675</ele>
        <time>2011-07-15T14:11:49.000Z</time>
      </trkpt>
      <trkpt lat="45.463" lon="1.87747">
        <ele>685</ele>
        <time>2011-07-15T14:12:15.000Z</time>
      </trkpt>
      <trkpt lat="45.4632" lon="1.87684">
        <ele>691</ele>
        <time>2011-07-15T14:12:45.000Z</time>
      </trkpt>
      <trkpt lat="45.4635" lon="1.87639">
        <ele>702</ele>
        <time>2011-07-15T14:13:06.000Z</time>
      </trkpt>
      <trkpt lat="45.4638" lon="1.87592">
        <ele>703</ele>
        <time>2011-07-15T14:13:23.000Z</time>
      </trkpt>
      <trkpt lat="45.4643" lon="1.87581">
        <ele>710</ele>
        <time>2011-07-15T14:13:47.000Z</time>
      </trkpt>
      <trkpt lat="45.4648" lon="1.87579">
        <ele>711</ele>
        <time>2011-07-15T14:13:59.000Z</time>
      </trkpt>
      <trkpt lat="45.4652" lon="1.87572">
        <ele>710</ele>
        <time>2011-07-15T14:14:11.000Z</time>
      </trkpt>
      <trkpt lat="45.4657" lon="1.87567">
        <ele>715</ele>
        <time>2011-07-15T14:14:23.000Z</time>
      </trkpt>
      <trkpt lat="45.466" lon="1.87617">
        <ele>729</ele>
        <time>2011-07-15T14:14:41.000Z</time>
      </trkpt>
      <trkpt lat="45.466" lon="1.87691">
        <ele>729</ele>
        <time>2011-07-15T14:14:53.000Z</time>
      </trkpt>
      <trkpt lat="45.4665" lon="1.87704">
        <ele>732</ele>
        <time>2011-07-15T14:15:21.000Z</time>
      </trkpt>
      <trkpt lat="45.467" lon="1.87716">
        <ele>736</ele>
        <time>2011-07-15T14:15:43.000Z</time>
      </trkpt>
      <trkpt lat="45.467" lon="1.87651">
        <ele>742</ele>
        <time>2011-07-15T14:16:09.000Z</time>
      </trkpt>
      <trkpt lat="45.4674" lon="1.87624">
        <ele>753</ele>
        <time>2011-07-15T14:16:38.000Z</time>
      </trkpt>
      <trkpt lat="45.4678" lon="1.87583">
        <ele>757</ele>
        <time>2011-07-15T14:17:05.000Z</time>
      </trkpt>
      <trkpt lat="45.468" lon="1.87527">
        <ele>766</ele>
        <time>2011-07-15T14:17:34.000Z</time>
      </trkpt>
      <trkpt lat="45.4683" lon="1.87479">
        <ele>764</ele>
        <time>2011-07-15T14:17:58.000Z</time>
      </trkpt>
      <trkpt lat="45.4684" lon="1.87415">
        <ele>763</ele>
        <time>2011-07-15T14:18:21.000Z</time>
      </trkpt>
      <trkpt lat="45.4684" lon="1.8735">
        <ele>766</ele>
        <time>2011-07-15T14:18:46.000Z</time>
      </trkpt>
      <trkpt lat="45.468" lon="1.8732">
        <ele>768</ele>
        <time>2011-07-15T14:19:14.000Z</time>
      </trkpt>
      <trkpt lat="45.4676" lon="1.87285">
        <ele>757</ele>
        <time>2011-07-15T14:19:35.000Z</time>
      </trkpt>
      <trkpt lat="45.4672" lon="1.87279">
        <ele>759</ele>
        <time>2011-07-15T14:19:58.000Z</time>
      </trkpt>
      <trkpt lat="45.4667" lon="1.87295">
        <ele>765</ele>
        <time>2011-07-15T14:20:14.000Z</time>
      </trkpt>
      <trkpt lat="45.4663" lon="1.87261">
        <ele>769</ele>
        <time>2011-07-15T14:20:33.000Z</time>
      </trkpt>
      <trkpt lat="45.4665" lon="1.87199">
        <ele>784</ele>
        <time>2011-07-15T14:20:57.000Z</time>
      </trkpt>
      <trkpt lat="45.4667" lon="1.87141">
        <ele>799</ele>
        <time>2011-07-15T14:21:21.000Z</time>
      </trkpt>
      <trkpt lat="45.4669" lon="1.87077">
        <ele>797</ele>
        <time>2011-07-15T14:21:38.000Z</time>
      </trkpt>
      <trkpt lat="45.4671" lon="1.87021">
        <ele>796</ele>
        <time>2011-07-15T14:21:59.000Z</time>
      </trkpt>
      <trkpt lat="45.4674" lon="1.86967">
        <ele>806</ele>
        <time>2011-07-15T14:22:20.000Z</time>
      </trkpt>
      <trkpt lat="45.4672" lon="1.86905">
        <ele>814</ele>
        <time>2011-07-15T14:22:51.000Z</time>
      </trkpt>
      <trkpt lat="45.4668" lon="1.86891">
        <ele>818</ele>
        <time>2011-07-15T14:23:07.000Z</time>
      </trkpt>
      <trkpt lat="45.4664" lon="1.86853">
        <ele>813</ele>
        <time>2011-07-15T14:23:27.000Z</time>
      </trkpt>
      <trkpt lat="45.4662" lon="1.86786">
        <ele>812</ele>
        <time>2011-07-15T14:23:52.000Z</time>
      </trkpt>
      <trkpt lat="45.4662" lon="1.86722">
        <ele>820</ele>
        <time>2011-07-15T14:24:18.000Z</time>
      </trkpt>
      <trkpt lat="45.4659" lon="1.86668">
        <ele>830</ele>
        <time>2011-07-15T14:24:42.000Z</time>
      </trkpt>
      <trkpt lat="45.4658" lon="1.86604">
        <ele>836</ele>
        <time>2011-07-15T14:25:17.000Z</time>
      </trkpt>
      <trkpt lat="45.4657" lon="1.86541">
        <ele>854</ele>
        <time>2011-07-15T14:25:48.000Z</time>
      </trkpt>
      <trkpt lat="45.4659" lon="1.86476">
        <ele>867</ele>
        <time>2011-07-15T14:26:24.000Z</time>
      </trkpt>
      <trkpt lat="45.4663" lon="1.86449">
        <ele>878</ele>
        <time>2011-07-15T14:26:50.000Z</time>
      </trkpt>
      <trkpt lat="45.4667" lon="1.8643">
        <ele>879</ele>
        <time>2011-07-15T14:27:14.000Z</time>
      </trkpt>
      <trkpt lat="45.467" lon="1.86377">
        <ele>890</ele>
        <time>2011-07-15T14:27:48.000Z</time>
      </trkpt>
      <trkpt lat="45.4672" lon="1.86324">
        <ele>893</ele>
        <time>2011-07-15T14:28:13.000Z</time>
      </trkpt>
      <trkpt lat="45.4676" lon="1.86287">
        <ele>887</ele>
        <time>2011-07-15T14:28:38.000Z</time>
      </trkpt>
      <trkpt lat="45.4679" lon="1.86245">
        <ele>894</ele>
        <time>2011-07-15T14:29:10.000Z</time>
      </trkpt>
      <trkpt lat="45.4682" lon="1.86188">
        <ele>905</ele>
        <time>2011-07-15T14:29:50.000Z</time>
      </trkpt>
      <trkpt lat="45.4685" lon="1.86135">
        <ele>904</ele>
        <time>2011-07-15T14:30:35.000Z</time>
      </trkpt>
      <trkpt lat="45.4685" lon="1.86071">
        <ele>910</ele>
        <time>2011-07-15T14:31:03.000Z</time>
      </trkpt>
      <trkpt lat="45.4685" lon="1.86004">
        <ele>931</ele>
        <time>2011-07-15T14:31:30.000Z</time>
      </trkpt>
      <trkpt lat="45.4687" lon="1.85945">
        <ele>940</ele>
        <time>2011-07-15T14:31:40.000Z</time>
      </trkpt>
      <trkpt lat="45.4689" lon="1.85883">
        <ele>946</ele>
        <time>2011-07-15T14:31:47.000Z</time>
      </trkpt>
      <trkpt lat="45.4692" lon="1.85825">
        <ele>950</ele>
        <time>2011-07-15T14:31:54.000Z</time>
      </trkpt>
      <trkpt lat="45.4695" lon="1.85754">
        <ele>952</ele>
        <time>2011-07-15T14:32:01.000Z</time>
      </trkpt>
      <trkpt lat="45.4697" lon="1.85696">
        <ele>953</ele>
        <time>2011-07-15T14:32:06.000Z</time>
      </trkpt>
      <trkpt lat="45.4699" lon="1.85638">
        <ele>954</ele>
        <time>2011-07-15T14:32:11.000Z</time>
      </trkpt>
      <trkpt lat="45.4703" lon="1.85585">
        <ele>952</ele>
        <time>2011-07-15T14:32:17.000Z</time>
      </trkpt>
      <trkpt lat="45.4707" lon="1.85543">
        <ele>949</ele>
        <time>2011-07-15T14:32:23.000Z</time>
      </trkpt>
      <trkpt lat="45.4709" lon="1.85485">
        <ele>922</ele>
        <time>2011-07-15T14:32:28.000Z</time>
      </trkpt>
      <trkpt lat="45.4706" lon="1.85434">
        <ele>907</ele>
        <time>2011-07-15T14:32:40.000Z</time>
      </trkpt>
      <trkpt lat="45.4701" lon="1.85419">
        <ele>912</ele>
        <time>2011-07-15T14:33:04.000Z</time>
      </trkpt>
      <trkpt lat="45.4697" lon="1.85422">
        <ele>913</ele>
        <time>2011-07-15T14:33:16.000Z</time>
      </trkpt>
      <trkpt lat="45.4692" lon="1.85408">
        <ele>913</ele>
        <time>2011-07-15T14:33:28.000Z</time>
      </trkpt>
      <trkpt lat="45.4688" lon="1.85376">
        <ele>913</ele>
        <time>2011-07-15T14:33:46.000Z</time>
      </trkpt>
      <trkpt lat="45.4683" lon="1.85362">
        <ele>916</ele>
        <time>2011-07-15T14:34:00.000Z</time>
      </trkpt>
      <trkpt lat="45.4683" lon="1.85296">
        <ele>921</ele>
        <time>2011-07-15T14:34:19.000Z</time>
      </trkpt>
      <trkpt lat="45.4687" lon="1.85263">
        <ele>927</ele>
        <time>2011-07-15T14:34:43.000Z</time>
      </trkpt>
      <trkpt lat="45.4692" lon="1.85267">
        <ele>943</ele>
        <time>2011-07-15T14:35:08.000Z</time>
      </trkpt>
      <trkpt lat="45.4696" lon="1.85278">
        <ele>943</ele>
        <time>2011-07-15T14:35:26.000Z</time>
      </trkpt>
      <trkpt lat="45.4701" lon="1.85264">
        <ele>943</ele>
        <time>2011-07-15T14:35:46.000Z</time>
      </trkpt>
      <trkpt lat="45.4705" lon="1.85231">
        <ele>947</ele>
        <time>2011-07-15T14:36:07.000Z</time>
      </trkpt>
      <trkpt lat="45.471" lon="1.85206">
        <ele>954</ele>
        <time>2011-07-15T14:36:26.000Z</time>
      </trkpt>
      <trkpt lat="45.4714" lon="1.85204">
        <ele>956</ele>
        <time>2011-07-15T14:36:42.000Z</time>
      </trkpt>
      <trkpt lat="45.4719" lon="1.85202">
        <ele>957</ele>
        <time>2011-07-15T14:37:02.000Z</time>
      </trkpt>
      <trkpt lat="45.4722" lon="1.85153">
        <ele>957</ele>
        <time>2011-07-15T14:40:22.000Z</time>
      </trkpt>
      <trkpt lat="45.4723" lon="1.85084">
        <ele>958</ele>
        <time>2011-07-15T14:40:32.000Z</time>
      </trkpt>
      <trkpt lat="45.4724" lon="1.85012">
        <ele>956</ele>
        <time>2011-07-15T14:40:40.000Z</time>
      </trkpt>
      <trkpt lat="45.4725" lon="1.84932">
        <ele>957</ele>
        <time>2011-07-15T14:40:48.000Z</time>
      </trkpt>
      <trkpt lat="45.4726" lon="1.84856">
        <ele>958</ele>
        <time>2011-07-15T14:40:56.000Z</time>
      </trkpt>
      <trkpt lat="45.4728" lon="1.84797">
        <ele>945</ele>
        <time>2011-07-15T14:41:05.000Z</time>
      </trkpt>
      <trkpt lat="45.4731" lon="1.84849">
        <ele>941</ele>
        <time>2011-07-15T14:41:19.000Z</time>
      </trkpt>
      <trkpt lat="45.4732" lon="1.84913">
        <ele>939</ele>
        <time>2011-07-15T14:41:27.000Z</time>
      </trkpt>
      <trkpt lat="45.4734" lon="1.84981">
        <ele>935</ele>
        <time>2011-07-15T14:41:33.000Z</time>
      </trkpt>
      <trkpt lat="45.4738" lon="1.85024">
        <ele>937</ele>
        <time>2011-07-15T14:41:39.000Z</time>
      </trkpt>
      <trkpt lat="45.4743" lon="1.85052">
        <ele>934</ele>
        <time>2011-07-15T14:41:45.000Z</time>
      </trkpt>
      <trkpt lat="45.4748" lon="1.85046">
        <ele>927</ele>
        <time>2011-07-15T14:41:53.000Z</time>
      </trkpt>
      <trkpt lat="45.4749" lon="1.8498">
        <ele>929</ele>
        <time>2011-07-15T14:41:59.000Z</time>
      </trkpt>
      <trkpt lat="45.475" lon="1.84896">
        <ele>930</ele>
        <time>2011-07-15T14:42:05.000Z</time>
      </trkpt>
      <trkpt lat="45.4754" lon="1.84846">
        <ele>928</ele>
        <time>2011-07-15T14:42:09.000Z</time>
      </trkpt>
      <trkpt lat="45.4758" lon="1.84812">
        <ele>931</ele>
        <time>2011-07-15T14:42:14.000Z</time>
      </trkpt>
      <trkpt lat="45.4763" lon="1.8481">
        <ele>922</ele>
        <time>2011-07-15T14:42:19.000Z</time>
      </trkpt>
      <trkpt lat="45.4768" lon="1.84839">
        <ele>923</ele>
        <time>2011-07-15T14:42:25.000Z</time>
      </trkpt>
      <trkpt lat="45.4773" lon="1.84861">
        <ele>925</ele>
        <time>2011-07-15T14:42:31.000Z</time>
      </trkpt>
      <trkpt lat="45.4777" lon="1.84849">
        <ele>923</ele>
        <time>2011-07-15T14:42:43.000Z</time>
      </trkpt>
      <trkpt lat="45.478" lon="1.848">
        <ele>919</ele>
        <time>2011-07-15T14:42:51.000Z</time>
      </trkpt>
      <trkpt lat="45.4785" lon="1.84768">
        <ele>915</ele>
        <time>2011-07-15T14:42:58.000Z</time>
      </trkpt>
      <trkpt lat="45.4791" lon="1.84753">
        <ele>916</ele>
        <time>2011-07-15T14:43:03.000Z</time>
      </trkpt>
      <trkpt lat="45.4796" lon="1.84768">
        <ele>918</ele>
        <time>2011-07-15T14:43:08.000Z</time>
      </trkpt>
      <trkpt lat="45.4802" lon="1.84829">
        <ele>925</ele>
        <time>2011-07-15T14:43:13.000Z</time>
      </trkpt>
      <trkpt lat="45.4803" lon="1.84893">
        <ele>924</ele>
        <time>2011-07-15T14:43:17.000Z</time>
      </trkpt>
      <trkpt lat="45.4804" lon="1.84959">
        <ele>916</ele>
        <time>2011-07-15T14:43:22.000Z</time>
      </trkpt>
      <trkpt lat="45.4806" lon="1.8488">
        <ele>914</ele>
        <time>2011-07-15T14:43:33.000Z</time>
      </trkpt>
      <trkpt lat="45.4803" lon="1.84823">
        <ele>918</ele>
        <time>2011-07-15T14:43:38.000Z</time>
      </trkpt>
      <trkpt lat="45.48" lon="1.84774">
        <ele>910</ele>
        <time>2011-07-15T14:43:42.000Z</time>
      </trkpt>
      <trkpt lat="45.4801" lon="1.84711">
        <ele>899</ele>
        <time>2011-07-15T14:43:55.000Z</time>
      </trkpt>
      <trkpt lat="45.4806" lon="1.8471">
        <ele>908</ele>
        <time>2011-07-15T14:44:02.000Z</time>
      </trkpt>
      <trkpt lat="45.481" lon="1.84744">
        <ele>923</ele>
        <time>2011-07-15T14:44:12.000Z</time>
      </trkpt>
      <trkpt lat="45.4812" lon="1.84802">
        <ele>931</ele>
        <time>2011-07-15T14:44:23.000Z</time>
      </trkpt>
      <trkpt lat="45.4812" lon="1.84869">
        <ele>922</ele>
        <time>2011-07-15T14:44:33.000Z</time>
      </trkpt>
      <trkpt lat="45.4814" lon="1.84928">
        <ele>923</ele>
        <time>2011-07-15T14:44:38.000Z</time>
      </trkpt>
      <trkpt lat="45.4815" lon="1.85006">
        <ele>926</ele>
        <time>2011-07-15T14:44:43.000Z</time>
      </trkpt>
      <trkpt lat="45.4815" lon="1.85081">
        <ele>920</ele>
        <time>2011-07-15T14:44:47.000Z</time>
      </trkpt>
      <trkpt lat="45.4816" lon="1.85148">
        <ele>917</ele>
        <time>2011-07-15T14:44:51.000Z</time>
      </trkpt>
      <trkpt lat="45.4816" lon="1.85215">
        <ele>915</ele>
        <time>2011-07-15T14:44:57.000Z</time>
      </trkpt>
      <trkpt lat="45.4819" lon="1.85273">
        <ele>913</ele>
        <time>2011-07-15T14:45:09.000Z</time>
      </trkpt>
      <trkpt lat="45.4824" lon="1.85296">
        <ele>923</ele>
        <time>2011-07-15T14:45:17.000Z</time>
      </trkpt>
      <trkpt lat="45.4825" lon="1.85362">
        <ele>940</ele>
        <time>2011-07-15T14:45:26.000Z</time>
      </trkpt>
      <trkpt lat="45.4824" lon="1.85431">
        <ele>939</ele>
        <time>2011-07-15T14:45:35.000Z</time>
      </trkpt>
      <trkpt lat="45.4825" lon="1.85498">
        <ele>934</ele>
        <time>2011-07-15T14:45:44.000Z</time>
      </trkpt>
      <trkpt lat="45.4825" lon="1.85564">
        <ele>925</ele>
        <time>2011-07-15T14:45:50.000Z</time>
      </trkpt>
      <trkpt lat="45.4822" lon="1.85621">
        <ele>933</ele>
        <time>2011-07-15T14:45:55.000Z</time>
      </trkpt>
      <trkpt lat="45.482" lon="1.85683">
        <ele>933</ele>
        <time>2011-07-15T14:45:59.000Z</time>
      </trkpt>
      <trkpt lat="45.4818" lon="1.85748">
        <ele>924</ele>
        <time>2011-07-15T14:46:06.000Z</time>
      </trkpt>
      <trkpt lat="45.4817" lon="1.85827">
        <ele>916</ele>
        <time>2011-07-15T14:46:18.000Z</time>
      </trkpt>
      <trkpt lat="45.4814" lon="1.85876">
        <ele>904</ele>
        <time>2011-07-15T14:46:24.000Z</time>
      </trkpt>
      <trkpt lat="45.4807" lon="1.85928">
        <ele>895</ele>
        <time>2011-07-15T14:46:30.000Z</time>
      </trkpt>
      <trkpt lat="45.4804" lon="1.85977">
        <ele>885</ele>
        <time>2011-07-15T14:46:36.000Z</time>
      </trkpt>
      <trkpt lat="45.4797" lon="1.86024">
        <ele>874</ele>
        <time>2011-07-15T14:46:42.000Z</time>
      </trkpt>
      <trkpt lat="45.4801" lon="1.86071">
        <ele>862</ele>
        <time>2011-07-15T14:46:51.000Z</time>
      </trkpt>
      <trkpt lat="45.4804" lon="1.86123">
        <ele>865</ele>
        <time>2011-07-15T14:46:58.000Z</time>
      </trkpt>
      <trkpt lat="45.48" lon="1.86155">
        <ele>876</ele>
        <time>2011-07-15T14:47:07.000Z</time>
      </trkpt>
      <trkpt lat="45.48" lon="1.86224">
        <ele>874</ele>
        <time>2011-07-15T14:47:19.000Z</time>
      </trkpt>
      <trkpt lat="45.4804" lon="1.86269">
        <ele>860</ele>
        <time>2011-07-15T14:47:34.000Z</time>
      </trkpt>
      <trkpt lat="45.4806" lon="1.86331">
        <ele>897</ele>
        <time>2011-07-15T14:47:54.000Z</time>
      </trkpt>
      <trkpt lat="45.4804" lon="1.8639">
        <ele>890</ele>
        <time>2011-07-15T14:48:02.000Z</time>
      </trkpt>
      <trkpt lat="45.4801" lon="1.86451">
        <ele>885</ele>
        <time>2011-07-15T14:48:18.000Z</time>
      </trkpt>
      <trkpt lat="45.4805" lon="1.86484">
        <ele>876</ele>
        <time>2011-07-15T14:48:30.000Z</time>
      </trkpt>
      <trkpt lat="45.4809" lon="1.86526">
        <ele>887</ele>
        <time>2011-07-15T14:48:50.000Z</time>
      </trkpt>
      <trkpt lat="45.481" lon="1.86591">
        <ele>903</ele>
        <time>2011-07-15T14:49:02.000Z</time>
      </trkpt>
      <trkpt lat="45.4812" lon="1.86665">
        <ele>905</ele>
        <time>2011-07-15T14:49:15.000Z</time>
      </trkpt>
      <trkpt lat="45.4815" lon="1.86726">
        <ele>893</ele>
        <time>2011-07-15T14:49:23.000Z</time>
      </trkpt>
      <trkpt lat="45.482" lon="1.86719">
        <ele>895</ele>
        <time>2011-07-15T14:49:33.000Z</time>
      </trkpt>
      <trkpt lat="45.4826" lon="1.86675">
        <ele>894</ele>
        <time>2011-07-15T14:49:39.000Z</time>
      </trkpt>
      <trkpt lat="45.4831" lon="1.86635">
        <ele>888</ele>
        <time>2011-07-15T14:49:43.000Z</time>
      </trkpt>
      <trkpt lat="45.4835" lon="1.86625">
        <ele>883</ele>
        <time>2011-07-15T14:49:47.000Z</time>
      </trkpt>
      <trkpt lat="45.484" lon="1.86631">
        <ele>880</ele>
        <time>2011-07-15T14:49:52.000Z</time>
      </trkpt>
      <trkpt lat="45.4844" lon="1.86604">
        <ele>876</ele>
        <time>2011-07-15T14:50:00.000Z</time>
      </trkpt>
      <trkpt lat="45.4849" lon="1.86577">
        <ele>878</ele>
        <time>2011-07-15T14:50:08.000Z</time>
      </trkpt>
      <trkpt lat="45.4852" lon="1.86532">
        <ele>881</ele>
        <time>2011-07-15T14:50:21.000Z</time>
      </trkpt>
      <trkpt lat="45.4855" lon="1.86479">
        <ele>877</ele>
        <time>2011-07-15T14:50:35.000Z</time>
      </trkpt>
      <trkpt lat="45.486" lon="1.86473">
        <ele>882</ele>
        <time>2011-07-15T14:50:51.000Z</time>
      </trkpt>
      <trkpt lat="45.4864" lon="1.86447">
        <ele>883</ele>
        <time>2011-07-15T14:50:59.000Z</time>
      </trkpt>
      <trkpt lat="45.4869" lon="1.8644">
        <ele>897</ele>
        <time>2011-07-15T14:51:10.000Z</time>
      </trkpt>
      <trkpt lat="45.4874" lon="1.86492">
        <ele>903</ele>
        <time>2011-07-15T14:51:22.000Z</time>
      </trkpt>
      <trkpt lat="45.4877" lon="1.86533">
        <ele>898</ele>
        <time>2011-07-15T14:51:32.000Z</time>
      </trkpt>
      <trkpt lat="45.4882" lon="1.86561">
        <ele>893</ele>
        <time>2011-07-15T14:51:46.000Z</time>
      </trkpt>
      <trkpt lat="45.4886" lon="1.86576">
        <ele>899</ele>
        <time>2011-07-15T14:51:59.000Z</time>
      </trkpt>
      <trkpt lat="45.489" lon="1.86621">
        <ele>900</ele>
        <time>2011-07-15T14:52:12.000Z</time>
      </trkpt>
      <trkpt lat="45.4895" lon="1.86645">
        <ele>908</ele>
        <time>2011-07-15T14:52:30.000Z</time>
      </trkpt>
      <trkpt lat="45.4899" lon="1.86647">
        <ele>919</ele>
        <time>2011-07-15T14:52:42.000Z</time>
      </trkpt>
      <trkpt lat="45.4902" lon="1.86703">
        <ele>924</ele>
        <time>2011-07-15T14:52:55.000Z</time>
      </trkpt>
      <trkpt lat="45.4905" lon="1.86755">
        <ele>918</ele>
        <time>2011-07-15T14:53:08.000Z</time>
      </trkpt>
      <trkpt lat="45.4909" lon="1.86776">
        <ele>926</ele>
        <time>2011-07-15T14:53:22.000Z</time>
      </trkpt>
      <trkpt lat="45.4911" lon="1.86835">
        <ele>938</ele>
        <time>2011-07-15T14:53:34.000Z</time>
      </trkpt>
      <trkpt lat="45.4911" lon="1.86916">
        <ele>950</ele>
        <time>2011-07-15T14:53:48.000Z</time>
      </trkpt>
      <trkpt lat="45.4908" lon="1.86991">
        <ele>928</ele>
        <time>2011-07-15T14:53:56.000Z</time>
      </trkpt>
      <trkpt lat="45.4911" lon="1.87046">
        <ele>914</ele>
        <time>2011-07-15T14:54:05.000Z</time>
      </trkpt>
      <trkpt lat="45.4915" lon="1.87094">
        <ele>910</ele>
        <time>2011-07-15T14:54:12.000Z</time>
      </trkpt>
      <trkpt lat="45.4918" lon="1.8715">
        <ele>918</ele>
        <time>2011-07-15T14:54:16.000Z</time>
      </trkpt>
      <trkpt lat="45.4921" lon="1.87202">
        <ele>922</ele>
        <time>2011-07-15T14:54:20.000Z</time>
      </trkpt>
      <trkpt lat="45.4923" lon="1.8727">
        <ele>918</ele>
        <time>2011-07-15T14:54:25.000Z</time>
      </trkpt>
      <trkpt lat="45.4924" lon="1.87343">
        <ele>920</ele>
        <time>2011-07-15T14:54:30.000Z</time>
      </trkpt>
      <trkpt lat="45.4925" lon="1.8742">
        <ele>921</ele>
        <time>2011-07-15T14:54:36.000Z</time>
      </trkpt>
      <trkpt lat="45.4926" lon="1.87484">
        <ele>930</ele>
        <time>2011-07-15T14:54:48.000Z</time>
      </trkpt>
      <trkpt lat="45.4924" lon="1.8755">
        <ele>935</ele>
        <time>2011-07-15T14:54:59.000Z</time>
      </trkpt>
      <trkpt lat="45.4923" lon="1.87609">
        <ele>923</ele>
        <time>2011-07-15T14:55:05.000Z</time>
      </trkpt>
      <trkpt lat="45.4918" lon="1.87647">
        <ele>915</ele>
        <time>2011-07-15T14:55:13.000Z</time>
      </trkpt>
      <trkpt lat="45.4913" lon="1.87681">
        <ele>916</ele>
        <time>2011-07-15T14:55:23.000Z</time>
      </trkpt>
      <trkpt lat="45.4909" lon="1.87713">
        <ele>921</ele>
        <time>2011-07-15T14:55:31.000Z</time>
      </trkpt>
      <trkpt lat="45.4904" lon="1.87727">
        <ele>920</ele>
        <time>2011-07-15T14:55:36.000Z</time>
      </trkpt>
      <trkpt lat="45.4899" lon="1.87751">
        <ele>919</ele>
        <time>2011-07-15T14:55:42.000Z</time>
      </trkpt>
      <trkpt lat="45.4894" lon="1.87769">
        <ele>919</ele>
        <time>2011-07-15T14:55:46.000Z</time>
      </trkpt>
      <trkpt lat="45.489" lon="1.87808">
        <ele>922</ele>
        <time>2011-07-15T14:55:54.000Z</time>
      </trkpt>
      <trkpt lat="45.4887" lon="1.87858">
        <ele>920</ele>
        <time>2011-07-15T14:56:03.000Z</time>
      </trkpt>
      <trkpt lat="45.4885" lon="1.87918">
        <ele>909</ele>
        <time>2011-07-15T14:56:10.000Z</time>
      </trkpt>
      <trkpt lat="45.4881" lon="1.87967">
        <ele>907</ele>
        <time>2011-07-15T14:56:16.000Z</time>
      </trkpt>
      <trkpt lat="45.4876" lon="1.88004">
        <ele>906</ele>
        <time>2011-07-15T14:56:22.000Z</time>
      </trkpt>
      <trkpt lat="45.4872" lon="1.88064">
        <ele>899</ele>
        <time>2011-07-15T14:56:28.000Z</time>
      </trkpt>
      <trkpt lat="45.4867" lon="1.88068">
        <ele>901</ele>
        <time>2011-07-15T14:56:34.000Z</time>
      </trkpt>
      <trkpt lat="45.4863" lon="1.88085">
        <ele>902</ele>
        <time>2011-07-15T14:56:39.000Z</time>
      </trkpt>
      <trkpt lat="45.4858" lon="1.88092">
        <ele>902</ele>
        <time>2011-07-15T14:56:43.000Z</time>
      </trkpt>
      <trkpt lat="45.4852" lon="1.88093">
        <ele>897</ele>
        <time>2011-07-15T14:56:47.000Z</time>
      </trkpt>
      <trkpt lat="45.4838" lon="1.88063">
        <ele>878</ele>
        <time>2011-07-15T14:56:50.000Z</time>
      </trkpt>
      <trkpt lat="45.4833" lon="1.88062">
        <ele>876</ele>
        <time>2011-07-15T14:56:52.000Z</time>
      </trkpt>
      <trkpt lat="45.4828" lon="1.88069">
        <ele>873</ele>
        <time>2011-07-15T14:56:55.000Z</time>
      </trkpt>
      <trkpt lat="45.4823" lon="1.88106">
        <ele>877</ele>
        <time>2011-07-15T14:57:02.000Z</time>
      </trkpt>
      <trkpt lat="45.4818" lon="1.88146">
        <ele>872</ele>
        <time>2011-07-15T14:57:10.000Z</time>
      </trkpt>
      <trkpt lat="45.4811" lon="1.88099">
        <ele>851</ele>
        <time>2011-07-15T14:57:22.000Z</time>
      </trkpt>
      <trkpt lat="45.4806" lon="1.88102">
        <ele>847</ele>
        <time>2011-07-15T14:57:26.000Z</time>
      </trkpt>
      <trkpt lat="45.48" lon="1.88125">
        <ele>845</ele>
        <time>2011-07-15T14:57:30.000Z</time>
      </trkpt>
      <trkpt lat="45.4796" lon="1.88139">
        <ele>844</ele>
        <time>2011-07-15T14:57:34.000Z</time>
      </trkpt>
      <trkpt lat="45.4791" lon="1.88167">
        <ele>842</ele>
        <time>2011-07-15T14:57:39.000Z</time>
      </trkpt>
      <trkpt lat="45.479" lon="1.88244">
        <ele>845</ele>
        <time>2011-07-15T14:57:46.000Z</time>
      </trkpt>
      <trkpt lat="45.4788" lon="1.88307">
        <ele>841</ele>
        <time>2011-07-15T14:57:51.000Z</time>
      </trkpt>
      <trkpt lat="45.4784" lon="1.88373">
        <ele>841</ele>
        <time>2011-07-15T14:57:58.000Z</time>
      </trkpt>
      <trkpt lat="45.4781" lon="1.88433">
        <ele>838</ele>
        <time>2011-07-15T14:58:03.000Z</time>
      </trkpt>
      <trkpt lat="45.4778" lon="1.88482">
        <ele>831</ele>
        <time>2011-07-15T14:58:08.000Z</time>
      </trkpt>
      <trkpt lat="45.4775" lon="1.88544">
        <ele>828</ele>
        <time>2011-07-15T14:58:14.000Z</time>
      </trkpt>
      <trkpt lat="45.4773" lon="1.88605">
        <ele>824</ele>
        <time>2011-07-15T14:58:19.000Z</time>
      </trkpt>
      <trkpt lat="45.4771" lon="1.8867">
        <ele>826</ele>
        <time>2011-07-15T14:58:27.000Z</time>
      </trkpt>
      <trkpt lat="45.4767" lon="1.88686">
        <ele>827</ele>
        <time>2011-07-15T14:58:31.000Z</time>
      </trkpt>
      <trkpt lat="45.4761" lon="1.88701">
        <ele>824</ele>
        <time>2011-07-15T14:58:35.000Z</time>
      </trkpt>
      <trkpt lat="45.4755" lon="1.88705">
        <ele>820</ele>
        <time>2011-07-15T14:58:39.000Z</time>
      </trkpt>
      <trkpt lat="45.4751" lon="1.88682">
        <ele>820</ele>
        <time>2011-07-15T14:58:43.000Z</time>
      </trkpt>
      <trkpt lat="45.4749" lon="1.8861">
        <ele>819</ele>
        <time>2011-07-15T14:58:50.000Z</time>
      </trkpt>
      <trkpt lat="45.4744" lon="1.88603">
        <ele>817</ele>
        <time>2011-07-15T14:59:06.000Z</time>
      </trkpt>
      <trkpt lat="45.474" lon="1.88627">
        <ele>815</ele>
        <time>2011-07-15T14:59:10.000Z</time>
      </trkpt>
      <trkpt lat="45.4735" lon="1.88655">
        <ele>814</ele>
        <time>2011-07-15T14:59:15.000Z</time>
      </trkpt>
      <trkpt lat="45.4732" lon="1.88699">
        <ele>819</ele>
        <time>2011-07-15T14:59:20.000Z</time>
      </trkpt>
      <trkpt lat="45.4728" lon="1.88761">
        <ele>816</ele>
        <time>2011-07-15T14:59:26.000Z</time>
      </trkpt>
      <trkpt lat="45.4725" lon="1.88798">
        <ele>818</ele>
        <time>2011-07-15T14:59:31.000Z</time>
      </trkpt>
      <trkpt lat="45.4719" lon="1.88852">
        <ele>826</ele>
        <time>2011-07-15T14:59:38.000Z</time>
      </trkpt>
      <trkpt lat="45.4716" lon="1.8891">
        <ele>820</ele>
        <time>2011-07-15T14:59:42.000Z</time>
      </trkpt>
      <trkpt lat="45.4712" lon="1.88954">
        <ele>810</ele>
        <time>2011-07-15T14:59:51.000Z</time>
      </trkpt>
      <trkpt lat="45.4705" lon="1.88965">
        <ele>806</ele>
        <time>2011-07-15T14:59:58.000Z</time>
      </trkpt>
      <trkpt lat="45.47" lon="1.8898">
        <ele>801</ele>
        <time>2011-07-15T15:00:02.000Z</time>
      </trkpt>
      <trkpt lat="45.4695" lon="1.8899">
        <ele>797</ele>
        <time>2011-07-15T15:00:06.000Z</time>
      </trkpt>
      <trkpt lat="45.4691" lon="1.8901">
        <ele>793</ele>
        <time>2011-07-15T15:00:11.000Z</time>
      </trkpt>
      <trkpt lat="45.4686" lon="1.89049">
        <ele>787</ele>
        <time>2011-07-15T15:00:16.000Z</time>
      </trkpt>
      <trkpt lat="45.468" lon="1.89087">
        <ele>782</ele>
        <time>2011-07-15T15:00:22.000Z</time>
      </trkpt>
      <trkpt lat="45.4676" lon="1.8911">
        <ele>779</ele>
        <time>2011-07-15T15:00:26.000Z</time>
      </trkpt>
      <trkpt lat="45.4672" lon="1.89135">
        <ele>779</ele>
        <time>2011-07-15T15:00:30.000Z</time>
      </trkpt>
      <trkpt lat="45.4666" lon="1.89156">
        <ele>774</ele>
        <time>2011-07-15T15:00:35.000Z</time>
      </trkpt>
      <trkpt lat="45.4661" lon="1.89178">
        <ele>772</ele>
        <time>2011-07-15T15:00:40.000Z</time>
      </trkpt>
      <trkpt lat="45.4655" lon="1.89194">
        <ele>767</ele>
        <time>2011-07-15T15:00:46.000Z</time>
      </trkpt>
      <trkpt lat="45.465" lon="1.89205">
        <ele>766</ele>
        <time>2011-07-15T15:00:52.000Z</time>
      </trkpt>
      <trkpt lat="45.4646" lon="1.89224">
        <ele>766</ele>
        <time>2011-07-15T15:00:59.000Z</time>
      </trkpt>
      <trkpt lat="45.464" lon="1.89229">
        <ele>764</ele>
        <time>2011-07-15T15:01:06.000Z</time>
      </trkpt>
      <trkpt lat="45.4636" lon="1.89249">
        <ele>762</ele>
        <time>2011-07-15T15:01:12.000Z</time>
      </trkpt>
      <trkpt lat="45.4632" lon="1.89224">
        <ele>767</ele>
        <time>2011-07-15T15:01:28.000Z</time>
      </trkpt>
      <trkpt lat="45.4627" lon="1.89194">
        <ele>771</ele>
        <time>2011-07-15T15:01:34.000Z</time>
      </trkpt>
      <trkpt lat="45.4623" lon="1.89156">
        <ele>772</ele>
        <time>2011-07-15T15:01:38.000Z</time>
      </trkpt>
      <trkpt lat="45.462" lon="1.89105">
        <ele>770</ele>
        <time>2011-07-15T15:01:43.000Z</time>
      </trkpt>
      <trkpt lat="45.4619" lon="1.8904">
        <ele>768</ele>
        <time>2011-07-15T15:01:49.000Z</time>
      </trkpt>
      <trkpt lat="45.4614" lon="1.8904">
        <ele>767</ele>
        <time>2011-07-15T15:01:59.000Z</time>
      </trkpt>
      <trkpt lat="45.4609" lon="1.89014">
        <ele>768</ele>
        <time>2011-07-15T15:02:04.000Z</time>
      </trkpt>
      <trkpt lat="45.4604" lon="1.88984">
        <ele>768</ele>
        <time>2011-07-15T15:02:11.000Z</time>
      </trkpt>
      <trkpt lat="45.4604" lon="1.88904">
        <ele>770</ele>
        <time>2011-07-15T15:02:22.000Z</time>
      </trkpt>
      <trkpt lat="45.4606" lon="1.88822">
        <ele>773</ele>
        <time>2011-07-15T15:02:28.000Z</time>
      </trkpt>
      <trkpt lat="45.4608" lon="1.88755">
        <ele>774</ele>
        <time>2011-07-15T15:02:32.000Z</time>
      </trkpt>
      <trkpt lat="45.461" lon="1.88694">
        <ele>770</ele>
        <time>2011-07-15T15:02:36.000Z</time>
      </trkpt>
      <trkpt lat="45.461" lon="1.88622">
        <ele>766</ele>
        <time>2011-07-15T15:02:42.000Z</time>
      </trkpt>
      <trkpt lat="45.4612" lon="1.88554">
        <ele>762</ele>
        <time>2011-07-15T15:02:48.000Z</time>
      </trkpt>
      <trkpt lat="45.4615" lon="1.885">
        <ele>760</ele>
        <time>2011-07-15T15:02:52.000Z</time>
      </trkpt>
      <trkpt lat="45.461" lon="1.88446">
        <ele>749</ele>
        <time>2011-07-15T15:03:06.000Z</time>
      </trkpt>
      <trkpt lat="45.4606" lon="1.88481">
        <ele>747</ele>
        <time>2011-07-15T15:03:11.000Z</time>
      </trkpt>
      <trkpt lat="45.4601" lon="1.88512">
        <ele>748</ele>
        <time>2011-07-15T15:03:15.000Z</time>
      </trkpt>
      <trkpt lat="45.4599" lon="1.88451">
        <ele>752</ele>
        <time>2011-07-15T15:03:23.000Z</time>
      </trkpt>
      <trkpt lat="45.4593" lon="1.88443">
        <ele>749</ele>
        <time>2011-07-15T15:03:27.000Z</time>
      </trkpt>
      <trkpt lat="45.4588" lon="1.88409">
        <ele>749</ele>
        <time>2011-07-15T15:03:30.000Z</time>
      </trkpt>
      <trkpt lat="45.4584" lon="1.88356">
        <ele>749</ele>
        <time>2011-07-15T15:03:34.000Z</time>
      </trkpt>
      <trkpt lat="45.458" lon="1.88328">
        <ele>746</ele>
        <time>2011-07-15T15:03:39.000Z</time>
      </trkpt>
      <trkpt lat="45.4575" lon="1.8831">
        <ele>742</ele>
        <time>2011-07-15T15:03:44.000Z</time>
      </trkpt>
      <trkpt lat="45.4571" lon="1.88282">
        <ele>733</ele>
        <time>2011-07-15T15:03:47.000Z</time>
      </trkpt>
      <trkpt lat="45.4566" lon="1.88243">
        <ele>724</ele>
        <time>2011-07-15T15:03:52.000Z</time>
      </trkpt>
      <trkpt lat="45.4562" lon="1.88203">
        <ele>719</ele>
        <time>2011-07-15T15:03:57.000Z</time>
      </trkpt>
      <trkpt lat="45.4558" lon="1.88151">
        <ele>712</ele>
        <time>2011-07-15T15:04:04.000Z</time>
      </trkpt>
      <trkpt lat="45.4554" lon="1.88153">
        <ele>706</ele>
        <time>2011-07-15T15:04:12.000Z</time>
      </trkpt>
      <trkpt lat="45.4549" lon="1.88174">
        <ele>702</ele>
        <time>2011-07-15T15:04:23.000Z</time>
      </trkpt>
      <trkpt lat="45.4544" lon="1.88147">
        <ele>703</ele>
        <time>2011-07-15T15:04:38.000Z</time>
      </trkpt>
      <trkpt lat="45.454" lon="1.88146">
        <ele>701</ele>
        <time>2011-07-15T15:04:58.000Z</time>
      </trkpt>
      <trkpt lat="45.4535" lon="1.88154">
        <ele>712</ele>
        <time>2011-07-15T15:05:14.000Z</time>
      </trkpt>
      <trkpt lat="45.4531" lon="1.88198">
        <ele>733</ele>
        <time>2011-07-15T15:05:35.000Z</time>
      </trkpt>
      <trkpt lat="45.453" lon="1.88262">
        <ele>739</ele>
        <time>2011-07-15T15:05:44.000Z</time>
      </trkpt>
      <trkpt lat="45.4527" lon="1.88316">
        <ele>734</ele>
        <time>2011-07-15T15:05:55.000Z</time>
      </trkpt>
      <trkpt lat="45.4524" lon="1.88363">
        <ele>722</ele>
        <time>2011-07-15T15:06:08.000Z</time>
      </trkpt>
      <trkpt lat="45.452" lon="1.88381">
        <ele>728</ele>
        <time>2011-07-15T15:06:24.000Z</time>
      </trkpt>
      <trkpt lat="45.4515" lon="1.88402">
        <ele>732</ele>
        <time>2011-07-15T15:06:38.000Z</time>
      </trkpt>
      <trkpt lat="45.4511" lon="1.88423">
        <ele>728</ele>
        <time>2011-07-15T15:06:47.000Z</time>
      </trkpt>
      <trkpt lat="45.4507" lon="1.8846">
        <ele>728</ele>
        <time>2011-07-15T15:06:54.000Z</time>
      </trkpt>
      <trkpt lat="45.4503" lon="1.88501">
        <ele>729</ele>
        <time>2011-07-15T15:07:06.000Z</time>
      </trkpt>
      <trkpt lat="45.4499" lon="1.88546">
        <ele>728</ele>
        <time>2011-07-15T15:07:17.000Z</time>
      </trkpt>
      <trkpt lat="45.4495" lon="1.88574">
        <ele>734</ele>
        <time>2011-07-15T15:07:26.000Z</time>
      </trkpt>
      <trkpt lat="45.4489" lon="1.8859">
        <ele>732</ele>
        <time>2011-07-15T15:07:33.000Z</time>
      </trkpt>
      <trkpt lat="45.4485" lon="1.88585">
        <ele>729</ele>
        <time>2011-07-15T15:07:37.000Z</time>
      </trkpt>
      <trkpt lat="45.4486" lon="1.88654">
        <ele>728</ele>
        <time>2011-07-15T15:07:47.000Z</time>
      </trkpt>
      <trkpt lat="45.4488" lon="1.88726">
        <ele>746</ele>
        <time>2011-07-15T15:07:54.000Z</time>
      </trkpt>
      <trkpt lat="45.4486" lon="1.88807">
        <ele>746</ele>
        <time>2011-07-15T15:07:59.000Z</time>
      </trkpt>
      <trkpt lat="45.4483" lon="1.88873">
        <ele>732</ele>
        <time>2011-07-15T15:08:03.000Z</time>
      </trkpt>
      <trkpt lat="45.4478" lon="1.88906">
        <ele>726</ele>
        <time>2011-07-15T15:08:09.000Z</time>
      </trkpt>
      <trkpt lat="45.4474" lon="1.88952">
        <ele>719</ele>
        <time>2011-07-15T15:08:15.000Z</time>
      </trkpt>
      <trkpt lat="45.4473" lon="1.89022">
        <ele>711</ele>
        <time>2011-07-15T15:08:21.000Z</time>
      </trkpt>
      <trkpt lat="45.4474" lon="1.89091">
        <ele>711</ele>
        <time>2011-07-15T15:08:28.000Z</time>
      </trkpt>
      <trkpt lat="45.447" lon="1.89149">
        <ele>714</ele>
        <time>2011-07-15T15:08:35.000Z</time>
      </trkpt>
      <trkpt lat="45.4468" lon="1.89214">
        <ele>711</ele>
        <time>2011-07-15T15:08:40.000Z</time>
      </trkpt>
      <trkpt lat="45.4466" lon="1.89273">
        <ele>705</ele>
        <time>2011-07-15T15:08:45.000Z</time>
      </trkpt>
      <trkpt lat="45.4462" lon="1.89336">
        <ele>700</ele>
        <time>2011-07-15T15:08:51.000Z</time>
      </trkpt>
      <trkpt lat="45.4457" lon="1.89375">
        <ele>697</ele>
        <time>2011-07-15T15:08:57.000Z</time>
      </trkpt>
      <trkpt lat="45.4453" lon="1.8944">
        <ele>692</ele>
        <time>2011-07-15T15:09:03.000Z</time>
      </trkpt>
      <trkpt lat="45.445" lon="1.89508">
        <ele>689</ele>
        <time>2011-07-15T15:09:08.000Z</time>
      </trkpt>
      <trkpt lat="45.4449" lon="1.89572">
        <ele>691</ele>
        <time>2011-07-15T15:09:13.000Z</time>
      </trkpt>
      <trkpt lat="45.445" lon="1.89641">
        <ele>693</ele>
        <time>2011-07-15T15:09:18.000Z</time>
      </trkpt>
      <trkpt lat="45.4452" lon="1.89709">
        <ele>687</ele>
        <time>2011-07-15T15:09:23.000Z</time>
      </trkpt>
      <trkpt lat="45.4455" lon="1.89752">
        <ele>684</ele>
        <time>2011-07-15T15:09:28.000Z</time>
      </trkpt>
      <trkpt lat="45.446" lon="1.89786">
        <ele>684</ele>
        <time>2011-07-15T15:09:34.000Z</time>
      </trkpt>
      <trkpt lat="45.4464" lon="1.89819">
        <ele>680</ele>
        <time>2011-07-15T15:09:38.000Z</time>
      </trkpt>
      <trkpt lat="45.4466" lon="1.8988">
        <ele>680</ele>
        <time>2011-07-15T15:09:44.000Z</time>
      </trkpt>
      <trkpt lat="45.4464" lon="1.89948">
        <ele>678</ele>
        <time>2011-07-15T15:09:50.000Z</time>
      </trkpt>
      <trkpt lat="45.446" lon="1.89972">
        <ele>680</ele>
        <time>2011-07-15T15:10:04.000Z</time>
      </trkpt>
      <trkpt lat="45.4455" lon="1.89999">
        <ele>687</ele>
        <time>2011-07-15T15:10:20.000Z</time>
      </trkpt>
      <trkpt lat="45.4455" lon="1.90073">
        <ele>696</ele>
        <time>2011-07-15T15:10:36.000Z</time>
      </trkpt>
      <trkpt lat="45.4458" lon="1.90129">
        <ele>689</ele>
        <time>2011-07-15T15:10:44.000Z</time>
      </trkpt>
      <trkpt lat="45.446" lon="1.90185">
        <ele>689</ele>
        <time>2011-07-15T15:10:57.000Z</time>
      </trkpt>
      <trkpt lat="45.4458" lon="1.90251">
        <ele>686</ele>
        <time>2011-07-15T15:11:06.000Z</time>
      </trkpt>
      <trkpt lat="45.4454" lon="1.9025">
        <ele>690</ele>
        <time>2011-07-15T15:11:33.000Z</time>
      </trkpt>
      <trkpt lat="45.4449" lon="1.90268">
        <ele>703</ele>
        <time>2011-07-15T15:11:49.000Z</time>
      </trkpt>
      <trkpt lat="45.4447" lon="1.90329">
        <ele>726</ele>
        <time>2011-07-15T15:12:04.000Z</time>
      </trkpt>
      <trkpt lat="45.4445" lon="1.90403">
        <ele>708</ele>
        <time>2011-07-15T15:12:12.000Z</time>
      </trkpt>
      <trkpt lat="45.4441" lon="1.90412">
        <ele>705</ele>
        <time>2011-07-15T15:12:25.000Z</time>
      </trkpt>
      <trkpt lat="45.4436" lon="1.90426">
        <ele>696</ele>
        <time>2011-07-15T15:12:32.000Z</time>
      </trkpt>
      <trkpt lat="45.4433" lon="1.90476">
        <ele>694</ele>
        <time>2011-07-15T15:12:42.000Z</time>
      </trkpt>
      <trkpt lat="45.4415" lon="1.90544">
        <ele>683</ele>
        <time>2011-07-15T15:13:22.000Z</time>
      </trkpt>
      <trkpt lat="45.4412" lon="1.90578">
        <ele>703</ele>
        <time>2011-07-15T15:13:35.000Z</time>
      </trkpt>
      <trkpt lat="45.4409" lon="1.90639">
        <ele>712</ele>
        <time>2011-07-15T15:13:46.000Z</time>
      </trkpt>
      <trkpt lat="45.4407" lon="1.90694">
        <ele>718</ele>
        <time>2011-07-15T15:13:59.000Z</time>
      </trkpt>
      <trkpt lat="45.4406" lon="1.90767">
        <ele>720</ele>
        <time>2011-07-15T15:14:10.000Z</time>
      </trkpt>
      <trkpt lat="45.4403" lon="1.90827">
        <ele>721</ele>
        <time>2011-07-15T15:14:18.000Z</time>
      </trkpt>
      <trkpt lat="45.4403" lon="1.90893">
        <ele>752</ele>
        <time>2011-07-15T15:14:34.000Z</time>
      </trkpt>
      <trkpt lat="45.44" lon="1.90942">
        <ele>760</ele>
        <time>2011-07-15T15:14:43.000Z</time>
      </trkpt>
      <trkpt lat="45.4396" lon="1.90973">
        <ele>761</ele>
        <time>2011-07-15T15:14:50.000Z</time>
      </trkpt>
      <trkpt lat="45.4392" lon="1.91016">
        <ele>761</ele>
        <time>2011-07-15T15:14:56.000Z</time>
      </trkpt>
      <trkpt lat="45.4388" lon="1.91078">
        <ele>753</ele>
        <time>2011-07-15T15:15:02.000Z</time>
      </trkpt>
      <trkpt lat="45.4384" lon="1.91122">
        <ele>749</ele>
        <time>2011-07-15T15:15:07.000Z</time>
      </trkpt>
      <trkpt lat="45.4381" lon="1.91172">
        <ele>744</ele>
        <time>2011-07-15T15:15:14.000Z</time>
      </trkpt>
      <trkpt lat="45.4376" lon="1.91202">
        <ele>734</ele>
        <time>2011-07-15T15:15:22.000Z</time>
      </trkpt>
      <trkpt lat="45.4376" lon="1.91266">
        <ele>726</ele>
        <time>2011-07-15T15:15:30.000Z</time>
      </trkpt>
      <trkpt lat="45.4379" lon="1.91321">
        <ele>735</ele>
        <time>2011-07-15T15:15:39.000Z</time>
      </trkpt>
      <trkpt lat="45.4382" lon="1.91375">
        <ele>725</ele>
        <time>2011-07-15T15:15:47.000Z</time>
      </trkpt>
      <trkpt lat="45.4387" lon="1.91373">
        <ele>720</ele>
        <time>2011-07-15T15:15:54.000Z</time>
      </trkpt>
      <trkpt lat="45.4392" lon="1.91395">
        <ele>724</ele>
        <time>2011-07-15T15:16:00.000Z</time>
      </trkpt>
      <trkpt lat="45.4393" lon="1.91465">
        <ele>710</ele>
        <time>2011-07-15T15:16:06.000Z</time>
      </trkpt>
      <trkpt lat="45.4397" lon="1.91507">
        <ele>716</ele>
        <time>2011-07-15T15:16:19.000Z</time>
      </trkpt>
      <trkpt lat="45.4401" lon="1.91485">
        <ele>713</ele>
        <time>2011-07-15T15:16:26.000Z</time>
      </trkpt>
      <trkpt lat="45.4405" lon="1.91449">
        <ele>708</ele>
        <time>2011-07-15T15:16:31.000Z</time>
      </trkpt>
      <trkpt lat="45.441" lon="1.91415">
        <ele>704</ele>
        <time>2011-07-15T15:16:36.000Z</time>
      </trkpt>
      <trkpt lat="45.4416" lon="1.91416">
        <ele>700</ele>
        <time>2011-07-15T15:16:42.000Z</time>
      </trkpt>
      <trkpt lat="45.442" lon="1.91449">
        <ele>698</ele>
        <time>2011-07-15T15:16:48.000Z</time>
      </trkpt>
      <trkpt lat="45.4421" lon="1.91518">
        <ele>700</ele>
        <time>2011-07-15T15:16:55.000Z</time>
      </trkpt>
      <trkpt lat="45.4422" lon="1.91593">
        <ele>695</ele>
        <time>2011-07-15T15:17:00.000Z</time>
      </trkpt>
      <trkpt lat="45.4425" lon="1.91667">
        <ele>691</ele>
        <time>2011-07-15T15:17:06.000Z</time>
      </trkpt>
      <trkpt lat="45.4428" lon="1.91726">
        <ele>690</ele>
        <time>2011-07-15T15:17:11.000Z</time>
      </trkpt>
      <trkpt lat="45.443" lon="1.91799">
        <ele>690</ele>
        <time>2011-07-15T15:17:18.000Z</time>
      </trkpt>
      <trkpt lat="45.4433" lon="1.91855">
        <ele>689</ele>
        <time>2011-07-15T15:17:23.000Z</time>
      </trkpt>
      <trkpt lat="45.4435" lon="1.91929">
        <ele>682</ele>
        <time>2011-07-15T15:17:27.000Z</time>
      </trkpt>
      <trkpt lat="45.4438" lon="1.91979">
        <ele>676</ele>
        <time>2011-07-15T15:17:31.000Z</time>
      </trkpt>
      <trkpt lat="45.4443" lon="1.92006">
        <ele>674</ele>
        <time>2011-07-15T15:17:36.000Z</time>
      </trkpt>
      <trkpt lat="45.4449" lon="1.92035">
        <ele>675</ele>
        <time>2011-07-15T15:17:42.000Z</time>
      </trkpt>
      <trkpt lat="45.4453" lon="1.92077">
        <ele>674</ele>
        <time>2011-07-15T15:17:47.000Z</time>
      </trkpt>
      <trkpt lat="45.4456" lon="1.9213">
        <ele>670</ele>
        <time>2011-07-15T15:17:52.000Z</time>
      </trkpt>
      <trkpt lat="45.4459" lon="1.92196">
        <ele>666</ele>
        <time>2011-07-15T15:17:58.000Z</time>
      </trkpt>
      <trkpt lat="45.4464" lon="1.92192">
        <ele>663</ele>
        <time>2011-07-15T15:18:11.000Z</time>
      </trkpt>
      <trkpt lat="45.4469" lon="1.9217">
        <ele>659</ele>
        <time>2011-07-15T15:18:15.000Z</time>
      </trkpt>
      <trkpt lat="45.4474" lon="1.92135">
        <ele>656</ele>
        <time>2011-07-15T15:18:18.000Z</time>
      </trkpt>
      <trkpt lat="45.448" lon="1.92082">
        <ele>652</ele>
        <time>2011-07-15T15:18:22.000Z</time>
      </trkpt>
      <trkpt lat="45.4485" lon="1.92062">
        <ele>650</ele>
        <time>2011-07-15T15:18:27.000Z</time>
      </trkpt>
      <trkpt lat="45.4491" lon="1.92049">
        <ele>650</ele>
        <time>2011-07-15T15:18:34.000Z</time>
      </trkpt>
      <trkpt lat="45.4493" lon="1.92107">
        <ele>651</ele>
        <time>2011-07-15T15:18:39.000Z</time>
      </trkpt>
      <trkpt lat="45.4494" lon="1.92173">
        <ele>649</ele>
        <time>2011-07-15T15:18:44.000Z</time>
      </trkpt>
      <trkpt lat="45.4496" lon="1.9224">
        <ele>645</ele>
        <time>2011-07-15T15:18:51.000Z</time>
      </trkpt>
      <trkpt lat="45.4501" lon="1.92285">
        <ele>638</ele>
        <time>2011-07-15T15:18:58.000Z</time>
      </trkpt>
      <trkpt lat="45.4506" lon="1.923">
        <ele>635</ele>
        <time>2011-07-15T15:19:03.000Z</time>
      </trkpt>
      <trkpt lat="45.4511" lon="1.92307">
        <ele>626</ele>
        <time>2011-07-15T15:19:08.000Z</time>
      </trkpt>
      <trkpt lat="45.4516" lon="1.92307">
        <ele>626</ele>
        <time>2011-07-15T15:19:12.000Z</time>
      </trkpt>
      <trkpt lat="45.4518" lon="1.92373">
        <ele>629</ele>
        <time>2011-07-15T15:19:19.000Z</time>
      </trkpt>
      <trkpt lat="45.4519" lon="1.92467">
        <ele>626</ele>
        <time>2011-07-15T15:19:26.000Z</time>
      </trkpt>
      <trkpt lat="45.4516" lon="1.92529">
        <ele>616</ele>
        <time>2011-07-15T15:19:32.000Z</time>
      </trkpt>
      <trkpt lat="45.4512" lon="1.92561">
        <ele>613</ele>
        <time>2011-07-15T15:19:39.000Z</time>
      </trkpt>
      <trkpt lat="45.4508" lon="1.92562">
        <ele>615</ele>
        <time>2011-07-15T15:19:46.000Z</time>
      </trkpt>
      <trkpt lat="45.4503" lon="1.92589">
        <ele>620</ele>
        <time>2011-07-15T15:20:02.000Z</time>
      </trkpt>
      <trkpt lat="45.4499" lon="1.92591">
        <ele>619</ele>
        <time>2011-07-15T15:20:07.000Z</time>
      </trkpt>
      <trkpt lat="45.4493" lon="1.92615">
        <ele>614</ele>
        <time>2011-07-15T15:20:14.000Z</time>
      </trkpt>
      <trkpt lat="45.4489" lon="1.92631">
        <ele>610</ele>
        <time>2011-07-15T15:20:24.000Z</time>
      </trkpt>
      <trkpt lat="45.4484" lon="1.92657">
        <ele>606</ele>
        <time>2011-07-15T15:20:38.000Z</time>
      </trkpt>
      <trkpt lat="45.4478" lon="1.92676">
        <ele>622</ele>
        <time>2011-07-15T15:20:58.000Z</time>
      </trkpt>
      <trkpt lat="45.4473" lon="1.92683">
        <ele>623</ele>
        <time>2011-07-15T15:21:10.000Z</time>
      </trkpt>
      <trkpt lat="45.4468" lon="1.92674">
        <ele>614</ele>
        <time>2011-07-15T15:21:24.000Z</time>
      </trkpt>
      <trkpt lat="45.4464" lon="1.92708">
        <ele>609</ele>
        <time>2011-07-15T15:21:35.000Z</time>
      </trkpt>
      <trkpt lat="45.4461" lon="1.92753">
        <ele>604</ele>
        <time>2011-07-15T15:21:46.000Z</time>
      </trkpt>
      <trkpt lat="45.4457" lon="1.92803">
        <ele>602</ele>
        <time>2011-07-15T15:21:58.000Z</time>
      </trkpt>
      <trkpt lat="45.4453" lon="1.92849">
        <ele>601</ele>
        <time>2011-07-15T15:22:11.000Z</time>
      </trkpt>
      <trkpt lat="45.445" lon="1.92895">
        <ele>606</ele>
        <time>2011-07-15T15:22:24.000Z</time>
      </trkpt>
      <trkpt lat="45.4445" lon="1.92919">
        <ele>611</ele>
        <time>2011-07-15T15:22:36.000Z</time>
      </trkpt>
      <trkpt lat="45.4441" lon="1.9291">
        <ele>611</ele>
        <time>2011-07-15T15:22:51.000Z</time>
      </trkpt>
      <trkpt lat="45.4436" lon="1.92941">
        <ele>619</ele>
        <time>2011-07-15T15:23:10.000Z</time>
      </trkpt>
      <trkpt lat="45.4432" lon="1.92968">
        <ele>620</ele>
        <time>2011-07-15T15:23:22.000Z</time>
      </trkpt>
      <trkpt lat="45.4428" lon="1.93015">
        <ele>640</ele>
        <time>2011-07-15T15:23:48.000Z</time>
      </trkpt>
      <trkpt lat="45.4431" lon="1.93062">
        <ele>645</ele>
        <time>2011-07-15T15:24:02.000Z</time>
      </trkpt>
      <trkpt lat="45.4435" lon="1.93093">
        <ele>663</ele>
        <time>2011-07-15T15:24:19.000Z</time>
      </trkpt>
      <trkpt lat="45.4436" lon="1.93158">
        <ele>654</ele>
        <time>2011-07-15T15:24:35.000Z</time>
      </trkpt>
      <trkpt lat="45.4438" lon="1.93218">
        <ele>663</ele>
        <time>2011-07-15T15:25:00.000Z</time>
      </trkpt>
      <trkpt lat="45.4438" lon="1.93286">
        <ele>658</ele>
        <time>2011-07-15T15:25:12.000Z</time>
      </trkpt>
      <trkpt lat="45.444" lon="1.9334">
        <ele>654</ele>
        <time>2011-07-15T15:25:34.000Z</time>
      </trkpt>
      <trkpt lat="45.4445" lon="1.93334">
        <ele>659</ele>
        <time>2011-07-15T15:25:52.000Z</time>
      </trkpt>
      <trkpt lat="45.4447" lon="1.9339">
        <ele>658</ele>
        <time>2011-07-15T15:26:15.000Z</time>
      </trkpt>
      <trkpt lat="45.4447" lon="1.93457">
        <ele>644</ele>
        <time>2011-07-15T15:26:24.000Z</time>
      </trkpt>
      <trkpt lat="45.4446" lon="1.93518">
        <ele>640</ele>
        <time>2011-07-15T15:26:43.000Z</time>
      </trkpt>
      <trkpt lat="45.4445" lon="1.93585">
        <ele>636</ele>
        <time>2011-07-15T15:26:52.000Z</time>
      </trkpt>
      <trkpt lat="45.4444" lon="1.9365">
        <ele>645</ele>
        <time>2011-07-15T15:27:04.000Z</time>
      </trkpt>
      <trkpt lat="45.4442" lon="1.9372">
        <ele>651</ele>
        <time>2011-07-15T15:27:18.000Z</time>
      </trkpt>
      <trkpt lat="45.4443" lon="1.93789">
        <ele>662</ele>
        <time>2011-07-15T15:27:34.000Z</time>
      </trkpt>
      <trkpt lat="45.4444" lon="1.93852">
        <ele>671</ele>
        <time>2011-07-15T15:27:51.000Z</time>
      </trkpt>
      <trkpt lat="45.4444" lon="1.93917">
        <ele>674</ele>
        <time>2011-07-15T15:28:07.000Z</time>
      </trkpt>
      <trkpt lat="45.4445" lon="1.93985">
        <ele>678</ele>
        <time>2011-07-15T15:28:26.000Z</time>
      </trkpt>
      <trkpt lat="45.4447" lon="1.9405">
        <ele>677</ele>
        <time>2011-07-15T15:28:42.000Z</time>
      </trkpt>
      <trkpt lat="45.4449" lon="1.94108">
        <ele>678</ele>
        <time>2011-07-15T15:29:02.000Z</time>
      </trkpt>
      <trkpt lat="45.4449" lon="1.94173">
        <ele>680</ele>
        <time>2011-07-15T15:29:20.000Z</time>
      </trkpt>
      <trkpt lat="45.4448" lon="1.94238">
        <ele>678</ele>
        <time>2011-07-15T15:29:40.000Z</time>
      </trkpt>
      <trkpt lat="45.4445" lon="1.9429">
        <ele>676</ele>
        <time>2011-07-15T15:29:56.000Z</time>
      </trkpt>
      <trkpt lat="45.4447" lon="1.94351">
        <ele>696</ele>
        <time>2011-07-15T15:30:19.000Z</time>
      </trkpt>
      <trkpt lat="45.445" lon="1.94398">
        <ele>691</ele>
        <time>2011-07-15T15:30:39.000Z</time>
      </trkpt>
      <trkpt lat="45.4454" lon="1.9441">
        <ele>693</ele>
        <time>2011-07-15T15:31:00.000Z</time>
      </trkpt>
      <trkpt lat="45.4459" lon="1.94424">
        <ele>692</ele>
        <time>2011-07-15T15:31:16.000Z</time>
      </trkpt>
      <trkpt lat="45.4462" lon="1.9437">
        <ele>699</ele>
        <time>2011-07-15T15:31:50.000Z</time>
      </trkpt>
      <trkpt lat="45.4461" lon="1.94302">
        <ele>696</ele>
        <time>2011-07-15T15:32:06.000Z</time>
      </trkpt>
      <trkpt lat="45.4463" lon="1.94238">
        <ele>695</ele>
        <time>2011-07-15T15:32:22.000Z</time>
      </trkpt>
      <trkpt lat="45.4467" lon="1.94226">
        <ele>702</ele>
        <time>2011-07-15T15:32:40.000Z</time>
      </trkpt>
      <trkpt lat="45.4472" lon="1.94212">
        <ele>705</ele>
        <time>2011-07-15T15:32:58.000Z</time>
      </trkpt>
      <trkpt lat="45.4476" lon="1.94185">
        <ele>715</ele>
        <time>2011-07-15T15:33:18.000Z</time>
      </trkpt>
      <trkpt lat="45.4481" lon="1.94185">
        <ele>715</ele>
        <time>2011-07-15T15:33:35.000Z</time>
      </trkpt>
      <trkpt lat="45.4482" lon="1.94248">
        <ele>747</ele>
        <time>2011-07-15T15:34:06.000Z</time>
      </trkpt>
      <trkpt lat="45.4479" lon="1.94306">
        <ele>741</ele>
        <time>2011-07-15T15:34:29.000Z</time>
      </trkpt>
      <trkpt lat="45.4479" lon="1.94374">
        <ele>745</ele>
        <time>2011-07-15T15:34:48.000Z</time>
      </trkpt>
      <trkpt lat="45.4478" lon="1.94437">
        <ele>754</ele>
        <time>2011-07-15T15:35:05.000Z</time>
      </trkpt>
      <trkpt lat="45.4477" lon="1.94508">
        <ele>747</ele>
        <time>2011-07-15T15:35:20.000Z</time>
      </trkpt>
      <trkpt lat="45.4473" lon="1.94542">
        <ele>753</ele>
        <time>2011-07-15T15:35:32.000Z</time>
      </trkpt>
      <trkpt lat="45.4469" lon="1.94581">
        <ele>772</ele>
        <time>2011-07-15T15:35:53.000Z</time>
      </trkpt>
      <trkpt lat="45.4465" lon="1.94601">
        <ele>761</ele>
        <time>2011-07-15T15:36:04.000Z</time>
      </trkpt>
      <trkpt lat="45.4461" lon="1.94631">
        <ele>750</ele>
        <time>2011-07-15T15:36:22.000Z</time>
      </trkpt>
      <trkpt lat="45.4456" lon="1.94666">
        <ele>759</ele>
        <time>2011-07-15T15:36:41.000Z</time>
      </trkpt>
      <trkpt lat="45.4453" lon="1.94718">
        <ele>768</ele>
        <time>2011-07-15T15:36:57.000Z</time>
      </trkpt>
      <trkpt lat="45.4449" lon="1.94747">
        <ele>770</ele>
        <time>2011-07-15T15:37:08.000Z</time>
      </trkpt>
      <trkpt lat="45.4445" lon="1.9477">
        <ele>767</ele>
        <time>2011-07-15T15:37:17.000Z</time>
      </trkpt>
      <trkpt lat="45.4441" lon="1.9481">
        <ele>773</ele>
        <time>2011-07-15T15:37:44.000Z</time>
      </trkpt>
      <trkpt lat="45.4436" lon="1.94832">
        <ele>773</ele>
        <time>2011-07-15T15:37:54.000Z</time>
      </trkpt>
      <trkpt lat="45.4433" lon="1.94881">
        <ele>774</ele>
        <time>2011-07-15T15:38:04.000Z</time>
      </trkpt>
      <trkpt lat="45.4432" lon="1.94943">
        <ele>783</ele>
        <time>2011-07-15T15:38:12.000Z</time>
      </trkpt>
      <trkpt lat="45.4427" lon="1.94969">
        <ele>805</ele>
        <time>2011-07-15T15:38:30.000Z</time>
      </trkpt>
      <trkpt lat="45.4423" lon="1.94966">
        <ele>799</ele>
        <time>2011-07-15T15:38:40.000Z</time>
      </trkpt>
      <trkpt lat="45.4418" lon="1.94976">
        <ele>795</ele>
        <time>2011-07-15T15:38:50.000Z</time>
      </trkpt>
      <trkpt lat="45.4414" lon="1.95006">
        <ele>801</ele>
        <time>2011-07-15T15:38:58.000Z</time>
      </trkpt>
      <trkpt lat="45.4409" lon="1.9503">
        <ele>797</ele>
        <time>2011-07-15T15:39:05.000Z</time>
      </trkpt>
      <trkpt lat="45.4405" lon="1.95066">
        <ele>792</ele>
        <time>2011-07-15T15:39:13.000Z</time>
      </trkpt>
      <trkpt lat="45.4401" lon="1.95099">
        <ele>803</ele>
        <time>2011-07-15T15:39:30.000Z</time>
      </trkpt>
      <trkpt lat="45.4396" lon="1.95112">
        <ele>802</ele>
        <time>2011-07-15T15:39:41.000Z</time>
      </trkpt>
      <trkpt lat="45.4391" lon="1.95112">
        <ele>798</ele>
        <time>2011-07-15T15:39:46.000Z</time>
      </trkpt>
      <trkpt lat="45.4385" lon="1.95138">
        <ele>799</ele>
        <time>2011-07-15T15:39:52.000Z</time>
      </trkpt>
      <trkpt lat="45.4382" lon="1.95189">
        <ele>796</ele>
        <time>2011-07-15T15:40:00.000Z</time>
      </trkpt>
      <trkpt lat="45.4378" lon="1.95226">
        <ele>801</ele>
        <time>2011-07-15T15:40:04.000Z</time>
      </trkpt>
      <trkpt lat="45.4374" lon="1.95252">
        <ele>805</ele>
        <time>2011-07-15T15:40:10.000Z</time>
      </trkpt>
      <trkpt lat="45.4369" lon="1.95256">
        <ele>801</ele>
        <time>2011-07-15T15:40:16.000Z</time>
      </trkpt>
      <trkpt lat="45.4365" lon="1.95257">
        <ele>786</ele>
        <time>2011-07-15T15:40:25.000Z</time>
      </trkpt>
      <trkpt lat="45.436" lon="1.95251">
        <ele>776</ele>
        <time>2011-07-15T15:40:32.000Z</time>
      </trkpt>
      <trkpt lat="45.4354" lon="1.95217">
        <ele>779</ele>
        <time>2011-07-15T15:40:40.000Z</time>
      </trkpt>
      <trkpt lat="45.4349" lon="1.9518">
        <ele>770</ele>
        <time>2011-07-15T15:40:48.000Z</time>
      </trkpt>
      <trkpt lat="45.4347" lon="1.95122">
        <ele>761</ele>
        <time>2011-07-15T15:40:54.000Z</time>
      </trkpt>
      <trkpt lat="45.4345" lon="1.95062">
        <ele>753</ele>
        <time>2011-07-15T15:41:01.000Z</time>
      </trkpt>
      <trkpt lat="45.4343" lon="1.94986">
        <ele>746</ele>
        <time>2011-07-15T15:41:08.000Z</time>
      </trkpt>
      <trkpt lat="45.434" lon="1.94931">
        <ele>741</ele>
        <time>2011-07-15T15:41:16.000Z</time>
      </trkpt>
      <trkpt lat="45.4338" lon="1.94868">
        <ele>742</ele>
        <time>2011-07-15T15:41:24.000Z</time>
      </trkpt>
      <trkpt lat="45.4336" lon="1.94797">
        <ele>739</ele>
        <time>2011-07-15T15:41:32.000Z</time>
      </trkpt>
      <trkpt lat="45.4334" lon="1.94726">
        <ele>734</ele>
        <time>2011-07-15T15:41:38.000Z</time>
      </trkpt>
      <trkpt lat="45.4332" lon="1.94666">
        <ele>734</ele>
        <time>2011-07-15T15:41:44.000Z</time>
      </trkpt>
      <trkpt lat="45.4329" lon="1.94589">
        <ele>733</ele>
        <time>2011-07-15T15:41:52.000Z</time>
      </trkpt>
      <trkpt lat="45.4326" lon="1.94516">
        <ele>727</ele>
        <time>2011-07-15T15:42:00.000Z</time>
      </trkpt>
      <trkpt lat="45.4324" lon="1.94453">
        <ele>726</ele>
        <time>2011-07-15T15:42:08.000Z</time>
      </trkpt>
      <trkpt lat="45.432" lon="1.94431">
        <ele>731</ele>
        <time>2011-07-15T15:42:21.000Z</time>
      </trkpt>
      <trkpt lat="45.4314" lon="1.94439">
        <ele>736</ele>
        <time>2011-07-15T15:42:29.000Z</time>
      </trkpt>
      <trkpt lat="45.431" lon="1.94437">
        <ele>736</ele>
        <time>2011-07-15T15:42:33.000Z</time>
      </trkpt>
      <trkpt lat="45.4304" lon="1.94459">
        <ele>737</ele>
        <time>2011-07-15T15:42:40.000Z</time>
      </trkpt>
      <trkpt lat="45.43" lon="1.94482">
        <ele>740</ele>
        <time>2011-07-15T15:42:48.000Z</time>
      </trkpt>
      <trkpt lat="45.4296" lon="1.94445">
        <ele>734</ele>
        <time>2011-07-15T15:42:57.000Z</time>
      </trkpt>
      <trkpt lat="45.4291" lon="1.94416">
        <ele>730</ele>
        <time>2011-07-15T15:43:02.000Z</time>
      </trkpt>
      <trkpt lat="45.4287" lon="1.94415">
        <ele>730</ele>
        <time>2011-07-15T15:43:08.000Z</time>
      </trkpt>
      <trkpt lat="45.4281" lon="1.94432">
        <ele>731</ele>
        <time>2011-07-15T15:43:16.000Z</time>
      </trkpt>
      <trkpt lat="45.428" lon="1.94371">
        <ele>735</ele>
        <time>2011-07-15T15:43:29.000Z</time>
      </trkpt>
      <trkpt lat="45.4276" lon="1.94329">
        <ele>741</ele>
        <time>2011-07-15T15:43:44.000Z</time>
      </trkpt>
      <trkpt lat="45.4271" lon="1.94322">
        <ele>746</ele>
        <time>2011-07-15T15:44:00.000Z</time>
      </trkpt>
      <trkpt lat="45.4267" lon="1.94313">
        <ele>746</ele>
        <time>2011-07-15T15:44:12.000Z</time>
      </trkpt>
      <trkpt lat="45.4264" lon="1.94256">
        <ele>739</ele>
        <time>2011-07-15T15:44:21.000Z</time>
      </trkpt>
      <trkpt lat="45.4262" lon="1.94189">
        <ele>741</ele>
        <time>2011-07-15T15:44:30.000Z</time>
      </trkpt>
      <trkpt lat="45.4259" lon="1.94137">
        <ele>751</ele>
        <time>2011-07-15T15:44:41.000Z</time>
      </trkpt>
      <trkpt lat="45.4258" lon="1.94063">
        <ele>750</ele>
        <time>2011-07-15T15:44:56.000Z</time>
      </trkpt>
      <trkpt lat="45.426" lon="1.94002">
        <ele>751</ele>
        <time>2011-07-15T15:45:05.000Z</time>
      </trkpt>
      <trkpt lat="45.426" lon="1.93934">
        <ele>746</ele>
        <time>2011-07-15T15:45:13.000Z</time>
      </trkpt>
      <trkpt lat="45.4256" lon="1.93885">
        <ele>741</ele>
        <time>2011-07-15T15:45:24.000Z</time>
      </trkpt>
      <trkpt lat="45.4252" lon="1.93872">
        <ele>751</ele>
        <time>2011-07-15T15:45:38.000Z</time>
      </trkpt>
      <trkpt lat="45.4247" lon="1.93865">
        <ele>754</ele>
        <time>2011-07-15T15:45:45.000Z</time>
      </trkpt>
      <trkpt lat="45.4241" lon="1.93862">
        <ele>747</ele>
        <time>2011-07-15T15:45:52.000Z</time>
      </trkpt>
      <trkpt lat="45.4236" lon="1.93872">
        <ele>741</ele>
        <time>2011-07-15T15:46:00.000Z</time>
      </trkpt>
      <trkpt lat="45.4233" lon="1.93917">
        <ele>749</ele>
        <time>2011-07-15T15:46:21.000Z</time>
      </trkpt>
      <trkpt lat="45.4229" lon="1.93948">
        <ele>764</ele>
        <time>2011-07-15T15:46:42.000Z</time>
      </trkpt>
      <trkpt lat="45.4223" lon="1.93966">
        <ele>770</ele>
        <time>2011-07-15T15:46:56.000Z</time>
      </trkpt>
      <trkpt lat="45.4218" lon="1.93958">
        <ele>766</ele>
        <time>2011-07-15T15:47:04.000Z</time>
      </trkpt>
      <trkpt lat="45.4213" lon="1.93951">
        <ele>764</ele>
        <time>2011-07-15T15:47:12.000Z</time>
      </trkpt>
      <trkpt lat="45.4208" lon="1.93961">
        <ele>764</ele>
        <time>2011-07-15T15:47:25.000Z</time>
      </trkpt>
      <trkpt lat="45.4203" lon="1.93959">
        <ele>757</ele>
        <time>2011-07-15T15:47:32.000Z</time>
      </trkpt>
      <trkpt lat="45.4198" lon="1.93955">
        <ele>780</ele>
        <time>2011-07-15T15:47:48.000Z</time>
      </trkpt>
      <trkpt lat="45.4194" lon="1.93931">
        <ele>801</ele>
        <time>2011-07-15T15:47:55.000Z</time>
      </trkpt>
      <trkpt lat="45.4188" lon="1.93903">
        <ele>812</ele>
        <time>2011-07-15T15:48:05.000Z</time>
      </trkpt>
      <trkpt lat="45.4185" lon="1.93856">
        <ele>813</ele>
        <time>2011-07-15T15:48:17.000Z</time>
      </trkpt>
      <trkpt lat="45.4181" lon="1.93837">
        <ele>816</ele>
        <time>2011-07-15T15:48:22.000Z</time>
      </trkpt>
      <trkpt lat="45.4176" lon="1.93799">
        <ele>814</ele>
        <time>2011-07-15T15:48:29.000Z</time>
      </trkpt>
      <trkpt lat="45.4172" lon="1.93764">
        <ele>803</ele>
        <time>2011-07-15T15:48:37.000Z</time>
      </trkpt>
      <trkpt lat="45.4168" lon="1.93733">
        <ele>794</ele>
        <time>2011-07-15T15:48:53.000Z</time>
      </trkpt>
      <trkpt lat="45.4164" lon="1.93753">
        <ele>797</ele>
        <time>2011-07-15T15:49:02.000Z</time>
      </trkpt>
      <trkpt lat="45.4158" lon="1.93772">
        <ele>789</ele>
        <time>2011-07-15T15:49:08.000Z</time>
      </trkpt>
      <trkpt lat="45.4154" lon="1.93804">
        <ele>789</ele>
        <time>2011-07-15T15:49:13.000Z</time>
      </trkpt>
      <trkpt lat="45.4149" lon="1.93812">
        <ele>785</ele>
        <time>2011-07-15T15:49:17.000Z</time>
      </trkpt>
      <trkpt lat="45.4144" lon="1.93797">
        <ele>773</ele>
        <time>2011-07-15T15:49:22.000Z</time>
      </trkpt>
      <trkpt lat="45.4138" lon="1.938">
        <ele>758</ele>
        <time>2011-07-15T15:49:28.000Z</time>
      </trkpt>
      <trkpt lat="45.4134" lon="1.93847">
        <ele>755</ele>
        <time>2011-07-15T15:49:33.000Z</time>
      </trkpt>
      <trkpt lat="45.4129" lon="1.93838">
        <ele>752</ele>
        <time>2011-07-15T15:49:42.000Z</time>
      </trkpt>
      <trkpt lat="45.4124" lon="1.93819">
        <ele>751</ele>
        <time>2011-07-15T15:49:48.000Z</time>
      </trkpt>
      <trkpt lat="45.4119" lon="1.93822">
        <ele>747</ele>
        <time>2011-07-15T15:49:54.000Z</time>
      </trkpt>
      <trkpt lat="45.4115" lon="1.93855">
        <ele>746</ele>
        <time>2011-07-15T15:49:59.000Z</time>
      </trkpt>
      <trkpt lat="45.4111" lon="1.93881">
        <ele>743</ele>
        <time>2011-07-15T15:50:05.000Z</time>
      </trkpt>
      <trkpt lat="45.4106" lon="1.93881">
        <ele>743</ele>
        <time>2011-07-15T15:50:11.000Z</time>
      </trkpt>
      <trkpt lat="45.4102" lon="1.93845">
        <ele>737</ele>
        <time>2011-07-15T15:50:16.000Z</time>
      </trkpt>
      <trkpt lat="45.41" lon="1.93783">
        <ele>727</ele>
        <time>2011-07-15T15:50:24.000Z</time>
      </trkpt>
      <trkpt lat="45.4099" lon="1.93711">
        <ele>723</ele>
        <time>2011-07-15T15:50:36.000Z</time>
      </trkpt>
      <trkpt lat="45.4096" lon="1.93662">
        <ele>722</ele>
        <time>2011-07-15T15:50:45.000Z</time>
      </trkpt>
      <trkpt lat="45.4092" lon="1.93614">
        <ele>723</ele>
        <time>2011-07-15T15:50:52.000Z</time>
      </trkpt>
      <trkpt lat="45.4087" lon="1.93575">
        <ele>722</ele>
        <time>2011-07-15T15:50:58.000Z</time>
      </trkpt>
      <trkpt lat="45.4083" lon="1.93544">
        <ele>721</ele>
        <time>2011-07-15T15:51:04.000Z</time>
      </trkpt>
      <trkpt lat="45.4078" lon="1.93519">
        <ele>717</ele>
        <time>2011-07-15T15:51:09.000Z</time>
      </trkpt>
      <trkpt lat="45.4072" lon="1.93476">
        <ele>716</ele>
        <time>2011-07-15T15:51:16.000Z</time>
      </trkpt>
      <trkpt lat="45.4068" lon="1.93466">
        <ele>715</ele>
        <time>2011-07-15T15:51:21.000Z</time>
      </trkpt>
      <trkpt lat="45.4061" lon="1.93481">
        <ele>712</ele>
        <time>2011-07-15T15:51:28.000Z</time>
      </trkpt>
      <trkpt lat="45.4059" lon="1.93552">
        <ele>715</ele>
        <time>2011-07-15T15:51:32.000Z</time>
      </trkpt>
      <trkpt lat="45.4057" lon="1.93619">
        <ele>716</ele>
        <time>2011-07-15T15:51:36.000Z</time>
      </trkpt>
      <trkpt lat="45.4053" lon="1.93576">
        <ele>721</ele>
        <time>2011-07-15T15:51:44.000Z</time>
      </trkpt>
      <trkpt lat="45.4048" lon="1.9354">
        <ele>717</ele>
        <time>2011-07-15T15:51:49.000Z</time>
      </trkpt>
      <trkpt lat="45.4042" lon="1.93551">
        <ele>716</ele>
        <time>2011-07-15T15:51:54.000Z</time>
      </trkpt>
      <trkpt lat="45.4038" lon="1.93574">
        <ele>708</ele>
        <time>2011-07-15T15:51:58.000Z</time>
      </trkpt>
      <trkpt lat="45.4034" lon="1.9353">
        <ele>703</ele>
        <time>2011-07-15T15:52:04.000Z</time>
      </trkpt>
      <trkpt lat="45.4032" lon="1.93466">
        <ele>701</ele>
        <time>2011-07-15T15:52:10.000Z</time>
      </trkpt>
      <trkpt lat="45.4028" lon="1.93417">
        <ele>700</ele>
        <time>2011-07-15T15:52:16.000Z</time>
      </trkpt>
      <trkpt lat="45.4024" lon="1.93374">
        <ele>700</ele>
        <time>2011-07-15T15:52:22.000Z</time>
      </trkpt>
      <trkpt lat="45.4021" lon="1.93303">
        <ele>701</ele>
        <time>2011-07-15T15:52:28.000Z</time>
      </trkpt>
      <trkpt lat="45.4017" lon="1.93253">
        <ele>699</ele>
        <time>2011-07-15T15:52:33.000Z</time>
      </trkpt>
      <trkpt lat="45.4012" lon="1.93248">
        <ele>694</ele>
        <time>2011-07-15T15:52:37.000Z</time>
      </trkpt>
      <trkpt lat="45.4007" lon="1.93271">
        <ele>686</ele>
        <time>2011-07-15T15:52:40.000Z</time>
      </trkpt>
      <trkpt lat="45.4001" lon="1.93314">
        <ele>690</ele>
        <time>2011-07-15T15:52:44.000Z</time>
      </trkpt>
      <trkpt lat="45.3996" lon="1.9334">
        <ele>693</ele>
        <time>2011-07-15T15:52:48.000Z</time>
      </trkpt>
      <trkpt lat="45.3993" lon="1.93278">
        <ele>679</ele>
        <time>2011-07-15T15:53:08.000Z</time>
      </trkpt>
      <trkpt lat="45.3991" lon="1.9321">
        <ele>671</ele>
        <time>2011-07-15T15:53:20.000Z</time>
      </trkpt>
      <trkpt lat="45.3986" lon="1.93179">
        <ele>655</ele>
        <time>2011-07-15T15:53:30.000Z</time>
      </trkpt>
      <trkpt lat="45.3982" lon="1.93211">
        <ele>651</ele>
        <time>2011-07-15T15:53:33.000Z</time>
      </trkpt>
      <trkpt lat="45.3979" lon="1.9327">
        <ele>652</ele>
        <time>2011-07-15T15:53:36.000Z</time>
      </trkpt>
      <trkpt lat="45.3977" lon="1.93328">
        <ele>652</ele>
        <time>2011-07-15T15:53:40.000Z</time>
      </trkpt>
      <trkpt lat="45.3971" lon="1.93319">
        <ele>651</ele>
        <time>2011-07-15T15:53:53.000Z</time>
      </trkpt>
      <trkpt lat="45.3966" lon="1.93317">
        <ele>651</ele>
        <time>2011-07-15T15:53:57.000Z</time>
      </trkpt>
      <trkpt lat="45.3961" lon="1.93313">
        <ele>651</ele>
        <time>2011-07-15T15:54:02.000Z</time>
      </trkpt>
      <trkpt lat="45.3956" lon="1.93317">
        <ele>658</ele>
        <time>2011-07-15T15:54:08.000Z</time>
      </trkpt>
      <trkpt lat="45.3951" lon="1.93299">
        <ele>663</ele>
        <time>2011-07-15T15:54:14.000Z</time>
      </trkpt>
      <trkpt lat="45.3947" lon="1.93258">
        <ele>656</ele>
        <time>2011-07-15T15:54:24.000Z</time>
      </trkpt>
      <trkpt lat="45.3944" lon="1.932">
        <ele>649</ele>
        <time>2011-07-15T15:54:38.000Z</time>
      </trkpt>
      <trkpt lat="45.3943" lon="1.93138">
        <ele>671</ele>
        <time>2011-07-15T15:54:57.000Z</time>
      </trkpt>
      <trkpt lat="45.3939" lon="1.93095">
        <ele>683</ele>
        <time>2011-07-15T15:55:12.000Z</time>
      </trkpt>
      <trkpt lat="45.3934" lon="1.93071">
        <ele>683</ele>
        <time>2011-07-15T15:55:32.000Z</time>
      </trkpt>
      <trkpt lat="45.3929" lon="1.93062">
        <ele>679</ele>
        <time>2011-07-15T15:55:38.000Z</time>
      </trkpt>
      <trkpt lat="45.3924" lon="1.93046">
        <ele>677</ele>
        <time>2011-07-15T15:55:42.000Z</time>
      </trkpt>
      <trkpt lat="45.3919" lon="1.93033">
        <ele>676</ele>
        <time>2011-07-15T15:55:46.000Z</time>
      </trkpt>
      <trkpt lat="45.3914" lon="1.93023">
        <ele>677</ele>
        <time>2011-07-15T15:55:50.000Z</time>
      </trkpt>
      <trkpt lat="45.391" lon="1.93003">
        <ele>672</ele>
        <time>2011-07-15T15:55:56.000Z</time>
      </trkpt>
      <trkpt lat="45.3906" lon="1.92951">
        <ele>662</ele>
        <time>2011-07-15T15:56:04.000Z</time>
      </trkpt>
      <trkpt lat="45.3903" lon="1.92897">
        <ele>658</ele>
        <time>2011-07-15T15:56:13.000Z</time>
      </trkpt>
      <trkpt lat="45.39" lon="1.9285">
        <ele>656</ele>
        <time>2011-07-15T15:56:21.000Z</time>
      </trkpt>
      <trkpt lat="45.3896" lon="1.92805">
        <ele>654</ele>
        <time>2011-07-15T15:56:30.000Z</time>
      </trkpt>
      <trkpt lat="45.3892" lon="1.92758">
        <ele>650</ele>
        <time>2011-07-15T15:56:40.000Z</time>
      </trkpt>
      <trkpt lat="45.3889" lon="1.92713">
        <ele>652</ele>
        <time>2011-07-15T15:56:50.000Z</time>
      </trkpt>
      <trkpt lat="45.3885" lon="1.92668">
        <ele>653</ele>
        <time>2011-07-15T15:57:00.000Z</time>
      </trkpt>
      <trkpt lat="45.3882" lon="1.92624">
        <ele>652</ele>
        <time>2011-07-15T15:57:08.000Z</time>
      </trkpt>
      <trkpt lat="45.3878" lon="1.92589">
        <ele>653</ele>
        <time>2011-07-15T15:57:17.000Z</time>
      </trkpt>
      <trkpt lat="45.3873" lon="1.9258">
        <ele>662</ele>
        <time>2011-07-15T15:57:28.000Z</time>
      </trkpt>
      <trkpt lat="45.3868" lon="1.92578">
        <ele>672</ele>
        <time>2011-07-15T15:57:37.000Z</time>
      </trkpt>
      <trkpt lat="45.3865" lon="1.92533">
        <ele>677</ele>
        <time>2011-07-15T15:57:48.000Z</time>
      </trkpt>
      <trkpt lat="45.386" lon="1.92514">
        <ele>688</ele>
        <time>2011-07-15T15:58:00.000Z</time>
      </trkpt>
      <trkpt lat="45.3855" lon="1.92494">
        <ele>683</ele>
        <time>2011-07-15T15:58:16.000Z</time>
      </trkpt>
      <trkpt lat="45.3852" lon="1.92545">
        <ele>687</ele>
        <time>2011-07-15T15:58:22.000Z</time>
      </trkpt>
      <trkpt lat="45.3848" lon="1.92594">
        <ele>697</ele>
        <time>2011-07-15T15:58:28.000Z</time>
      </trkpt>
      <trkpt lat="45.3842" lon="1.92598">
        <ele>694</ele>
        <time>2011-07-15T15:58:32.000Z</time>
      </trkpt>
      <trkpt lat="45.3837" lon="1.92608">
        <ele>693</ele>
        <time>2011-07-15T15:58:36.000Z</time>
      </trkpt>
      <trkpt lat="45.3834" lon="1.92641">
        <ele>694</ele>
        <time>2011-07-15T15:58:42.000Z</time>
      </trkpt>
      <trkpt lat="45.3829" lon="1.92692">
        <ele>694</ele>
        <time>2011-07-15T15:58:56.000Z</time>
      </trkpt>
      <trkpt lat="45.3825" lon="1.92741">
        <ele>696</ele>
        <time>2011-07-15T15:59:05.000Z</time>
      </trkpt>
      <trkpt lat="45.3823" lon="1.92796">
        <ele>704</ele>
        <time>2011-07-15T15:59:17.000Z</time>
      </trkpt>
      <trkpt lat="45.3818" lon="1.92843">
        <ele>702</ele>
        <time>2011-07-15T15:59:24.000Z</time>
      </trkpt>
      <trkpt lat="45.3814" lon="1.92893">
        <ele>704</ele>
        <time>2011-07-15T15:59:29.000Z</time>
      </trkpt>
      <trkpt lat="45.3809" lon="1.92929">
        <ele>702</ele>
        <time>2011-07-15T15:59:34.000Z</time>
      </trkpt>
      <trkpt lat="45.3807" lon="1.92988">
        <ele>704</ele>
        <time>2011-07-15T15:59:41.000Z</time>
      </trkpt>
      <trkpt lat="45.3805" lon="1.9304">
        <ele>705</ele>
        <time>2011-07-15T15:59:48.000Z</time>
      </trkpt>
      <trkpt lat="45.3798" lon="1.93043">
        <ele>688</ele>
        <time>2011-07-15T15:59:52.000Z</time>
      </trkpt>
      <trkpt lat="45.3796" lon="1.9311">
        <ele>679</ele>
        <time>2011-07-15T16:00:04.000Z</time>
      </trkpt>
      <trkpt lat="45.3795" lon="1.93186">
        <ele>676</ele>
        <time>2011-07-15T16:00:09.000Z</time>
      </trkpt>
      <trkpt lat="45.3793" lon="1.93259">
        <ele>675</ele>
        <time>2011-07-15T16:00:16.000Z</time>
      </trkpt>
      <trkpt lat="45.3793" lon="1.93339">
        <ele>665</ele>
        <time>2011-07-15T16:00:24.000Z</time>
      </trkpt>
      <trkpt lat="45.3792" lon="1.93408">
        <ele>664</ele>
        <time>2011-07-15T16:00:28.000Z</time>
      </trkpt>
      <trkpt lat="45.3788" lon="1.93457">
        <ele>658</ele>
        <time>2011-07-15T16:00:34.000Z</time>
      </trkpt>
      <trkpt lat="45.3783" lon="1.93485">
        <ele>653</ele>
        <time>2011-07-15T16:00:40.000Z</time>
      </trkpt>
      <trkpt lat="45.3779" lon="1.93521">
        <ele>655</ele>
        <time>2011-07-15T16:00:45.000Z</time>
      </trkpt>
      <trkpt lat="45.3774" lon="1.93549">
        <ele>651</ele>
        <time>2011-07-15T16:00:52.000Z</time>
      </trkpt>
      <trkpt lat="45.3772" lon="1.93617">
        <ele>662</ele>
        <time>2011-07-15T16:01:12.000Z</time>
      </trkpt>
      <trkpt lat="45.3768" lon="1.93593">
        <ele>663</ele>
        <time>2011-07-15T16:01:29.000Z</time>
      </trkpt>
      <trkpt lat="45.3763" lon="1.93609">
        <ele>676</ele>
        <time>2011-07-15T16:01:48.000Z</time>
      </trkpt>
      <trkpt lat="45.3758" lon="1.93651">
        <ele>676</ele>
        <time>2011-07-15T16:02:01.000Z</time>
      </trkpt>
      <trkpt lat="45.3754" lon="1.93637">
        <ele>662</ele>
        <time>2011-07-15T16:02:16.000Z</time>
      </trkpt>
      <trkpt lat="45.375" lon="1.93602">
        <ele>667</ele>
        <time>2011-07-15T16:02:34.000Z</time>
      </trkpt>
      <trkpt lat="45.3746" lon="1.93567">
        <ele>663</ele>
        <time>2011-07-15T16:02:51.000Z</time>
      </trkpt>
      <trkpt lat="45.3741" lon="1.9356">
        <ele>678</ele>
        <time>2011-07-15T16:03:14.000Z</time>
      </trkpt>
      <trkpt lat="45.3737" lon="1.93557">
        <ele>689</ele>
        <time>2011-07-15T16:03:34.000Z</time>
      </trkpt>
      <trkpt lat="45.3732" lon="1.93543">
        <ele>690</ele>
        <time>2011-07-15T16:03:43.000Z</time>
      </trkpt>
      <trkpt lat="45.3727" lon="1.93525">
        <ele>679</ele>
        <time>2011-07-15T16:03:52.000Z</time>
      </trkpt>
      <trkpt lat="45.3724" lon="1.9348">
        <ele>677</ele>
        <time>2011-07-15T16:04:00.000Z</time>
      </trkpt>
      <trkpt lat="45.3719" lon="1.93431">
        <ele>677</ele>
        <time>2011-07-15T16:04:06.000Z</time>
      </trkpt>
      <trkpt lat="45.3715" lon="1.93378">
        <ele>673</ele>
        <time>2011-07-15T16:04:12.000Z</time>
      </trkpt>
      <trkpt lat="45.3713" lon="1.93313">
        <ele>668</ele>
        <time>2011-07-15T16:04:16.000Z</time>
      </trkpt>
      <trkpt lat="45.3709" lon="1.93249">
        <ele>662</ele>
        <time>2011-07-15T16:04:22.000Z</time>
      </trkpt>
      <trkpt lat="45.3706" lon="1.93197">
        <ele>655</ele>
        <time>2011-07-15T16:04:27.000Z</time>
      </trkpt>
      <trkpt lat="45.3702" lon="1.93156">
        <ele>654</ele>
        <time>2011-07-15T16:04:34.000Z</time>
      </trkpt>
      <trkpt lat="45.3697" lon="1.93128">
        <ele>655</ele>
        <time>2011-07-15T16:04:42.000Z</time>
      </trkpt>
      <trkpt lat="45.3692" lon="1.93117">
        <ele>657</ele>
        <time>2011-07-15T16:04:50.000Z</time>
      </trkpt>
      <trkpt lat="45.3688" lon="1.93087">
        <ele>661</ele>
        <time>2011-07-15T16:04:59.000Z</time>
      </trkpt>
      <trkpt lat="45.3683" lon="1.93095">
        <ele>655</ele>
        <time>2011-07-15T16:05:26.000Z</time>
      </trkpt>
      <trkpt lat="45.3678" lon="1.93076">
        <ele>655</ele>
        <time>2011-07-15T16:05:32.000Z</time>
      </trkpt>
      <trkpt lat="45.3673" lon="1.9306">
        <ele>663</ele>
        <time>2011-07-15T16:05:38.000Z</time>
      </trkpt>
      <trkpt lat="45.367" lon="1.93011">
        <ele>662</ele>
        <time>2011-07-15T16:05:48.000Z</time>
      </trkpt>
      <trkpt lat="45.3665" lon="1.93005">
        <ele>678</ele>
        <time>2011-07-15T16:06:06.000Z</time>
      </trkpt>
      <trkpt lat="45.3661" lon="1.92973">
        <ele>685</ele>
        <time>2011-07-15T16:06:22.000Z</time>
      </trkpt>
      <trkpt lat="45.3656" lon="1.92965">
        <ele>685</ele>
        <time>2011-07-15T16:06:34.000Z</time>
      </trkpt>
      <trkpt lat="45.3652" lon="1.92929">
        <ele>693</ele>
        <time>2011-07-15T16:06:48.000Z</time>
      </trkpt>
      <trkpt lat="45.3647" lon="1.92911">
        <ele>682</ele>
        <time>2011-07-15T16:06:55.000Z</time>
      </trkpt>
      <trkpt lat="45.3644" lon="1.92873">
        <ele>678</ele>
        <time>2011-07-15T16:07:04.000Z</time>
      </trkpt>
      <trkpt lat="45.3641" lon="1.92805">
        <ele>674</ele>
        <time>2011-07-15T16:07:10.000Z</time>
      </trkpt>
      <trkpt lat="45.3637" lon="1.9276">
        <ele>670</ele>
        <time>2011-07-15T16:07:18.000Z</time>
      </trkpt>
      <trkpt lat="45.3633" lon="1.92742">
        <ele>669</ele>
        <time>2011-07-15T16:07:27.000Z</time>
      </trkpt>
      <trkpt lat="45.3628" lon="1.92762">
        <ele>680</ele>
        <time>2011-07-15T16:07:42.000Z</time>
      </trkpt>
      <trkpt lat="45.3624" lon="1.92754">
        <ele>683</ele>
        <time>2011-07-15T16:08:00.000Z</time>
      </trkpt>
      <trkpt lat="45.3619" lon="1.92751">
        <ele>679</ele>
        <time>2011-07-15T16:08:10.000Z</time>
      </trkpt>
      <trkpt lat="45.3613" lon="1.92738">
        <ele>684</ele>
        <time>2011-07-15T16:08:18.000Z</time>
      </trkpt>
      <trkpt lat="45.3608" lon="1.92731">
        <ele>684</ele>
        <time>2011-07-15T16:08:23.000Z</time>
      </trkpt>
      <trkpt lat="45.3603" lon="1.92713">
        <ele>681</ele>
        <time>2011-07-15T16:08:30.000Z</time>
      </trkpt>
      <trkpt lat="45.3597" lon="1.92726">
        <ele>682</ele>
        <time>2011-07-15T16:08:38.000Z</time>
      </trkpt>
      <trkpt lat="45.3593" lon="1.92695">
        <ele>679</ele>
        <time>2011-07-15T16:08:43.000Z</time>
      </trkpt>
      <trkpt lat="45.3588" lon="1.92679">
        <ele>673</ele>
        <time>2011-07-15T16:08:48.000Z</time>
      </trkpt>
      <trkpt lat="45.3583" lon="1.92672">
        <ele>671</ele>
        <time>2011-07-15T16:08:52.000Z</time>
      </trkpt>
      <trkpt lat="45.3578" lon="1.92665">
        <ele>668</ele>
        <time>2011-07-15T16:08:56.000Z</time>
      </trkpt>
      <trkpt lat="45.3574" lon="1.92658">
        <ele>666</ele>
        <time>2011-07-15T16:09:00.000Z</time>
      </trkpt>
      <trkpt lat="45.3568" lon="1.92654">
        <ele>663</ele>
        <time>2011-07-15T16:09:04.000Z</time>
      </trkpt>
      <trkpt lat="45.3561" lon="1.92654">
        <ele>657</ele>
        <time>2011-07-15T16:09:10.000Z</time>
      </trkpt>
      <trkpt lat="45.3556" lon="1.92665">
        <ele>651</ele>
        <time>2011-07-15T16:09:14.000Z</time>
      </trkpt>
      <trkpt lat="45.3552" lon="1.92705">
        <ele>647</ele>
        <time>2011-07-15T16:09:18.000Z</time>
      </trkpt>
      <trkpt lat="45.3549" lon="1.92756">
        <ele>647</ele>
        <time>2011-07-15T16:09:22.000Z</time>
      </trkpt>
      <trkpt lat="45.3546" lon="1.92822">
        <ele>645</ele>
        <time>2011-07-15T16:09:26.000Z</time>
      </trkpt>
      <trkpt lat="45.3541" lon="1.92879">
        <ele>648</ele>
        <time>2011-07-15T16:09:34.000Z</time>
      </trkpt>
      <trkpt lat="45.3541" lon="1.92946">
        <ele>658</ele>
        <time>2011-07-15T16:09:58.000Z</time>
      </trkpt>
      <trkpt lat="45.3538" lon="1.92993">
        <ele>663</ele>
        <time>2011-07-15T16:10:08.000Z</time>
      </trkpt>
      <trkpt lat="45.3533" lon="1.93039">
        <ele>671</ele>
        <time>2011-07-15T16:10:18.000Z</time>
      </trkpt>
      <trkpt lat="45.3527" lon="1.93067">
        <ele>673</ele>
        <time>2011-07-15T16:10:26.000Z</time>
      </trkpt>
      <trkpt lat="45.3521" lon="1.93069">
        <ele>673</ele>
        <time>2011-07-15T16:10:34.000Z</time>
      </trkpt>
      <trkpt lat="45.3516" lon="1.9305">
        <ele>663</ele>
        <time>2011-07-15T16:10:42.000Z</time>
      </trkpt>
      <trkpt lat="45.3512" lon="1.93026">
        <ele>661</ele>
        <time>2011-07-15T16:10:54.000Z</time>
      </trkpt>
      <trkpt lat="45.3507" lon="1.93024">
        <ele>664</ele>
        <time>2011-07-15T16:11:02.000Z</time>
      </trkpt>
      <trkpt lat="45.3502" lon="1.93011">
        <ele>661</ele>
        <time>2011-07-15T16:11:06.000Z</time>
      </trkpt>
      <trkpt lat="45.3497" lon="1.92978">
        <ele>655</ele>
        <time>2011-07-15T16:11:10.000Z</time>
      </trkpt>
      <trkpt lat="45.3493" lon="1.92953">
        <ele>647</ele>
        <time>2011-07-15T16:11:15.000Z</time>
      </trkpt>
      <trkpt lat="45.3488" lon="1.92925">
        <ele>646</ele>
        <time>2011-07-15T16:11:20.000Z</time>
      </trkpt>
      <trkpt lat="45.3484" lon="1.92881">
        <ele>643</ele>
        <time>2011-07-15T16:11:26.000Z</time>
      </trkpt>
      <trkpt lat="45.3479" lon="1.92855">
        <ele>643</ele>
        <time>2011-07-15T16:11:32.000Z</time>
      </trkpt>
      <trkpt lat="45.3475" lon="1.92823">
        <ele>643</ele>
        <time>2011-07-15T16:11:38.000Z</time>
      </trkpt>
      <trkpt lat="45.347" lon="1.92817">
        <ele>644</ele>
        <time>2011-07-15T16:11:46.000Z</time>
      </trkpt>
      <trkpt lat="45.3465" lon="1.92838">
        <ele>644</ele>
        <time>2011-07-15T16:11:54.000Z</time>
      </trkpt>
      <trkpt lat="45.3459" lon="1.92857">
        <ele>647</ele>
        <time>2011-07-15T16:12:06.000Z</time>
      </trkpt>
      <trkpt lat="45.3454" lon="1.92856">
        <ele>642</ele>
        <time>2011-07-15T16:12:15.000Z</time>
      </trkpt>
      <trkpt lat="45.345" lon="1.92883">
        <ele>642</ele>
        <time>2011-07-15T16:12:19.000Z</time>
      </trkpt>
      <trkpt lat="45.3445" lon="1.9291">
        <ele>644</ele>
        <time>2011-07-15T16:12:23.000Z</time>
      </trkpt>
      <trkpt lat="45.3441" lon="1.92928">
        <ele>646</ele>
        <time>2011-07-15T16:12:28.000Z</time>
      </trkpt>
      <trkpt lat="45.3436" lon="1.92943">
        <ele>647</ele>
        <time>2011-07-15T16:12:34.000Z</time>
      </trkpt>
      <trkpt lat="45.343" lon="1.92941">
        <ele>646</ele>
        <time>2011-07-15T16:12:42.000Z</time>
      </trkpt>
      <trkpt lat="45.3425" lon="1.9295">
        <ele>644</ele>
        <time>2011-07-15T16:12:48.000Z</time>
      </trkpt>
      <trkpt lat="45.3421" lon="1.92979">
        <ele>634</ele>
        <time>2011-07-15T16:12:54.000Z</time>
      </trkpt>
      <trkpt lat="45.3416" lon="1.93014">
        <ele>621</ele>
        <time>2011-07-15T16:13:02.000Z</time>
      </trkpt>
      <trkpt lat="45.3412" lon="1.93055">
        <ele>616</ele>
        <time>2011-07-15T16:13:24.000Z</time>
      </trkpt>
      <trkpt lat="45.3408" lon="1.93099">
        <ele>620</ele>
        <time>2011-07-15T16:13:34.000Z</time>
      </trkpt>
      <trkpt lat="45.3404" lon="1.93142">
        <ele>622</ele>
        <time>2011-07-15T16:13:44.000Z</time>
      </trkpt>
      <trkpt lat="45.34" lon="1.93184">
        <ele>622</ele>
        <time>2011-07-15T16:13:54.000Z</time>
      </trkpt>
      <trkpt lat="45.3395" lon="1.93214">
        <ele>621</ele>
        <time>2011-07-15T16:14:03.000Z</time>
      </trkpt>
      <trkpt lat="45.3391" lon="1.9325">
        <ele>619</ele>
        <time>2011-07-15T16:14:10.000Z</time>
      </trkpt>
      <trkpt lat="45.3388" lon="1.93307">
        <ele>616</ele>
        <time>2011-07-15T16:14:16.000Z</time>
      </trkpt>
      <trkpt lat="45.3387" lon="1.93391">
        <ele>615</ele>
        <time>2011-07-15T16:14:22.000Z</time>
      </trkpt>
      <trkpt lat="45.3384" lon="1.9345">
        <ele>615</ele>
        <time>2011-07-15T16:14:27.000Z</time>
      </trkpt>
      <trkpt lat="45.3381" lon="1.93502">
        <ele>614</ele>
        <time>2011-07-15T16:14:32.000Z</time>
      </trkpt>
      <trkpt lat="45.3378" lon="1.93561">
        <ele>613</ele>
        <time>2011-07-15T16:14:38.000Z</time>
      </trkpt>
      <trkpt lat="45.3374" lon="1.93623">
        <ele>613</ele>
        <time>2011-07-15T16:14:46.000Z</time>
      </trkpt>
      <trkpt lat="45.3371" lon="1.93674">
        <ele>618</ele>
        <time>2011-07-15T16:14:59.000Z</time>
      </trkpt>
      <trkpt lat="45.3367" lon="1.93709">
        <ele>635</ele>
        <time>2011-07-15T16:15:18.000Z</time>
      </trkpt>
      <trkpt lat="45.3362" lon="1.93731">
        <ele>624</ele>
        <time>2011-07-15T16:15:28.000Z</time>
      </trkpt>
      <trkpt lat="45.336" lon="1.93791">
        <ele>625</ele>
        <time>2011-07-15T16:15:47.000Z</time>
      </trkpt>
      <trkpt lat="45.3362" lon="1.93853">
        <ele>635</ele>
        <time>2011-07-15T16:15:54.000Z</time>
      </trkpt>
      <trkpt lat="45.3361" lon="1.93917">
        <ele>651</ele>
        <time>2011-07-15T16:16:06.000Z</time>
      </trkpt>
      <trkpt lat="45.3357" lon="1.93967">
        <ele>650</ele>
        <time>2011-07-15T16:16:15.000Z</time>
      </trkpt>
      <trkpt lat="45.3355" lon="1.94036">
        <ele>646</ele>
        <time>2011-07-15T16:16:26.000Z</time>
      </trkpt>
      <trkpt lat="45.3351" lon="1.94096">
        <ele>635</ele>
        <time>2011-07-15T16:16:34.000Z</time>
      </trkpt>
      <trkpt lat="45.3352" lon="1.94184">
        <ele>638</ele>
        <time>2011-07-15T16:16:42.000Z</time>
      </trkpt>
      <trkpt lat="45.3356" lon="1.94241">
        <ele>631</ele>
        <time>2011-07-15T16:16:58.000Z</time>
      </trkpt>
      <trkpt lat="45.3357" lon="1.94307">
        <ele>634</ele>
        <time>2011-07-15T16:17:06.000Z</time>
      </trkpt>
      <trkpt lat="45.3356" lon="1.94376">
        <ele>634</ele>
        <time>2011-07-15T16:17:16.000Z</time>
      </trkpt>
      <trkpt lat="45.3355" lon="1.94439">
        <ele>640</ele>
        <time>2011-07-15T16:17:28.000Z</time>
      </trkpt>
      <trkpt lat="45.3352" lon="1.94496">
        <ele>640</ele>
        <time>2011-07-15T16:17:38.000Z</time>
      </trkpt>
      <trkpt lat="45.3352" lon="1.9456">
        <ele>630</ele>
        <time>2011-07-15T16:17:46.000Z</time>
      </trkpt>
      <trkpt lat="45.3349" lon="1.94609">
        <ele>626</ele>
        <time>2011-07-15T16:17:59.000Z</time>
      </trkpt>
      <trkpt lat="45.3348" lon="1.94677">
        <ele>628</ele>
        <time>2011-07-15T16:18:06.000Z</time>
      </trkpt>
      <trkpt lat="45.3347" lon="1.94746">
        <ele>626</ele>
        <time>2011-07-15T16:18:12.000Z</time>
      </trkpt>
      <trkpt lat="45.3348" lon="1.94829">
        <ele>626</ele>
        <time>2011-07-15T16:18:18.000Z</time>
      </trkpt>
      <trkpt lat="45.3349" lon="1.94903">
        <ele>626</ele>
        <time>2011-07-15T16:18:22.000Z</time>
      </trkpt>
      <trkpt lat="45.3347" lon="1.94954">
        <ele>629</ele>
        <time>2011-07-15T16:18:31.000Z</time>
      </trkpt>
      <trkpt lat="45.3345" lon="1.95019">
        <ele>633</ele>
        <time>2011-07-15T16:18:46.000Z</time>
      </trkpt>
      <trkpt lat="45.3343" lon="1.95085">
        <ele>636</ele>
        <time>2011-07-15T16:19:02.000Z</time>
      </trkpt>
      <trkpt lat="45.3339" lon="1.95135">
        <ele>629</ele>
        <time>2011-07-15T16:19:14.000Z</time>
      </trkpt>
      <trkpt lat="45.3334" lon="1.95152">
        <ele>637</ele>
        <time>2011-07-15T16:19:27.000Z</time>
      </trkpt>
      <trkpt lat="45.3329" lon="1.95151">
        <ele>651</ele>
        <time>2011-07-15T16:19:43.000Z</time>
      </trkpt>
      <trkpt lat="45.3325" lon="1.95145">
        <ele>652</ele>
        <time>2011-07-15T16:19:59.000Z</time>
      </trkpt>
      <trkpt lat="45.332" lon="1.95147">
        <ele>645</ele>
        <time>2011-07-15T16:20:16.000Z</time>
      </trkpt>
      <trkpt lat="45.3321" lon="1.95213">
        <ele>658</ele>
        <time>2011-07-15T16:20:38.000Z</time>
      </trkpt>
      <trkpt lat="45.3319" lon="1.95277">
        <ele>650</ele>
        <time>2011-07-15T16:20:50.000Z</time>
      </trkpt>
      <trkpt lat="45.3314" lon="1.95305">
        <ele>650</ele>
        <time>2011-07-15T16:21:06.000Z</time>
      </trkpt>
      <trkpt lat="45.331" lon="1.95317">
        <ele>660</ele>
        <time>2011-07-15T16:21:23.000Z</time>
      </trkpt>
      <trkpt lat="45.3305" lon="1.95318">
        <ele>663</ele>
        <time>2011-07-15T16:21:40.000Z</time>
      </trkpt>
      <trkpt lat="45.33" lon="1.95306">
        <ele>670</ele>
        <time>2011-07-15T16:21:56.000Z</time>
      </trkpt>
      <trkpt lat="45.3296" lon="1.95312">
        <ele>662</ele>
        <time>2011-07-15T16:22:06.000Z</time>
      </trkpt>
      <trkpt lat="45.3291" lon="1.95323">
        <ele>660</ele>
        <time>2011-07-15T16:22:15.000Z</time>
      </trkpt>
      <trkpt lat="45.3287" lon="1.9537">
        <ele>668</ele>
        <time>2011-07-15T16:22:31.000Z</time>
      </trkpt>
      <trkpt lat="45.3283" lon="1.95404">
        <ele>666</ele>
        <time>2011-07-15T16:22:42.000Z</time>
      </trkpt>
      <trkpt lat="45.3278" lon="1.95394">
        <ele>665</ele>
        <time>2011-07-15T16:22:55.000Z</time>
      </trkpt>
      <trkpt lat="45.3273" lon="1.95433">
        <ele>675</ele>
        <time>2011-07-15T16:23:14.000Z</time>
      </trkpt>
      <trkpt lat="45.3268" lon="1.95466">
        <ele>682</ele>
        <time>2011-07-15T16:23:22.000Z</time>
      </trkpt>
      <trkpt lat="45.3262" lon="1.95473">
        <ele>686</ele>
        <time>2011-07-15T16:23:38.000Z</time>
      </trkpt>
      <trkpt lat="45.3257" lon="1.95489">
        <ele>684</ele>
        <time>2011-07-15T16:23:47.000Z</time>
      </trkpt>
      <trkpt lat="45.3252" lon="1.95497">
        <ele>685</ele>
        <time>2011-07-15T16:23:55.000Z</time>
      </trkpt>
      <trkpt lat="45.3248" lon="1.95477">
        <ele>684</ele>
        <time>2011-07-15T16:24:02.000Z</time>
      </trkpt>
      <trkpt lat="45.3242" lon="1.9547">
        <ele>678</ele>
        <time>2011-07-15T16:24:14.000Z</time>
      </trkpt>
      <trkpt lat="45.3236" lon="1.95457">
        <ele>677</ele>
        <time>2011-07-15T16:24:22.000Z</time>
      </trkpt>
      <trkpt lat="45.3232" lon="1.95468">
        <ele>683</ele>
        <time>2011-07-15T16:24:35.000Z</time>
      </trkpt>
      <trkpt lat="45.3227" lon="1.95463">
        <ele>679</ele>
        <time>2011-07-15T16:24:44.000Z</time>
      </trkpt>
      <trkpt lat="45.3221" lon="1.95458">
        <ele>680</ele>
        <time>2011-07-15T16:24:52.000Z</time>
      </trkpt>
      <trkpt lat="45.3217" lon="1.95479">
        <ele>681</ele>
        <time>2011-07-15T16:24:58.000Z</time>
      </trkpt>
      <trkpt lat="45.3212" lon="1.95451">
        <ele>682</ele>
        <time>2011-07-15T16:25:04.000Z</time>
      </trkpt>
      <trkpt lat="45.3208" lon="1.95458">
        <ele>684</ele>
        <time>2011-07-15T16:25:13.000Z</time>
      </trkpt>
      <trkpt lat="45.3203" lon="1.95468">
        <ele>684</ele>
        <time>2011-07-15T16:25:23.000Z</time>
      </trkpt>
      <trkpt lat="45.3199" lon="1.9549">
        <ele>687</ele>
        <time>2011-07-15T16:25:32.000Z</time>
      </trkpt>
      <trkpt lat="45.3194" lon="1.95474">
        <ele>686</ele>
        <time>2011-07-15T16:25:39.000Z</time>
      </trkpt>
      <trkpt lat="45.3189" lon="1.95471">
        <ele>683</ele>
        <time>2011-07-15T16:25:48.000Z</time>
      </trkpt>
      <trkpt lat="45.3184" lon="1.95483">
        <ele>686</ele>
        <time>2011-07-15T16:25:56.000Z</time>
      </trkpt>
      <trkpt lat="45.318" lon="1.95456">
        <ele>685</ele>
        <time>2011-07-15T16:26:01.000Z</time>
      </trkpt>
      <trkpt lat="45.3176" lon="1.95411">
        <ele>676</ele>
        <time>2011-07-15T16:26:05.000Z</time>
      </trkpt>
      <trkpt lat="45.3173" lon="1.9534">
        <ele>663</ele>
        <time>2011-07-15T16:26:11.000Z</time>
      </trkpt>
      <trkpt lat="45.3169" lon="1.95305">
        <ele>661</ele>
        <time>2011-07-15T16:26:19.000Z</time>
      </trkpt>
      <trkpt lat="45.3164" lon="1.95318">
        <ele>659</ele>
        <time>2011-07-15T16:26:25.000Z</time>
      </trkpt>
      <trkpt lat="45.3158" lon="1.95301">
        <ele>654</ele>
        <time>2011-07-15T16:26:31.000Z</time>
      </trkpt>
      <trkpt lat="45.3154" lon="1.95254">
        <ele>652</ele>
        <time>2011-07-15T16:26:36.000Z</time>
      </trkpt>
      <trkpt lat="45.315" lon="1.95206">
        <ele>653</ele>
        <time>2011-07-15T16:26:41.000Z</time>
      </trkpt>
      <trkpt lat="45.3145" lon="1.95203">
        <ele>651</ele>
        <time>2011-07-15T16:26:49.000Z</time>
      </trkpt>
      <trkpt lat="45.3142" lon="1.95244">
        <ele>652</ele>
        <time>2011-07-15T16:26:58.000Z</time>
      </trkpt>
      <trkpt lat="45.3136" lon="1.95281">
        <ele>650</ele>
        <time>2011-07-15T16:27:11.000Z</time>
      </trkpt>
      <trkpt lat="45.3131" lon="1.95317">
        <ele>649</ele>
        <time>2011-07-15T16:27:15.000Z</time>
      </trkpt>
      <trkpt lat="45.3127" lon="1.95328">
        <ele>651</ele>
        <time>2011-07-15T16:27:20.000Z</time>
      </trkpt>
      <trkpt lat="45.3121" lon="1.95318">
        <ele>648</ele>
        <time>2011-07-15T16:27:27.000Z</time>
      </trkpt>
      <trkpt lat="45.3116" lon="1.95309">
        <ele>642</ele>
        <time>2011-07-15T16:27:35.000Z</time>
      </trkpt>
      <trkpt lat="45.3111" lon="1.95332">
        <ele>635</ele>
        <time>2011-07-15T16:27:44.000Z</time>
      </trkpt>
      <trkpt lat="45.3109" lon="1.95389">
        <ele>638</ele>
        <time>2011-07-15T16:27:57.000Z</time>
      </trkpt>
      <trkpt lat="45.3107" lon="1.95455">
        <ele>643</ele>
        <time>2011-07-15T16:28:07.000Z</time>
      </trkpt>
      <trkpt lat="45.3104" lon="1.95509">
        <ele>643</ele>
        <time>2011-07-15T16:28:15.000Z</time>
      </trkpt>
      <trkpt lat="45.3098" lon="1.95535">
        <ele>645</ele>
        <time>2011-07-15T16:28:23.000Z</time>
      </trkpt>
      <trkpt lat="45.3093" lon="1.95563">
        <ele>640</ele>
        <time>2011-07-15T16:28:35.000Z</time>
      </trkpt>
      <trkpt lat="45.3088" lon="1.95557">
        <ele>637</ele>
        <time>2011-07-15T16:28:45.000Z</time>
      </trkpt>
      <trkpt lat="45.3082" lon="1.95565">
        <ele>637</ele>
        <time>2011-07-15T16:28:51.000Z</time>
      </trkpt>
      <trkpt lat="45.3078" lon="1.95591">
        <ele>634</ele>
        <time>2011-07-15T16:28:57.000Z</time>
      </trkpt>
      <trkpt lat="45.3073" lon="1.95608">
        <ele>631</ele>
        <time>2011-07-15T16:29:05.000Z</time>
      </trkpt>
      <trkpt lat="45.3069" lon="1.95651">
        <ele>628</ele>
        <time>2011-07-15T16:29:16.000Z</time>
      </trkpt>
      <trkpt lat="45.3069" lon="1.95714">
        <ele>635</ele>
        <time>2011-07-15T16:29:28.000Z</time>
      </trkpt>
      <trkpt lat="45.3069" lon="1.95778">
        <ele>638</ele>
        <time>2011-07-15T16:29:33.000Z</time>
      </trkpt>
      <trkpt lat="45.3067" lon="1.95837">
        <ele>640</ele>
        <time>2011-07-15T16:29:40.000Z</time>
      </trkpt>
      <trkpt lat="45.3062" lon="1.95866">
        <ele>638</ele>
        <time>2011-07-15T16:29:49.000Z</time>
      </trkpt>
      <trkpt lat="45.3057" lon="1.95891">
        <ele>632</ele>
        <time>2011-07-15T16:29:56.000Z</time>
      </trkpt>
      <trkpt lat="45.3051" lon="1.95908">
        <ele>627</ele>
        <time>2011-07-15T16:30:03.000Z</time>
      </trkpt>
      <trkpt lat="45.3047" lon="1.95929">
        <ele>623</ele>
        <time>2011-07-15T16:30:07.000Z</time>
      </trkpt>
      <trkpt lat="45.3044" lon="1.95977">
        <ele>624</ele>
        <time>2011-07-15T16:30:15.000Z</time>
      </trkpt>
      <trkpt lat="45.3041" lon="1.96039">
        <ele>629</ele>
        <time>2011-07-15T16:30:31.000Z</time>
      </trkpt>
      <trkpt lat="45.3037" lon="1.96098">
        <ele>637</ele>
        <time>2011-07-15T16:30:39.000Z</time>
      </trkpt>
      <trkpt lat="45.3032" lon="1.96117">
        <ele>632</ele>
        <time>2011-07-15T16:30:45.000Z</time>
      </trkpt>
      <trkpt lat="45.3027" lon="1.9612">
        <ele>629</ele>
        <time>2011-07-15T16:30:55.000Z</time>
      </trkpt>
      <trkpt lat="45.3023" lon="1.96136">
        <ele>633</ele>
        <time>2011-07-15T16:31:20.000Z</time>
      </trkpt>
      <trkpt lat="45.3018" lon="1.96166">
        <ele>636</ele>
        <time>2011-07-15T16:31:28.000Z</time>
      </trkpt>
      <trkpt lat="45.3015" lon="1.96211">
        <ele>634</ele>
        <time>2011-07-15T16:31:36.000Z</time>
      </trkpt>
      <trkpt lat="45.301" lon="1.9625">
        <ele>631</ele>
        <time>2011-07-15T16:31:47.000Z</time>
      </trkpt>
      <trkpt lat="45.3006" lon="1.96234">
        <ele>632</ele>
        <time>2011-07-15T16:32:00.000Z</time>
      </trkpt>
      <trkpt lat="45.3002" lon="1.96205">
        <ele>639</ele>
        <time>2011-07-15T16:32:09.000Z</time>
      </trkpt>
      <trkpt lat="45.2997" lon="1.96189">
        <ele>639</ele>
        <time>2011-07-15T16:32:17.000Z</time>
      </trkpt>
      <trkpt lat="45.2992" lon="1.96194">
        <ele>637</ele>
        <time>2011-07-15T16:32:27.000Z</time>
      </trkpt>
      <trkpt lat="45.2988" lon="1.96222">
        <ele>641</ele>
        <time>2011-07-15T16:32:39.000Z</time>
      </trkpt>
      <trkpt lat="45.2983" lon="1.96225">
        <ele>642</ele>
        <time>2011-07-15T16:32:47.000Z</time>
      </trkpt>
      <trkpt lat="45.2978" lon="1.96236">
        <ele>635</ele>
        <time>2011-07-15T16:32:56.000Z</time>
      </trkpt>
      <trkpt lat="45.2974" lon="1.96238">
        <ele>636</ele>
        <time>2011-07-15T16:33:03.000Z</time>
      </trkpt>
      <trkpt lat="45.2969" lon="1.96257">
        <ele>634</ele>
        <time>2011-07-15T16:33:12.000Z</time>
      </trkpt>
      <trkpt lat="45.2964" lon="1.96275">
        <ele>626</ele>
        <time>2011-07-15T16:33:19.000Z</time>
      </trkpt>
      <trkpt lat="45.2959" lon="1.96251">
        <ele>632</ele>
        <time>2011-07-15T16:33:25.000Z</time>
      </trkpt>
      <trkpt lat="45.2955" lon="1.96238">
        <ele>632</ele>
        <time>2011-07-15T16:33:32.000Z</time>
      </trkpt>
      <trkpt lat="45.295" lon="1.96235">
        <ele>638</ele>
        <time>2011-07-15T16:33:45.000Z</time>
      </trkpt>
      <trkpt lat="45.2945" lon="1.96238">
        <ele>638</ele>
        <time>2011-07-15T16:33:59.000Z</time>
      </trkpt>
      <trkpt lat="45.2941" lon="1.96272">
        <ele>645</ele>
        <time>2011-07-15T16:34:09.000Z</time>
      </trkpt>
      <trkpt lat="45.2937" lon="1.96321">
        <ele>638</ele>
        <time>2011-07-15T16:34:14.000Z</time>
      </trkpt>
      <trkpt lat="45.2932" lon="1.9635">
        <ele>636</ele>
        <time>2011-07-15T16:34:20.000Z</time>
      </trkpt>
      <trkpt lat="45.2927" lon="1.96376">
        <ele>650</ele>
        <time>2011-07-15T16:34:32.000Z</time>
      </trkpt>
      <trkpt lat="45.2924" lon="1.96422">
        <ele>648</ele>
        <time>2011-07-15T16:34:34.000Z</time>
      </trkpt>
      <trkpt lat="45.2919" lon="1.96454">
        <ele>647</ele>
        <time>2011-07-15T16:34:37.000Z</time>
      </trkpt>
      <trkpt lat="45.2916" lon="1.96496">
        <ele>645</ele>
        <time>2011-07-15T16:34:40.000Z</time>
      </trkpt>
      <trkpt lat="45.2911" lon="1.96524">
        <ele>645</ele>
        <time>2011-07-15T16:34:44.000Z</time>
      </trkpt>
      <trkpt lat="45.2906" lon="1.96549">
        <ele>646</ele>
        <time>2011-07-15T16:34:56.000Z</time>
      </trkpt>
      <trkpt lat="45.2903" lon="1.96602">
        <ele>646</ele>
        <time>2011-07-15T16:35:06.000Z</time>
      </trkpt>
      <trkpt lat="45.2899" lon="1.96654">
        <ele>641</ele>
        <time>2011-07-15T16:35:14.000Z</time>
      </trkpt>
      <trkpt lat="45.2895" lon="1.96684">
        <ele>639</ele>
        <time>2011-07-15T16:35:21.000Z</time>
      </trkpt>
      <trkpt lat="45.2891" lon="1.96709">
        <ele>639</ele>
        <time>2011-07-15T16:35:29.000Z</time>
      </trkpt>
      <trkpt lat="45.2886" lon="1.96741">
        <ele>636</ele>
        <time>2011-07-15T16:35:40.000Z</time>
      </trkpt>
      <trkpt lat="45.2882" lon="1.96778">
        <ele>633</ele>
        <time>2011-07-15T16:35:49.000Z</time>
      </trkpt>
      <trkpt lat="45.2878" lon="1.96815">
        <ele>632</ele>
        <time>2011-07-15T16:35:58.000Z</time>
      </trkpt>
      <trkpt lat="45.2873" lon="1.96848">
        <ele>627</ele>
        <time>2011-07-15T16:36:08.000Z</time>
      </trkpt>
      <trkpt lat="45.2869" lon="1.96862">
        <ele>626</ele>
        <time>2011-07-15T16:36:18.000Z</time>
      </trkpt>
      <trkpt lat="45.2863" lon="1.96872">
        <ele>623</ele>
        <time>2011-07-15T16:36:28.000Z</time>
      </trkpt>
      <trkpt lat="45.2858" lon="1.96869">
        <ele>621</ele>
        <time>2011-07-15T16:36:36.000Z</time>
      </trkpt>
      <trkpt lat="45.2853" lon="1.969">
        <ele>619</ele>
        <time>2011-07-15T16:36:44.000Z</time>
      </trkpt>
      <trkpt lat="45.2849" lon="1.96923">
        <ele>619</ele>
        <time>2011-07-15T16:36:50.000Z</time>
      </trkpt>
      <trkpt lat="45.2845" lon="1.96952">
        <ele>618</ele>
        <time>2011-07-15T16:36:57.000Z</time>
      </trkpt>
      <trkpt lat="45.284" lon="1.96971">
        <ele>616</ele>
        <time>2011-07-15T16:37:04.000Z</time>
      </trkpt>
      <trkpt lat="45.2836" lon="1.97008">
        <ele>617</ele>
        <time>2011-07-15T16:37:16.000Z</time>
      </trkpt>
      <trkpt lat="45.2832" lon="1.96978">
        <ele>619</ele>
        <time>2011-07-15T16:37:25.000Z</time>
      </trkpt>
    </trkseg>
  </trk>
</gpx>